Darstellungsparameter: Aktuell verwendete Einstellungen:
Skalierung der Graphiken ... ?
xyx+y,   Skalierungsfaktor:      Skalierung: Modus: x, Faktor: 1
Darstellungszeitraum ... ?
Vom - - bis: - -   Zeitraum: 29.09.2010 - 28.09.2020
Min/Max/Avg-Anzeige ... ?
Zeige MMA aktuell
Zeige MMA Monat
Zeige MMA alles
Zeige --A aktuell
Zeige --A Monat
Zeige --A alles
Keine MMA-Anzeige
MMA:
Average (ber die Originaldaten)
MMA-Basis: 29.09.2010 - 28.09.2020
Quicknavigation für Darstellung... ?
Tage:      1T, 2T, 3T, 5T -1T -2T -3T -5T +1T +2T +3T +5T
Wochen: 1W, 2W, 3W -1W -2W -3W +1W +2W +3W
Monate: 1M, 3M, 6M -1M -3M -6M +1M +3M +6M
Jahre:    1J, 3J, 5J, 10J -1J -3J -5J -10J +1J +3J +5J +10J
Nutze für die Darstellung ... ?
Originaldaten oder ...
Mittelwerte Minima Maxima auf...
Stundenbasis Tagesbasis Wochenbasis
Monatsbasis Jahresbasis      Datenbasis: Mittelwerte auf Stundenbasis
Darstellen als:
Statistik (Auto) Statistik J:M      Darstellung:
Zur Graphik,    zurück zur Übersicht aller Sensoren.
 
Tabellarische Datenbersicht: ?
 
Sensor: Nr:Datum:Temp:Abs-Feuchte:Windchill:Wind:
Aussen-T/F 1 29-09-2010 00:00:00 11.64 C 9.9 g/m*3 11.64 C 0 km/h
2 29-09-2010 01:00:00 11.62 C 9.89 g/m*3 11.62 C 0 km/h
3 29-09-2010 02:00:00 11.56 C 9.85 g/m*3 11.56 C 0 km/h
4 29-09-2010 03:00:00 11.48 C 9.8 g/m*3 11.48 C 0 km/h
5 29-09-2010 04:00:00 11.48 C 9.8 g/m*3 11.48 C 0 km/h
6 29-09-2010 05:00:00 11.4 C 9.75 g/m*3 11.4 C 0 km/h
7 29-09-2010 06:00:00 11.52 C 9.82 g/m*3 11.52 C 0 km/h
8 29-09-2010 07:00:00 11.04 C 9.53 g/m*3 11.04 C 0 km/h
9 29-09-2010 08:00:00 11.18 C 9.62 g/m*3 11.18 C 0 km/h
10 29-09-2010 09:00:00 11.44 C 9.57 g/m*3 11.44 C 0 km/h
11 29-09-2010 10:00:00 12.92 C 8.98 g/m*3 12.92 C 0 km/h
12 29-09-2010 11:00:00 13.96 C 8.42 g/m*3 13.96 C 0 km/h
13 29-09-2010 12:00:00 14.4 C 8.03 g/m*3 14.4 C 0 km/h
14 29-09-2010 13:00:00 15.74 C 7.89 g/m*3 15.74 C 0 km/h
15 29-09-2010 14:00:00 16.82 C 7.64 g/m*3 16.82 C 0 km/h
16 29-09-2010 15:00:00 19.16 C 6.88 g/m*3 19.16 C 0 km/h
17 29-09-2010 16:00:00 18.14 C 7.62 g/m*3 18.14 C 0 km/h
18 29-09-2010 17:00:00 18.3 C 7.54 g/m*3 18.3 C 0 km/h
19 29-09-2010 18:00:00 14.62 C 7.84 g/m*3 14.62 C 0 km/h
20 29-09-2010 19:00:00 13.08 C 7.68 g/m*3 13.08 C 0 km/h
21 29-09-2010 20:00:00 13.12 C 7.7 g/m*3 13.12 C 0 km/h
22 29-09-2010 21:00:00 12.5 C 7.94 g/m*3 12.5 C 0 km/h
23 29-09-2010 22:00:00 12.38 C 8.36 g/m*3 12.38 C 0 km/h
24 29-09-2010 23:00:00 11.96 C 8.33 g/m*3 11.96 C 0 km/h
25 30-09-2010 00:00:00 12.16 C 8.44 g/m*3 12.16 C 0 km/h
Sensor: Nr:Datum:Temp:Abs-Feuchte:Windchill:Wind:
Aussen-T/F 26 30-09-2010 01:00:00 11.86 C 7.75 g/m*3 11.86 C 0 km/h
27 30-09-2010 02:00:00 11.46 C 7.62 g/m*3 11.46 C 0 km/h
28 30-09-2010 03:00:00 11.16 C 7.87 g/m*3 11.16 C 0 km/h
29 30-09-2010 04:00:00 11.02 C 7.88 g/m*3 11.02 C 0 km/h
30 30-09-2010 05:00:00 10.76 C 7.79 g/m*3 10.76 C 0 km/h
31 30-09-2010 06:00:00 10.7 C 7.33 g/m*3 10.7 C 0 km/h
32 30-09-2010 07:00:00 10.66 C 7.66 g/m*3 10.66 C 0 km/h
33 30-09-2010 08:00:00 10.9 C 7.76 g/m*3 10.9 C 0 km/h
34 30-09-2010 09:00:00 11.4 C 7.86 g/m*3 11.4 C 0 km/h
35 30-09-2010 10:00:00 11.64 C 8.27 g/m*3 11.64 C 0 km/h
36 30-09-2010 11:00:00 11.86 C 8.47 g/m*3 11.86 C 0 km/h
37 30-09-2010 12:00:00 11.98 C 8.94 g/m*3 11.98 C 0 km/h
38 30-09-2010 13:00:00 12.58 C 9.55 g/m*3 12.58 C 0 km/h
39 30-09-2010 14:00:00 12.94 C 9.9 g/m*3 12.94 C 0 km/h
40 30-09-2010 15:00:00 13.26 C 10.12 g/m*3 13.26 C 0 km/h
41 30-09-2010 16:00:00 13.4 C 10.16 g/m*3 13.4 C 0 km/h
42 30-09-2010 17:00:00 12.96 C 9.98 g/m*3 12.96 C 0 km/h
43 30-09-2010 18:00:00 12.48 C 9.82 g/m*3 12.48 C 0 km/h
44 30-09-2010 19:00:00 12.14 C 9.78 g/m*3 12.14 C 0 km/h
45 30-09-2010 20:00:00 12.16 C 9.92 g/m*3 12.16 C 0 km/h
46 30-09-2010 21:00:00 12.08 C 9.96 g/m*3 12.08 C 0 km/h
47 30-09-2010 22:00:00 11.96 C 9.93 g/m*3 11.96 C 0 km/h
48 30-09-2010 23:00:00 12 C 10 g/m*3 12 C 0 km/h
49 01-10-2010 00:00:00 12.02 C 10.05 g/m*3 12.02 C 0 km/h
50 01-10-2010 01:00:00 11.58 C 9.86 g/m*3 11.58 C 0 km/h
Sensor: Nr:Datum:Temp:Abs-Feuchte:Windchill:Wind:
Aussen-T/F 51 01-10-2010 02:00:00 11.44 C 9.78 g/m*3 11.44 C 0 km/h
52 01-10-2010 03:00:00 11.56 C 9.85 g/m*3 11.56 C 0 km/h
53 01-10-2010 04:00:00 11.7 C 9.94 g/m*3 11.7 C 0 km/h
54 01-10-2010 05:00:00 11.62 C 9.89 g/m*3 11.62 C 0 km/h
55 01-10-2010 06:00:00 11.4 C 9.75 g/m*3 11.4 C 0 km/h
56 01-10-2010 07:00:00 11 C 9.51 g/m*3 11 C 0 km/h
57 01-10-2010 08:00:00 10.3 C 9.1 g/m*3 10.3 C 0 km/h
58 01-10-2010 09:00:00 11.24 C 9.65 g/m*3 11.24 C 0 km/h
59 01-10-2010 10:00:00 11.72 C 9.63 g/m*3 11.72 C 0 km/h
60 01-10-2010 11:00:00 12.46 C 8.84 g/m*3 12.46 C 0 km/h
61 01-10-2010 12:00:00 12.68 C 8.49 g/m*3 12.68 C 0 km/h
62 01-10-2010 13:00:00 13.18 C 8.12 g/m*3 13.18 C 0 km/h
63 01-10-2010 14:00:00 13.32 C 7.94 g/m*3 13.32 C 0 km/h
64 01-10-2010 15:00:00 15.3 C 7.78 g/m*3 15.3 C 0 km/h
65 01-10-2010 16:00:00 16.74 C 7.61 g/m*3 16.74 C 0 km/h
66 01-10-2010 17:00:00 16.14 C 8.35 g/m*3 16.14 C 0 km/h
67 01-10-2010 18:00:00 14.34 C 8.79 g/m*3 14.34 C 0 km/h
68 01-10-2010 19:00:00 12.18 C 8.56 g/m*3 12.18 C 0 km/h
69 01-10-2010 20:00:00 11.26 C 8.51 g/m*3 11.26 C 0 km/h
70 01-10-2010 21:00:00 10.86 C 8.53 g/m*3 10.86 C 0 km/h
71 01-10-2010 22:00:00 10.98 C 8.76 g/m*3 10.98 C 0 km/h
72 01-10-2010 23:00:00 11.06 C 8.74 g/m*3 11.06 C 0 km/h
73 02-10-2010 00:00:00 11.12 C 8.71 g/m*3 11.12 C 0 km/h
74 02-10-2010 01:00:00 10.92 C 8.74 g/m*3 10.92 C 0 km/h
75 02-10-2010 02:00:00 10.96 C 8.97 g/m*3 10.96 C 0 km/h
Sensor: Nr:Datum:Temp:Abs-Feuchte:Windchill:Wind:
Aussen-T/F 76 02-10-2010 03:00:00 11.1 C 9.15 g/m*3 11.1 C 0 km/h
77 02-10-2010 04:00:00 11.08 C 9.26 g/m*3 11.08 C 0 km/h
78 02-10-2010 05:00:00 10.98 C 9.3 g/m*3 10.98 C 0 km/h
79 02-10-2010 06:00:00 11 C 9.39 g/m*3 11 C 0 km/h
80 02-10-2010 07:00:00 11.14 C 9.55 g/m*3 11.14 C 0 km/h
81 02-10-2010 08:00:00 11.46 C 9.79 g/m*3 11.46 C 0 km/h
82 02-10-2010 09:00:00 12 C 10.12 g/m*3 12 C 0 km/h
83 02-10-2010 10:00:00 13.14 C 10.75 g/m*3 13.14 C 0 km/h
84 02-10-2010 11:00:00 14.32 C 11.27 g/m*3 14.32 C 0 km/h
85 02-10-2010 12:00:00 15.04 C 11.52 g/m*3 15.04 C 0 km/h
86 02-10-2010 13:00:00 15.74 C 11.53 g/m*3 15.74 C 0 km/h
87 02-10-2010 14:00:00 15.64 C 11.41 g/m*3 15.64 C 0 km/h
88 02-10-2010 15:00:00 16 C 11.47 g/m*3 16 C 0 km/h
89 02-10-2010 16:00:00 16.24 C 11.09 g/m*3 16.24 C 0 km/h
90 02-10-2010 17:00:00 16.28 C 10.92 g/m*3 16.28 C 0 km/h
91 02-10-2010 18:00:00 15.42 C 10.92 g/m*3 15.42 C 0 km/h
92 02-10-2010 19:00:00 14.94 C 10.94 g/m*3 14.94 C 0 km/h
93 02-10-2010 20:00:00 14.8 C 11.1 g/m*3 14.8 C 0 km/h
94 02-10-2010 21:00:00 14.5 C 11.02 g/m*3 14.5 C 0 km/h
95 02-10-2010 22:00:00 14.48 C 11.16 g/m*3 14.48 C 0 km/h
96 02-10-2010 23:00:00 14.56 C 11.13 g/m*3 14.56 C 0 km/h
97 03-10-2010 00:00:00 14.44 C 11.08 g/m*3 14.44 C 0 km/h
98 03-10-2010 01:00:00 14.7 C 10.7 g/m*3 14.7 C 0 km/h
99 03-10-2010 02:00:00 14.58 C 10.32 g/m*3 14.58 C 0 km/h
100 03-10-2010 03:00:00 13.92 C 10.59 g/m*3 13.92 C 0 km/h
Sensor: Nr:Datum:Temp:Abs-Feuchte:Windchill:Wind:
Aussen-T/F 101 03-10-2010 04:00:00 14.08 C 10.62 g/m*3 14.08 C 0 km/h
102 03-10-2010 05:00:00 14.26 C 10.34 g/m*3 14.26 C 0 km/h
103 03-10-2010 06:00:00 13.46 C 10.24 g/m*3 13.46 C 0 km/h
104 03-10-2010 07:00:00 13.42 C 10.43 g/m*3 13.42 C 0 km/h
105 03-10-2010 08:00:00 13.98 C 10.41 g/m*3 13.98 C 0 km/h
106 03-10-2010 09:00:00 15.12 C 10.08 g/m*3 15.12 C 0 km/h
107 03-10-2010 10:00:00 16.78 C 9.91 g/m*3 16.78 C 0 km/h
108 03-10-2010 11:00:00 18.14 C 10.13 g/m*3 18.14 C 0 km/h
109 03-10-2010 12:00:00 19.68 C 9.74 g/m*3 19.68 C 0 km/h
110 03-10-2010 13:00:00 21.36 C 9.43 g/m*3 21.36 C 0 km/h
111 03-10-2010 14:00:00 23.34 C 9.09 g/m*3 23.34 C 0 km/h
112 03-10-2010 15:00:00 24.72 C 8.61 g/m*3 24.72 C 0 km/h
113 03-10-2010 16:00:00 25.12 C 8.67 g/m*3 25.12 C 0 km/h
114 03-10-2010 17:00:00 25.22 C 9.37 g/m*3 25.22 C 0 km/h
115 03-10-2010 18:00:00 21.54 C 10.55 g/m*3 21.54 C 0 km/h
116 03-10-2010 19:00:00 18.78 C 10.84 g/m*3 18.78 C 0 km/h
117 03-10-2010 20:00:00 18.34 C 10.88 g/m*3 18.34 C 0 km/h
118 03-10-2010 21:00:00 17.96 C 11.03 g/m*3 17.96 C 0 km/h
119 03-10-2010 22:00:00 17.56 C 10.86 g/m*3 17.56 C 0 km/h
120 03-10-2010 23:00:00 17.56 C 10.32 g/m*3 17.56 C 0 km/h
121 04-10-2010 00:00:00 17.28 C 9.86 g/m*3 17.28 C 0 km/h
122 04-10-2010 01:00:00 17.18 C 9.59 g/m*3 17.18 C 0 km/h
123 04-10-2010 02:00:00 16.82 C 9.65 g/m*3 16.82 C 0 km/h
124 04-10-2010 03:00:00 15.76 C 9.96 g/m*3 15.76 C 0 km/h
125 04-10-2010 04:00:00 15.1 C 9.99 g/m*3 15.1 C 0 km/h
Sensor: Nr:Datum:Temp:Abs-Feuchte:Windchill:Wind:
Aussen-T/F 126 04-10-2010 05:00:00 14.3 C 9.95 g/m*3 14.3 C 0 km/h
127 04-10-2010 06:00:00 13.92 C 9.94 g/m*3 13.92 C 0 km/h
128 04-10-2010 07:00:00 13.62 C 9.83 g/m*3 13.62 C 0 km/h
129 04-10-2010 08:00:00 14.26 C 9.8 g/m*3 14.26 C 0 km/h
130 04-10-2010 09:00:00 15 C 9.23 g/m*3 15 C 0 km/h
131 04-10-2010 10:00:00 15.66 C 8.97 g/m*3 15.66 C 0 km/h
132 04-10-2010 11:00:00 17.62 C 8.92 g/m*3 17.62 C 0 km/h
133 04-10-2010 12:00:00 17.84 C 8.76 g/m*3 17.84 C 0 km/h
134 04-10-2010 13:00:00 18.72 C 8.62 g/m*3 18.72 C 0 km/h
135 04-10-2010 14:00:00 19.76 C 8.72 g/m*3 19.76 C 0 km/h
136 04-10-2010 15:00:00 22.5 C 8.63 g/m*3 22.5 C 0 km/h
137 04-10-2010 16:00:00 23.64 C 8.23 g/m*3 23.64 C 0 km/h
138 04-10-2010 17:00:00 21.14 C 9.16 g/m*3 21.14 C 0 km/h
139 04-10-2010 18:00:00 18.68 C 9.66 g/m*3 18.68 C 0 km/h
140 04-10-2010 19:00:00 16.52 C 10.09 g/m*3 16.52 C 0 km/h
141 04-10-2010 20:00:00 16.22 C 10.02 g/m*3 16.22 C 0 km/h
142 04-10-2010 21:00:00 15.42 C 9.94 g/m*3 15.42 C 0 km/h
143 04-10-2010 22:00:00 14.56 C 9.91 g/m*3 14.56 C 0 km/h
144 04-10-2010 23:00:00 14.2 C 9.92 g/m*3 14.2 C 0 km/h
145 05-10-2010 00:00:00 14.2 C 10.01 g/m*3 14.2 C 0 km/h
146 05-10-2010 01:00:00 13.94 C 9.9 g/m*3 13.94 C 0 km/h
147 05-10-2010 02:00:00 13.52 C 9.84 g/m*3 13.52 C 0 km/h
148 05-10-2010 03:00:00 13.6 C 10 g/m*3 13.6 C 0 km/h
149 05-10-2010 04:00:00 13.6 C 10.1 g/m*3 13.6 C 0 km/h
150 05-10-2010 05:00:00 13.6 C 10.14 g/m*3 13.6 C 0 km/h
Sensor: Nr:Datum:Temp:Abs-Feuchte:Windchill:Wind:
Aussen-T/F 151 05-10-2010 06:00:00 13.42 C 10.38 g/m*3 13.42 C 0 km/h
152 05-10-2010 07:00:00 13.4 C 10.56 g/m*3 13.4 C 0 km/h
153 05-10-2010 08:00:00 13.14 C 10.41 g/m*3 13.14 C 0 km/h
154 05-10-2010 09:00:00 13.3 C 10.68 g/m*3 13.3 C 0 km/h
155 05-10-2010 10:00:00 14.8 C 11.81 g/m*3 14.8 C 0 km/h
156 05-10-2010 11:00:00 17.48 C 13.01 g/m*3 17.48 C 0 km/h
157 05-10-2010 12:00:00 18.1 C 11.43 g/m*3 18.1 C 0 km/h
158 05-10-2010 13:00:00 19.18 C 11.23 g/m*3 19.18 C 0 km/h
159 05-10-2010 14:00:00 19.26 C 10.95 g/m*3 19.26 C 0 km/h
160 05-10-2010 15:00:00 18.8 C 12.63 g/m*3 18.8 C 0 km/h
161 05-10-2010 16:00:00 18.5 C 12.47 g/m*3 18.5 C 0 km/h
162 05-10-2010 17:00:00 17.1 C 11.67 g/m*3 17.1 C 0 km/h
163 05-10-2010 18:00:00 17.02 C 11.44 g/m*3 17.02 C 0 km/h
164 05-10-2010 19:00:00 16.66 C 11.31 g/m*3 16.66 C 0 km/h
165 05-10-2010 20:00:00 16.36 C 10.94 g/m*3 16.36 C 0 km/h
166 05-10-2010 21:00:00 15.68 C 10.26 g/m*3 15.68 C 0 km/h
167 05-10-2010 22:00:00 15.3 C 9.98 g/m*3 15.3 C 0 km/h
168 05-10-2010 23:00:00 15.6 C 9.97 g/m*3 15.6 C 0 km/h
169 06-10-2010 00:00:00 15.6 C 9.97 g/m*3 15.6 C 0 km/h
170 06-10-2010 01:00:00 15.5 C 9.99 g/m*3 15.5 C 0 km/h
171 06-10-2010 02:00:00 15.44 C 10.17 g/m*3 15.44 C 0 km/h
172 06-10-2010 03:00:00 15.28 C 10.1 g/m*3 15.28 C 0 km/h
173 06-10-2010 04:00:00 15.1 C 10.09 g/m*3 15.1 C 0 km/h
174 06-10-2010 05:00:00 14.92 C 10.26 g/m*3 14.92 C 0 km/h
175 06-10-2010 06:00:00 14.82 C 10.1 g/m*3 14.82 C 0 km/h
Sensor: Nr:Datum:Temp:Abs-Feuchte:Windchill:Wind:
Aussen-T/F 176 06-10-2010 07:00:00 14.66 C 9.95 g/m*3 14.66 C 0 km/h
177 06-10-2010 08:00:00 14.52 C 10.19 g/m*3 14.52 C 0 km/h
178 06-10-2010 09:00:00 15.54 C 10.12 g/m*3 15.54 C 0 km/h
179 06-10-2010 10:00:00 16.24 C 9.93 g/m*3 16.24 C 0 km/h
180 06-10-2010 11:00:00 17.76 C 9.27 g/m*3 17.76 C 0 km/h
181 06-10-2010 12:00:00 19.04 C 8.69 g/m*3 19.04 C 0 km/h
182 06-10-2010 13:00:00 20.2 C 8.5 g/m*3 20.2 C 0 km/h
183 06-10-2010 14:00:00 21.62 C 8.24 g/m*3 21.62 C 0 km/h
184 06-10-2010 15:00:00 23.06 C 8.25 g/m*3 23.06 C 0 km/h
185 06-10-2010 16:00:00 22.84 C 8.96 g/m*3 22.84 C 0 km/h
186 06-10-2010 17:00:00 21.08 C 10.16 g/m*3 21.08 C 0 km/h
187 06-10-2010 18:00:00 18.94 C 10.23 g/m*3 18.94 C 0 km/h
188 06-10-2010 19:00:00 17.3 C 10.19 g/m*3 17.3 C 0 km/h
189 06-10-2010 20:00:00 16.9 C 10.13 g/m*3 16.9 C 0 km/h
190 06-10-2010 21:00:00 16.36 C 10.42 g/m*3 16.36 C 0 km/h
191 06-10-2010 22:00:00 15.74 C 10.52 g/m*3 15.74 C 0 km/h
192 06-10-2010 23:00:00 14.9 C 10.32 g/m*3 14.9 C 0 km/h
193 07-10-2010 00:00:00 14.22 C 10.17 g/m*3 14.22 C 0 km/h
194 07-10-2010 01:00:00 14.24 C 10.5 g/m*3 14.24 C 0 km/h
195 07-10-2010 02:00:00 14.24 C 10.43 g/m*3 14.24 C 0 km/h
196 07-10-2010 03:00:00 14.08 C 10.35 g/m*3 14.08 C 0 km/h
197 07-10-2010 04:00:00 13.82 C 10.31 g/m*3 13.82 C 0 km/h
198 07-10-2010 05:00:00 13.3 C 10.17 g/m*3 13.3 C 0 km/h
199 07-10-2010 06:00:00 13.84 C 10.51 g/m*3 13.84 C 0 km/h
200 07-10-2010 07:00:00 14.12 C 10.6 g/m*3 14.12 C 0 km/h
Sensor: Nr:Datum:Temp:Abs-Feuchte:Windchill:Wind:
Aussen-T/F 201 07-10-2010 08:00:00 14.66 C 10.9 g/m*3 14.66 C 0 km/h
202 07-10-2010 09:00:00 15.06 C 10.6 g/m*3 15.06 C 0 km/h
203 07-10-2010 10:00:00 16.18 C 10.33 g/m*3 16.18 C 0 km/h
204 07-10-2010 11:00:00 17.26 C 10.32 g/m*3 17.26 C 0 km/h
205 07-10-2010 12:00:00 18.4 C 9.97 g/m*3 18.4 C 0 km/h
206 07-10-2010 13:00:00 19.26 C 9.83 g/m*3 19.26 C 0 km/h
207 07-10-2010 14:00:00 19.88 C 9.78 g/m*3 19.88 C 0 km/h
208 07-10-2010 15:00:00 20.5 C 9.5 g/m*3 20.5 C 0 km/h
209 07-10-2010 16:00:00 19.94 C 9.47 g/m*3 19.94 C 0 km/h
210 07-10-2010 17:00:00 19.16 C 9.57 g/m*3 19.16 C 0 km/h
211 07-10-2010 18:00:00 17.88 C 10.22 g/m*3 17.88 C 0 km/h
212 07-10-2010 19:00:00 16.9 C 10.38 g/m*3 16.9 C 0 km/h
213 07-10-2010 20:00:00 16.3 C 10.35 g/m*3 16.3 C 0 km/h
214 07-10-2010 21:00:00 16.22 C 10.13 g/m*3 16.22 C 0 km/h
215 07-10-2010 22:00:00 16 C 9.86 g/m*3 16 C 0 km/h
216 07-10-2010 23:00:00 16.02 C 9.74 g/m*3 16.02 C 0 km/h
217 08-10-2010 00:00:00 15.82 C 9.89 g/m*3 15.82 C 0 km/h
218 08-10-2010 01:00:00 15.62 C 9.67 g/m*3 15.62 C 0 km/h
219 08-10-2010 02:00:00 15.44 C 9.35 g/m*3 15.44 C 0 km/h
220 08-10-2010 03:00:00 14.92 C 8.75 g/m*3 14.92 C 0 km/h
221 08-10-2010 04:00:00 14.52 C 8.57 g/m*3 14.52 C 0 km/h
222 08-10-2010 05:00:00 14.24 C 8.81 g/m*3 14.24 C 0 km/h
223 08-10-2010 06:00:00 13.98 C 8.96 g/m*3 13.98 C 0 km/h
224 08-10-2010 07:00:00 14.02 C 9.13 g/m*3 14.02 C 0 km/h
225 08-10-2010 08:00:00 14.2 C 9.23 g/m*3 14.2 C 0 km/h
Sensor: Nr:Datum:Temp:Abs-Feuchte:Windchill:Wind:
Aussen-T/F 226 08-10-2010 09:00:00 14.6 C 9.41 g/m*3 14.6 C 0 km/h
227 08-10-2010 10:00:00 15.28 C 9.47 g/m*3 15.28 C 0 km/h
228 08-10-2010 11:00:00 15.86 C 9.29 g/m*3 15.86 C 0 km/h
229 08-10-2010 12:00:00 16.54 C 9.09 g/m*3 16.54 C 0 km/h
230 08-10-2010 13:00:00 16.94 C 8.77 g/m*3 16.94 C 0 km/h
231 08-10-2010 14:00:00 18.76 C 8.77 g/m*3 18.76 C 0 km/h
232 08-10-2010 15:00:00 20.32 C 8.52 g/m*3 20.32 C 0 km/h
233 08-10-2010 16:00:00 22.2 C 8.95 g/m*3 22.2 C 0 km/h
234 08-10-2010 17:00:00 21.78 C 9.24 g/m*3 21.78 C 0 km/h
235 08-10-2010 18:00:00 19.06 C 9.68 g/m*3 19.06 C 0 km/h
236 08-10-2010 19:00:00 15.88 C 9.98 g/m*3 15.88 C 0 km/h
237 08-10-2010 20:00:00 14.78 C 9.79 g/m*3 14.78 C 0 km/h
238 08-10-2010 21:00:00 14.08 C 9.65 g/m*3 14.08 C 0 km/h
239 08-10-2010 22:00:00 13.28 C 9.51 g/m*3 13.28 C 0 km/h
240 08-10-2010 23:00:00 12.58 C 9.3 g/m*3 12.58 C 0 km/h
241 09-10-2010 00:00:00 11.9 C 9.11 g/m*3 11.9 C 0 km/h
242 09-10-2010 01:00:00 11.34 C 8.96 g/m*3 11.34 C 0 km/h
243 09-10-2010 02:00:00 10.74 C 8.68 g/m*3 10.74 C 0 km/h
244 09-10-2010 03:00:00 10.24 C 8.43 g/m*3 10.24 C 0 km/h
245 09-10-2010 04:00:00 9.78 C 8.32 g/m*3 9.78 C 0 km/h
246 09-10-2010 05:00:00 9.52 C 8.29 g/m*3 9.52 C 0 km/h
247 09-10-2010 06:00:00 9.42 C 8.31 g/m*3 9.42 C 0 km/h
248 09-10-2010 07:00:00 9.24 C 8.24 g/m*3 9.24 C 0 km/h
249 09-10-2010 08:00:00 9.2 C 8.22 g/m*3 9.2 C 0 km/h
250 09-10-2010 09:00:00 9.28 C 8.24 g/m*3 9.28 C 0 km/h
Sensor: Nr:Datum:Temp:Abs-Feuchte:Windchill:Wind:
Aussen-T/F 251 09-10-2010 10:00:00 10.44 C 8.87 g/m*3 10.44 C 0 km/h
252 09-10-2010 11:00:00 12.52 C 9.53 g/m*3 12.52 C 0 km/h
253 09-10-2010 12:00:00 14.68 C 8.2 g/m*3 14.68 C 0 km/h
254 09-10-2010 13:00:00 17.1 C 7.89 g/m*3 17.1 C 0 km/h
255 09-10-2010 14:00:00 19.96 C 7.03 g/m*3 19.96 C 0 km/h
256 09-10-2010 15:00:00 21.86 C 6.28 g/m*3 21.86 C 0 km/h
257 09-10-2010 16:00:00 22.16 C 6.23 g/m*3 22.16 C 0 km/h
258 09-10-2010 17:00:00 20.8 C 6.19 g/m*3 20.8 C 0 km/h
259 09-10-2010 18:00:00 17.02 C 6.26 g/m*3 17.02 C 0 km/h
260 09-10-2010 19:00:00 13.8 C 6.12 g/m*3 13.8 C 0 km/h
261 09-10-2010 20:00:00 12.84 C 6.58 g/m*3 12.84 C 0 km/h
262 09-10-2010 21:00:00 11.48 C 6.99 g/m*3 11.48 C 0 km/h
263 09-10-2010 22:00:00 10.6 C 7.03 g/m*3 10.6 C 0 km/h
264 09-10-2010 23:00:00 9.62 C 6.92 g/m*3 9.62 C 0 km/h
265 10-10-2010 00:00:00 8.94 C 6.99 g/m*3 8.94 C 0 km/h
266 10-10-2010 01:00:00 8.38 C 6.93 g/m*3 8.38 C 0 km/h
267 10-10-2010 02:00:00 7.76 C 6.82 g/m*3 7.76 C 0 km/h
268 10-10-2010 03:00:00 7.14 C 6.66 g/m*3 7.14 C 0 km/h
269 10-10-2010 04:00:00 6.76 C 6.61 g/m*3 6.76 C 0 km/h
270 10-10-2010 05:00:00 6.28 C 6.45 g/m*3 6.28 C 0 km/h
271 10-10-2010 06:00:00 5.86 C 6.36 g/m*3 5.86 C 0 km/h
272 10-10-2010 07:00:00 5.5 C 6.31 g/m*3 5.5 C 0 km/h
273 10-10-2010 08:00:00 6.36 C 6.69 g/m*3 6.36 C 0 km/h
274 10-10-2010 09:00:00 7.26 C 6.79 g/m*3 7.26 C 0 km/h
275 10-10-2010 10:00:00 8.92 C 6.6 g/m*3 8.92 C 0 km/h
Sensor: Nr:Datum:Temp:Abs-Feuchte:Windchill:Wind:
Aussen-T/F 276 10-10-2010 11:00:00 10.92 C 6.57 g/m*3 10.92 C 0 km/h
277 10-10-2010 12:00:00 12.8 C 6.47 g/m*3 12.8 C 0 km/h
278 10-10-2010 13:00:00 15.86 C 5.67 g/m*3 15.86 C 0 km/h
279 10-10-2010 14:00:00 18.62 C 5.45 g/m*3 18.62 C 0 km/h
280 10-10-2010 15:00:00 20.4 C 5.91 g/m*3 20.4 C 0 km/h
281 10-10-2010 16:00:00 21.28 C 5.7 g/m*3 21.28 C 0 km/h
282 10-10-2010 17:00:00 20.64 C 5.6 g/m*3 20.64 C 0 km/h
283 10-10-2010 18:00:00 17.2 C 5.45 g/m*3 17.2 C 0 km/h
284 10-10-2010 19:00:00 14.18 C 5.49 g/m*3 14.18 C 0 km/h
285 10-10-2010 20:00:00 13.02 C 4.91 g/m*3 13.02 C 0 km/h
286 10-10-2010 21:00:00 12.44 C 4.01 g/m*3 12.44 C 0 km/h
287 10-10-2010 22:00:00 11.46 C 4.12 g/m*3 11.46 C 0 km/h
288 10-10-2010 23:00:00 10.72 C 4.52 g/m*3 10.72 C 0 km/h
289 11-10-2010 00:00:00 9.98 C 4.88 g/m*3 9.98 C 0 km/h
290 11-10-2010 01:00:00 9.44 C 4.91 g/m*3 9.44 C 0 km/h
291 11-10-2010 02:00:00 9.08 C 4.87 g/m*3 9.08 C 0 km/h
292 11-10-2010 03:00:00 8.24 C 4.99 g/m*3 8.24 C 0 km/h
293 11-10-2010 04:00:00 7.58 C 5.1 g/m*3 7.58 C 0 km/h
294 11-10-2010 05:00:00 6.64 C 5.24 g/m*3 6.64 C 0 km/h
295 11-10-2010 06:00:00 5.72 C 5.32 g/m*3 5.72 C 0 km/h
296 11-10-2010 07:00:00 5.22 C 5.36 g/m*3 5.22 C 0 km/h
297 11-10-2010 08:00:00 4.96 C 5.39 g/m*3 4.96 C 0 km/h
298 11-10-2010 09:00:00 5.6 C 5.7 g/m*3 5.6 C 0 km/h
299 11-10-2010 10:00:00 7.12 C 6.11 g/m*3 7.12 C 0 km/h
300 11-10-2010 11:00:00 9.46 C 6.36 g/m*3 9.46 C 0 km/h
Sensor: Nr:Datum:Temp:Abs-Feuchte:Windchill:Wind:
Aussen-T/F 301 11-10-2010 12:00:00 11.62 C 6.45 g/m*3 11.62 C 0 km/h
302 11-10-2010 13:00:00 14.92 C 5.9 g/m*3 14.92 C 0 km/h
303 11-10-2010 14:00:00 17.48 C 5.45 g/m*3 17.48 C 0 km/h
304 11-10-2010 15:00:00 19.78 C 5.05 g/m*3 19.78 C 0 km/h
305 11-10-2010 16:00:00 20.96 C 4.61 g/m*3 20.96 C 0 km/h
306 11-10-2010 17:00:00 19.56 C 3.6 g/m*3 19.56 C 0 km/h
307 11-10-2010 18:00:00 16.12 C 3.98 g/m*3 16.12 C 0 km/h
308 11-10-2010 19:00:00 13.18 C 4.33 g/m*3 13.18 C 0 km/h
309 11-10-2010 20:00:00 11.32 C 4.82 g/m*3 11.32 C 0 km/h
310 11-10-2010 21:00:00 10.025 C 4.96 g/m*3 10.03 C 0 km/h
311 11-10-2010 22:00:00 9.2 C 4.84 g/m*3 9.2 C 0 km/h
312 11-10-2010 23:00:00 8.24 C 4.87 g/m*3 8.24 C 0 km/h
313 12-10-2010 00:00:00 7.16 C 5.01 g/m*3 7.16 C 0 km/h
314 12-10-2010 01:00:00 6.4 C 5.13 g/m*3 6.4 C 0 km/h
315 12-10-2010 02:00:00 5.74 C 5.24 g/m*3 5.74 C 0 km/h
316 12-10-2010 03:00:00 5.04 C 5.31 g/m*3 5.04 C 0 km/h
317 12-10-2010 04:00:00 4.42 C 5.34 g/m*3 4.42 C 0 km/h
318 12-10-2010 05:00:00 3.8 C 5.31 g/m*3 3.8 C 0 km/h
319 12-10-2010 06:00:00 3.46 C 5.26 g/m*3 3.46 C 0 km/h
320 12-10-2010 07:00:00 2.94 C 5.15 g/m*3 2.94 C 0 km/h
321 12-10-2010 08:00:00 3.56 C 5.52 g/m*3 3.56 C 0 km/h
322 12-10-2010 09:00:00 4.9 C 5.93 g/m*3 4.9 C 0 km/h
323 12-10-2010 10:00:00 5.82 C 6.07 g/m*3 5.82 C 0 km/h
324 12-10-2010 11:00:00 7.16 C 6.36 g/m*3 7.16 C 0 km/h
325 12-10-2010 12:00:00 9.56 C 6.18 g/m*3 9.56 C 0 km/h
Sensor: Nr:Datum:Temp:Abs-Feuchte:Windchill:Wind:
Aussen-T/F 326 12-10-2010 13:00:00 12.58 C 5.72 g/m*3 12.58 C 0 km/h
327 12-10-2010 14:00:00 15.26 C 5.65 g/m*3 15.26 C 0 km/h
328 12-10-2010 15:00:00 16.94 C 5.42 g/m*3 16.94 C 0 km/h
329 12-10-2010 16:00:00 17.66 C 5.42 g/m*3 17.66 C 0 km/h
330 12-10-2010 17:00:00 17.22 C 4.57 g/m*3 17.22 C 0 km/h
331 12-10-2010 18:00:00 14.5 C 5.65 g/m*3 14.5 C 0 km/h
332 12-10-2010 19:00:00 11.42 C 6.45 g/m*3 11.42 C 0 km/h
333 12-10-2010 20:00:00 9.84 C 6.47 g/m*3 9.84 C 0 km/h
334 12-10-2010 21:00:00 8.36 C 6.26 g/m*3 8.36 C 0 km/h
335 12-10-2010 22:00:00 7.74 C 6.15 g/m*3 7.74 C 0 km/h
336 12-10-2010 23:00:00 7.78 C 6 g/m*3 7.78 C 0 km/h
337 13-10-2010 00:00:00 7.6 C 5.86 g/m*3 7.6 C 0 km/h
338 13-10-2010 01:00:00 7.02 C 5.82 g/m*3 7.02 C 0 km/h
339 13-10-2010 02:00:00 6.8 C 5.83 g/m*3 6.8 C 0 km/h
340 13-10-2010 03:00:00 6.44 C 5.69 g/m*3 6.44 C 0 km/h
341 13-10-2010 04:00:00 6.2 C 5.59 g/m*3 6.2 C 0 km/h
342 13-10-2010 05:00:00 6.1 C 5.6 g/m*3 6.1 C 0 km/h
343 13-10-2010 06:00:00 5.84 C 5.6 g/m*3 5.84 C 0 km/h
344 13-10-2010 07:00:00 5.42 C 5.53 g/m*3 5.42 C 0 km/h
345 13-10-2010 08:00:00 5.62 C 5.49 g/m*3 5.62 C 0 km/h
346 13-10-2010 09:00:00 5.86 C 5.45 g/m*3 5.86 C 0 km/h
347 13-10-2010 10:00:00 6.66 C 5.3 g/m*3 6.66 C 0 km/h
348 13-10-2010 11:00:00 7.04 C 5.08 g/m*3 7.04 C 0 km/h
349 13-10-2010 12:00:00 8.14 C 5.06 g/m*3 8.14 C 0 km/h
350 13-10-2010 13:00:00 8.8 C 4.89 g/m*3 8.8 C 0 km/h
Sensor: Nr:Datum:Temp:Abs-Feuchte:Windchill:Wind:
Aussen-T/F 351 13-10-2010 14:00:00 9.8 C 4.95 g/m*3 9.8 C 0 km/h
352 13-10-2010 15:00:00 11.78 C 4.94 g/m*3 11.78 C 0 km/h
353 13-10-2010 16:00:00 12.06 C 5.01 g/m*3 12.06 C 0 km/h
354 13-10-2010 17:00:00 12.34 C 5.23 g/m*3 12.34 C 0 km/h
355 13-10-2010 18:00:00 9.94 C 5.5 g/m*3 9.94 C 0 km/h
356 13-10-2010 19:00:00 7.48 C 5.76 g/m*3 7.48 C 0 km/h
357 13-10-2010 20:00:00 6.96 C 5.81 g/m*3 6.96 C 0 km/h
358 13-10-2010 21:00:00 5.82 C 5.72 g/m*3 5.82 C 0 km/h
359 13-10-2010 22:00:00 5.16 C 5.73 g/m*3 5.16 C 0 km/h
360 13-10-2010 23:00:00 4.52 C 5.61 g/m*3 4.52 C 0 km/h
361 14-10-2010 00:00:00 3.88 C 5.51 g/m*3 3.88 C 0 km/h
362 14-10-2010 01:00:00 3.38 C 5.47 g/m*3 3.38 C 0 km/h
363 14-10-2010 02:00:00 3.62 C 5.65 g/m*3 3.62 C 0 km/h
364 14-10-2010 03:00:00 3.52 C 5.57 g/m*3 3.52 C 0 km/h
365 14-10-2010 04:00:00 3.54 C 5.55 g/m*3 3.54 C 0 km/h
366 14-10-2010 05:00:00 3.62 C 5.63 g/m*3 3.62 C 0 km/h
367 14-10-2010 06:00:00 3.92 C 5.7 g/m*3 3.92 C 0 km/h
368 14-10-2010 07:00:00 4.12 C 5.76 g/m*3 4.12 C 0 km/h
369 14-10-2010 08:00:00 4.44 C 5.84 g/m*3 4.44 C 0 km/h
370 14-10-2010 09:00:00 4.56 C 5.86 g/m*3 4.56 C 0 km/h
371 14-10-2010 10:00:00 5.16 C 5.88 g/m*3 5.16 C 0 km/h
372 14-10-2010 11:00:00 6.2 C 5.75 g/m*3 6.2 C 0 km/h
373 14-10-2010 12:00:00 7.86 C 5.59 g/m*3 7.86 C 0 km/h
374 14-10-2010 13:00:00 9.36 C 5.58 g/m*3 9.36 C 0 km/h
375 14-10-2010 14:00:00 11.86 C 5.85 g/m*3 11.86 C 0 km/h
Sensor: Nr:Datum:Temp:Abs-Feuchte:Windchill:Wind:
Aussen-T/F 376 14-10-2010 15:00:00 13.94 C 5.72 g/m*3 13.94 C 0 km/h
377 14-10-2010 16:00:00 14.4 C 5.83 g/m*3 14.4 C 0 km/h
378 14-10-2010 17:00:00 13.24 C 5.5 g/m*3 13.24 C 0 km/h
379 14-10-2010 18:00:00 11.04 C 5.96 g/m*3 11.04 C 0 km/h
380 14-10-2010 19:00:00 10.26 C 6.25 g/m*3 10.26 C 0 km/h
381 14-10-2010 20:00:00 10.2 C 6.24 g/m*3 10.2 C 0 km/h
382 14-10-2010 21:00:00 9.8 C 6.33 g/m*3 9.8 C 0 km/h
383 14-10-2010 22:00:00 9.74 C 6.51 g/m*3 9.74 C 0 km/h
384 14-10-2010 23:00:00 9.68 C 6.68 g/m*3 9.68 C 0 km/h
385 15-10-2010 00:00:00 9.5 C 6.75 g/m*3 9.5 C 0 km/h
386 15-10-2010 01:00:00 9.42 C 6.88 g/m*3 9.42 C 0 km/h
387 15-10-2010 02:00:00 9.24 C 7.13 g/m*3 9.24 C 0 km/h
388 15-10-2010 03:00:00 9.28 C 7.25 g/m*3 9.28 C 0 km/h
389 15-10-2010 04:00:00 9.28 C 7.36 g/m*3 9.28 C 0 km/h
390 15-10-2010 05:00:00 9.2 C 7.41 g/m*3 9.2 C 0 km/h
391 15-10-2010 06:00:00 9.3 C 7.66 g/m*3 9.3 C 0 km/h
392 15-10-2010 07:00:00 9.28 C 7.74 g/m*3 9.28 C 0 km/h
393 15-10-2010 08:00:00 9.24 C 7.86 g/m*3 9.24 C 0 km/h
394 15-10-2010 09:00:00 9.82 C 8.19 g/m*3 9.82 C 0 km/h
395 15-10-2010 10:00:00 10.72 C 8.06 g/m*3 10.72 C 0 km/h
396 15-10-2010 11:00:00 11.52 C 7.76 g/m*3 11.52 C 0 km/h
397 15-10-2010 12:00:00 12.42 C 7.33 g/m*3 12.42 C 0 km/h
398 15-10-2010 13:00:00 13.38 C 6.9 g/m*3 13.38 C 0 km/h
399 15-10-2010 14:00:00 12.78 C 6.76 g/m*3 12.78 C 0 km/h
400 15-10-2010 15:00:00 12.86 C 6.68 g/m*3 12.86 C 0 km/h
Sensor: Nr:Datum:Temp:Abs-Feuchte:Windchill:Wind:
Aussen-T/F 401 15-10-2010 16:00:00 12.24 C 6.79 g/m*3 12.24 C 0 km/h
402 15-10-2010 17:00:00 11.56 C 7.07 g/m*3 11.56 C 0 km/h
403 15-10-2010 18:00:00 10.88 C 7.03 g/m*3 10.88 C 0 km/h
404 15-10-2010 19:00:00 10.52 C 7.01 g/m*3 10.52 C 0 km/h
405 15-10-2010 20:00:00 10.36 C 7.02 g/m*3 10.36 C 0 km/h
406 15-10-2010 21:00:00 10.1 C 7.19 g/m*3 10.1 C 0 km/h
407 15-10-2010 22:00:00 9.3 C 7.67 g/m*3 9.3 C 0 km/h
408 15-10-2010 23:00:00 9.2 C 8.04 g/m*3 9.2 C 0 km/h
409 16-10-2010 00:00:00 9.02 C 8.16 g/m*3 9.02 C 0 km/h
410 16-10-2010 01:00:00 8.82 C 8.19 g/m*3 8.82 C 0 km/h
411 16-10-2010 02:00:00 8.78 C 8.22 g/m*3 8.78 C 0 km/h
412 16-10-2010 03:00:00 8.68 C 8.21 g/m*3 8.68 C 0 km/h
413 16-10-2010 04:00:00 8.54 C 8.13 g/m*3 8.54 C 0 km/h
414 16-10-2010 05:00:00 8.36 C 8.04 g/m*3 8.36 C 0 km/h
415 16-10-2010 06:00:00 8.3 C 8.01 g/m*3 8.3 C 0 km/h
416 16-10-2010 07:00:00 8.12 C 7.88 g/m*3 8.12 C 0 km/h
417 16-10-2010 08:00:00 8.1 C 7.77 g/m*3 8.1 C 0 km/h
418 16-10-2010 09:00:00 8.24 C 7.81 g/m*3 8.24 C 0 km/h
419 16-10-2010 10:00:00 8.64 C 8.03 g/m*3 8.64 C 0 km/h
420 16-10-2010 11:00:00 8.96 C 8.11 g/m*3 8.96 C 0 km/h
421 16-10-2010 12:00:00 9.38 C 8.11 g/m*3 9.38 C 0 km/h
422 16-10-2010 13:00:00 9.72 C 8.16 g/m*3 9.72 C 0 km/h
423 16-10-2010 14:00:00 9.96 C 7.89 g/m*3 9.96 C 0 km/h
424 16-10-2010 15:00:00 10.08 C 7.82 g/m*3 10.08 C 0 km/h
425 16-10-2010 16:00:00 9.9 C 7.84 g/m*3 9.9 C 0 km/h
Sensor: Nr:Datum:Temp:Abs-Feuchte:Windchill:Wind:
Aussen-T/F 426 16-10-2010 17:00:00 9.36 C 7.9 g/m*3 9.36 C 0 km/h
427 16-10-2010 18:00:00 8.38 C 6.98 g/m*3 8.38 C 0 km/h
428 16-10-2010 19:00:00 6.96 C 6.55 g/m*3 6.96 C 0 km/h
429 16-10-2010 20:00:00 6.56 C 6.31 g/m*3 6.56 C 0 km/h
430 16-10-2010 21:00:00 6.28 C 6.21 g/m*3 6.28 C 0 km/h
431 16-10-2010 22:00:00 5.9 C 6.37 g/m*3 5.9 C 0 km/h
432 16-10-2010 23:00:00 5.96 C 6.56 g/m*3 5.96 C 0 km/h
433 17-10-2010 00:00:00 6.14 C 6.7 g/m*3 6.14 C 0 km/h
434 17-10-2010 01:00:00 6.24 C 6.71 g/m*3 6.24 C 0 km/h
435 17-10-2010 02:00:00 6.22 C 6.61 g/m*3 6.22 C 0 km/h
436 17-10-2010 03:00:00 6.24 C 6.49 g/m*3 6.24 C 0 km/h
437 17-10-2010 04:00:00 6.22 C 6.33 g/m*3 6.22 C 0 km/h
438 17-10-2010 05:00:00 6.3 C 6.43 g/m*3 6.3 C 0 km/h
439 17-10-2010 06:00:00 6.34 C 6.46 g/m*3 6.34 C 0 km/h
440 17-10-2010 07:00:00 6.34 C 6.29 g/m*3 6.34 C 0 km/h
441 17-10-2010 08:00:00 6.58 C 6.17 g/m*3 6.58 C 0 km/h
442 17-10-2010 09:00:00 6.88 C 6.15 g/m*3 6.88 C 0 km/h
443 17-10-2010 10:00:00 7.32 C 6.14 g/m*3 7.32 C 0 km/h
444 17-10-2010 11:00:00 7.7 C 5.98 g/m*3 7.7 C 0 km/h
445 17-10-2010 12:00:00 7.88 C 5.97 g/m*3 7.88 C 0 km/h
446 17-10-2010 13:00:00 8.1 C 5.96 g/m*3 8.1 C 0 km/h
447 17-10-2010 14:00:00 8.36 C 6.14 g/m*3 8.36 C 0 km/h
448 17-10-2010 15:00:00 8.52 C 6.12 g/m*3 8.52 C 0 km/h
449 17-10-2010 16:00:00 8.46 C 6.28 g/m*3 8.46 C 0 km/h
450 17-10-2010 17:00:00 8.3 C 6.32 g/m*3 8.3 C 0 km/h
Sensor: Nr:Datum:Temp:Abs-Feuchte:Windchill:Wind:
Aussen-T/F 451 17-10-2010 18:00:00 7.9 C 6.32 g/m*3 7.9 C 0 km/h
452 17-10-2010 19:00:00 7.68 C 6.38 g/m*3 7.68 C 0 km/h
453 17-10-2010 20:00:00 7.68 C 6.43 g/m*3 7.68 C 0 km/h
454 17-10-2010 21:00:00 7.62 C 6.44 g/m*3 7.62 C 0 km/h
455 17-10-2010 22:00:00 7.38 C 6.43 g/m*3 7.38 C 0 km/h
456 17-10-2010 23:00:00 7.04 C 6.31 g/m*3 7.04 C 0 km/h
457 18-10-2010 00:00:00 6.48 C 6.19 g/m*3 6.48 C 0 km/h
458 18-10-2010 01:00:00 5.18 C 5.97 g/m*3 5.18 C 0 km/h
459 18-10-2010 02:00:00 5.8 C 6.35 g/m*3 5.8 C 0 km/h
460 18-10-2010 03:00:00 6 C 6.3 g/m*3 6 C 0 km/h
461 18-10-2010 04:00:00 6.02 C 6.25 g/m*3 6.02 C 0 km/h
462 18-10-2010 05:00:00 5.84 C 6.1 g/m*3 5.84 C 0 km/h
463 18-10-2010 06:00:00 5.8 C 6.16 g/m*3 5.8 C 0 km/h
464 18-10-2010 07:00:00 5.76 C 6.14 g/m*3 5.76 C 0 km/h
465 18-10-2010 08:00:00 5.78 C 6.2 g/m*3 5.78 C 0 km/h
466 18-10-2010 09:00:00 6.66 C 6.44 g/m*3 6.66 C 0 km/h
467 18-10-2010 10:00:00 7.56 C 5.99 g/m*3 7.56 C 0 km/h
468 18-10-2010 11:00:00 7.76 C 5.06 g/m*3 7.76 C 0 km/h
469 18-10-2010 12:00:00 8.26 C 4.98 g/m*3 8.26 C 0 km/h
470 18-10-2010 13:00:00 8.82 C 4.85 g/m*3 8.82 C 0 km/h
471 18-10-2010 14:00:00 8.88 C 4.86 g/m*3 8.88 C 0 km/h
472 18-10-2010 15:00:00 8.74 C 4.86 g/m*3 8.74 C 0 km/h
473 18-10-2010 16:00:00 8.74 C 4.91 g/m*3 8.74 C 0 km/h
474 18-10-2010 17:00:00 8.52 C 4.86 g/m*3 8.52 C 0 km/h
475 18-10-2010 18:00:00 7.76 C 4.97 g/m*3 7.76 C 0 km/h
Sensor: Nr:Datum:Temp:Abs-Feuchte:Windchill:Wind:
Aussen-T/F 476 18-10-2010 19:00:00 6.32 C 4.89 g/m*3 6.32 C 0 km/h
477 18-10-2010 20:00:00 5.6 C 5.05 g/m*3 5.6 C 0 km/h
478 18-10-2010 21:00:00 5.18 C 5.03 g/m*3 5.18 C 0 km/h
479 18-10-2010 22:00:00 4.92 C 5.06 g/m*3 4.92 C 0 km/h
480 18-10-2010 23:00:00 4.86 C 5.17 g/m*3 4.86 C 0 km/h
481 19-10-2010 00:00:00 5.14 C 5.24 g/m*3 5.14 C 0 km/h
482 19-10-2010 01:00:00 5.42 C 5.27 g/m*3 5.42 C 0 km/h
483 19-10-2010 02:00:00 5.5 C 5.32 g/m*3 5.5 C 0 km/h
484 19-10-2010 03:00:00 4.96 C 5.75 g/m*3 4.96 C 0 km/h
485 19-10-2010 04:00:00 5.04 C 6.04 g/m*3 5.04 C 0 km/h
486 19-10-2010 05:00:00 5.42 C 6.06 g/m*3 5.42 C 0 km/h
487 19-10-2010 06:00:00 5.6 C 6.31 g/m*3 5.6 C 0 km/h
488 19-10-2010 07:00:00 5.98 C 6.38 g/m*3 5.98 C 0 km/h
489 19-10-2010 08:00:00 5.98 C 6.42 g/m*3 5.98 C 0 km/h
490 19-10-2010 09:00:00 6.54 C 6.62 g/m*3 6.54 C 0 km/h
491 19-10-2010 10:00:00 7.34 C 6.65 g/m*3 7.34 C 0 km/h
492 19-10-2010 11:00:00 7.5 C 6.93 g/m*3 7.5 C 0 km/h
493 19-10-2010 12:00:00 7.98 C 7.08 g/m*3 7.98 C 0 km/h
494 19-10-2010 13:00:00 9.08 C 7.48 g/m*3 9.08 C 0 km/h
495 19-10-2010 14:00:00 9.8 C 7.42 g/m*3 9.8 C 0 km/h
496 19-10-2010 15:00:00 10.34 C 7.37 g/m*3 10.34 C 0 km/h
497 19-10-2010 16:00:00 12.46 C 7 g/m*3 12.46 C 0 km/h
498 19-10-2010 17:00:00 10.3 C 7.22 g/m*3 10.3 C 0 km/h
499 19-10-2010 18:00:00 9.04 C 6.96 g/m*3 9.04 C 0 km/h
500 19-10-2010 19:00:00 7.98 C 6.85 g/m*3 7.98 C 0 km/h
Sensor: Nr:Datum:Temp:Abs-Feuchte:Windchill:Wind:
Aussen-T/F 501 19-10-2010 20:00:00 7.36 C 6.46 g/m*3 7.36 C 0 km/h
502 19-10-2010 21:00:00 6.94 C 6.22 g/m*3 6.94 C 0 km/h
503 19-10-2010 22:00:00 6.52 C 6.16 g/m*3 6.52 C 0 km/h
504 19-10-2010 23:00:00 6.54 C 6.2 g/m*3 6.54 C 0 km/h
505 20-10-2010 00:00:00 6.34 C 6.16 g/m*3 6.34 C 0 km/h
506 20-10-2010 01:00:00 6.38 C 6.16 g/m*3 6.38 C 0 km/h
507 20-10-2010 02:00:00 5.94 C 6.39 g/m*3 5.94 C 0 km/h
508 20-10-2010 03:00:00 5.76 C 6.53 g/m*3 5.76 C 0 km/h
509 20-10-2010 04:00:00 5.84 C 6.51 g/m*3 5.84 C 0 km/h
510 20-10-2010 05:00:00 5.62 C 6.56 g/m*3 5.62 C 0 km/h
511 20-10-2010 06:00:00 5.52 C 6.61 g/m*3 5.52 C 0 km/h
512 20-10-2010 07:00:00 5.5 C 6.64 g/m*3 5.5 C 0 km/h
513 20-10-2010 08:00:00 5.6 C 6.66 g/m*3 5.6 C 0 km/h
514 20-10-2010 09:00:00 6 C 6.84 g/m*3 6 C 0 km/h
515 20-10-2010 10:00:00 6.92 C 6.95 g/m*3 6.92 C 0 km/h
516 20-10-2010 11:00:00 6.84 C 6.44 g/m*3 6.84 C 0 km/h
517 20-10-2010 12:00:00 6.92 C 6.38 g/m*3 6.92 C 0 km/h
518 20-10-2010 13:00:00 7.92 C 6.2 g/m*3 7.92 C 0 km/h
519 20-10-2010 14:00:00 9.48 C 5.67 g/m*3 9.48 C 0 km/h
520 20-10-2010 15:00:00 7.68 C 5.56 g/m*3 7.68 C 0 km/h
521 20-10-2010 16:00:00 7.36 C 5.06 g/m*3 7.36 C 0 km/h
522 20-10-2010 17:00:00 7.02 C 4.92 g/m*3 7.02 C 0 km/h
523 20-10-2010 18:00:00 6.32 C 5.04 g/m*3 6.32 C 0 km/h
524 20-10-2010 19:00:00 4.64 C 5.24 g/m*3 4.64 C 0 km/h
525 20-10-2010 20:00:00 4.54 C 5.25 g/m*3 4.54 C 0 km/h
Sensor: Nr:Datum:Temp:Abs-Feuchte:Windchill:Wind:
Aussen-T/F 526 20-10-2010 21:00:00 4.46 C 5.11 g/m*3 4.46 C 0 km/h
527 20-10-2010 22:00:00 4.48 C 5.07 g/m*3 4.48 C 0 km/h
528 20-10-2010 23:00:00 4.32 C 5.05 g/m*3 4.32 C 0 km/h
529 21-10-2010 00:00:00 4.6 C 5.11 g/m*3 4.6 C 0 km/h
530 21-10-2010 01:00:00 4.44 C 5.04 g/m*3 4.44 C 0 km/h
531 21-10-2010 02:00:00 3.74 C 4.97 g/m*3 3.74 C 0 km/h
532 21-10-2010 03:00:00 3.32 C 4.98 g/m*3 3.32 C 0 km/h
533 21-10-2010 04:00:00 2.64 C 4.9 g/m*3 2.64 C 0 km/h
534 21-10-2010 05:00:00 1.92 C 4.82 g/m*3 1.92 C 0 km/h
535 21-10-2010 06:00:00 1.7 C 4.9 g/m*3 1.7 C 0 km/h
536 21-10-2010 07:00:00 1.66 C 5 g/m*3 1.66 C 0 km/h
537 21-10-2010 08:00:00 2.1 C 5.14 g/m*3 2.1 C 0 km/h
538 21-10-2010 09:00:00 3 C 5.24 g/m*3 3 C 0 km/h
539 21-10-2010 10:00:00 4.16 C 5.06 g/m*3 4.16 C 0 km/h
540 21-10-2010 11:00:00 5.64 C 4.99 g/m*3 5.64 C 0 km/h
541 21-10-2010 12:00:00 6.98 C 4.63 g/m*3 6.98 C 0 km/h
542 21-10-2010 13:00:00 8.7 C 4.13 g/m*3 8.7 C 0 km/h
543 21-10-2010 14:00:00 10.38 C 3.87 g/m*3 10.38 C 0 km/h
544 21-10-2010 15:00:00 10.66 C 3.63 g/m*3 10.66 C 0 km/h
545 21-10-2010 16:00:00 10.4 C 3.64 g/m*3 10.4 C 0 km/h
546 21-10-2010 17:00:00 10.96 C 3.55 g/m*3 10.96 C 0 km/h
547 21-10-2010 18:00:00 7.38 C 3.99 g/m*3 7.38 C 0 km/h
548 21-10-2010 19:00:00 5.64 C 4.05 g/m*3 5.64 C 0 km/h
549 21-10-2010 20:00:00 4.86 C 3.96 g/m*3 4.86 C 0 km/h
550 21-10-2010 21:00:00 4.62 C 3.74 g/m*3 4.62 C 0 km/h
Sensor: Nr:Datum:Temp:Abs-Feuchte:Windchill:Wind:
Aussen-T/F 551 21-10-2010 22:00:00 3.84 C 3.84 g/m*3 3.84 C 0 km/h
552 21-10-2010 23:00:00 3.14 C 3.89 g/m*3 3.14 C 0 km/h
553 22-10-2010 00:00:00 2.38 C 4.06 g/m*3 2.38 C 0 km/h
554 22-10-2010 01:00:00 1.74 C 4.11 g/m*3 1.74 C 0 km/h
555 22-10-2010 02:00:00 2.12 C 4.09 g/m*3 2.12 C 0 km/h
556 22-10-2010 03:00:00 2.16 C 4.08 g/m*3 2.16 C 0 km/h
557 22-10-2010 04:00:00 1.48 C 4.09 g/m*3 1.48 C 0 km/h
558 22-10-2010 05:00:00 1.38 C 4.11 g/m*3 1.38 C 0 km/h
559 22-10-2010 06:00:00 1.66 C 4.06 g/m*3 1.66 C 0 km/h
560 22-10-2010 07:00:00 0.94 C 3.98 g/m*3 0.94 C 0 km/h
561 22-10-2010 08:00:00 1.28 C 4.04 g/m*3 1.28 C 0 km/h
562 22-10-2010 09:00:00 2.06 C 4.3 g/m*3 2.06 C 0 km/h
563 22-10-2010 10:00:00 4.3 C 4.23 g/m*3 4.3 C 0 km/h
564 22-10-2010 11:00:00 5.36 C 3.94 g/m*3 5.36 C 0 km/h
565 22-10-2010 12:00:00 6.56 C 3.9 g/m*3 6.56 C 0 km/h
566 22-10-2010 13:00:00 7.18 C 3.89 g/m*3 7.18 C 0 km/h
567 22-10-2010 14:00:00 7.36 C 3.87 g/m*3 7.36 C 0 km/h
568 22-10-2010 15:00:00 7.22 C 3.82 g/m*3 7.22 C 0 km/h
569 22-10-2010 16:00:00 7.42 C 4.33 g/m*3 7.42 C 0 km/h
570 22-10-2010 17:00:00 7.22 C 4.28 g/m*3 7.22 C 0 km/h
571 22-10-2010 18:00:00 6.18 C 4.1 g/m*3 6.18 C 0 km/h
572 22-10-2010 19:00:00 6.2 C 3.69 g/m*3 6.2 C 0 km/h
573 22-10-2010 20:00:00 6.02 C 3.82 g/m*3 6.02 C 0 km/h
574 22-10-2010 21:00:00 5.72 C 3.9 g/m*3 5.72 C 0 km/h
575 22-10-2010 22:00:00 4.14 C 4.09 g/m*3 4.14 C 0 km/h
Sensor: Nr:Datum:Temp:Abs-Feuchte:Windchill:Wind:
Aussen-T/F 576 22-10-2010 23:00:00 2.76 C 4.31 g/m*3 2.76 C 0 km/h
577 23-10-2010 00:00:00 1.7 C 4.3 g/m*3 1.7 C 0 km/h
578 23-10-2010 01:00:00 1.08 C 4.29 g/m*3 1.08 C 0 km/h
579 23-10-2010 02:00:00 0.54 C 4.24 g/m*3 0.54 C 0 km/h
580 23-10-2010 03:00:00 0.1 C 4.19 g/m*3 0.1 C 0 km/h
581 23-10-2010 04:00:00 -0.34 C 4.14 g/m*3 -0.34 C 0 km/h
582 23-10-2010 05:00:00 -0.82 C 4.03 g/m*3 -0.82 C 0 km/h
583 23-10-2010 06:00:00 -1.04 C 4 g/m*3 -1.04 C 0 km/h
584 23-10-2010 07:00:00 -0.86 C 4.09 g/m*3 -0.86 C 0 km/h
585 23-10-2010 08:00:00 -0.78 C 4.18 g/m*3 -0.78 C 0 km/h
586 23-10-2010 09:00:00 -0.82 C 4.14 g/m*3 -0.82 C 0 km/h
587 23-10-2010 10:00:00 1.06 C 4.78 g/m*3 1.06 C 0 km/h
588 23-10-2010 11:00:00 4.08 C 5.33 g/m*3 4.08 C 0 km/h
589 23-10-2010 12:00:00 6.64 C 5.16 g/m*3 6.64 C 0 km/h
590 23-10-2010 13:00:00 8.56 C 4.97 g/m*3 8.56 C 0 km/h
591 23-10-2010 14:00:00 9.08 C 4.25 g/m*3 9.08 C 0 km/h
592 23-10-2010 15:00:00 8.42 C 4.64 g/m*3 8.42 C 0 km/h
593 23-10-2010 16:00:00 7.92 C 4.93 g/m*3 7.92 C 0 km/h
594 23-10-2010 17:00:00 7.88 C 5.35 g/m*3 7.88 C 0 km/h
595 23-10-2010 18:00:00 8.04 C 5.49 g/m*3 8.04 C 0 km/h
596 23-10-2010 19:00:00 8.56 C 5.16 g/m*3 8.56 C 0 km/h
597 23-10-2010 20:00:00 9.14 C 5.27 g/m*3 9.14 C 0 km/h
598 23-10-2010 21:00:00 9.26 C 5.77 g/m*3 9.26 C 0 km/h
599 23-10-2010 22:00:00 9.375 C 5.85 g/m*3 9.38 C 0 km/h
600 23-10-2010 23:00:00 9.32 C 5.67 g/m*3 9.32 C 0 km/h
Sensor: Nr:Datum:Temp:Abs-Feuchte:Windchill:Wind:
Aussen-T/F 601 24-10-2010 00:00:00 9.02 C 5.74 g/m*3 9.02 C 0 km/h
602 24-10-2010 01:00:00 8.98 C 5.85 g/m*3 8.98 C 0 km/h
603 24-10-2010 02:00:00 8.46 C 6.28 g/m*3 8.46 C 0 km/h
604 24-10-2010 03:00:00 8.46 C 6.3 g/m*3 8.46 C 0 km/h
605 24-10-2010 04:00:00 8.66 C 6.02 g/m*3 8.66 C 0 km/h
606 24-10-2010 05:00:00 8.5 C 5.98 g/m*3 8.5 C 0 km/h
607 24-10-2010 06:00:00 7.98 C 6.24 g/m*3 7.98 C 0 km/h
608 24-10-2010 07:00:00 7.06 C 6.72 g/m*3 7.06 C 0 km/h
609 24-10-2010 08:00:00 6.96 C 6.91 g/m*3 6.96 C 0 km/h
610 24-10-2010 09:00:00 7.14 C 7.02 g/m*3 7.14 C 0 km/h
611 24-10-2010 10:00:00 7 C 6.65 g/m*3 7 C 0 km/h
612 24-10-2010 11:00:00 8.3 C 5.85 g/m*3 8.3 C 0 km/h
613 24-10-2010 12:00:00 9.36 C 4.75 g/m*3 9.36 C 0 km/h
614 24-10-2010 13:00:00 10.46 C 4.6 g/m*3 10.46 C 0 km/h
615 24-10-2010 14:00:00 11.62 C 4.29 g/m*3 11.62 C 0 km/h
616 24-10-2010 15:00:00 12.3 C 4.23 g/m*3 12.3 C 0 km/h
617 24-10-2010 16:00:00 13.04 C 3.75 g/m*3 13.04 C 0 km/h
618 24-10-2010 17:00:00 12.02 C 4.01 g/m*3 12.02 C 0 km/h
619 24-10-2010 18:00:00 9.56 C 4.75 g/m*3 9.56 C 0 km/h
620 24-10-2010 19:00:00 7.42 C 5.14 g/m*3 7.42 C 0 km/h
621 24-10-2010 20:00:00 6.48 C 5.18 g/m*3 6.48 C 0 km/h
622 24-10-2010 21:00:00 6.12 C 5.38 g/m*3 6.12 C 0 km/h
623 24-10-2010 22:00:00 5.62 C 5.56 g/m*3 5.62 C 0 km/h
624 24-10-2010 23:00:00 4.84 C 5.49 g/m*3 4.84 C 0 km/h
625 25-10-2010 00:00:00 4.8 C 5.7 g/m*3 4.8 C 0 km/h
Sensor: Nr:Datum:Temp:Abs-Feuchte:Windchill:Wind:
Aussen-T/F 626 25-10-2010 01:00:00 4.5 C 5.65 g/m*3 4.5 C 0 km/h
627 25-10-2010 02:00:00 4.42 C 5.69 g/m*3 4.42 C 0 km/h
628 25-10-2010 03:00:00 4.62 C 5.76 g/m*3 4.62 C 0 km/h
629 25-10-2010 04:00:00 5.1 C 5.73 g/m*3 5.1 C 0 km/h
630 25-10-2010 05:00:00 5.1 C 5.62 g/m*3 5.1 C 0 km/h
631 25-10-2010 06:00:00 5.04 C 5.55 g/m*3 5.04 C 0 km/h
632 25-10-2010 07:00:00 4.86 C 5.51 g/m*3 4.86 C 0 km/h
633 25-10-2010 08:00:00 4.9 C 5.52 g/m*3 4.9 C 0 km/h
634 25-10-2010 09:00:00 5.06 C 5.47 g/m*3 5.06 C 0 km/h
635 25-10-2010 10:00:00 5.8 C 5.5 g/m*3 5.8 C 0 km/h
636 25-10-2010 11:00:00 6.54 C 5.44 g/m*3 6.54 C 0 km/h
637 25-10-2010 12:00:00 7.84 C 5.3 g/m*3 7.84 C 0 km/h
638 25-10-2010 13:00:00 8.74 C 5.12 g/m*3 8.74 C 0 km/h
639 25-10-2010 14:00:00 10.1 C 4.63 g/m*3 10.1 C 0 km/h
640 25-10-2010 15:00:00 10.4 C 3.91 g/m*3 10.4 C 0 km/h
641 25-10-2010 16:00:00 10.72 C 3.91 g/m*3 10.72 C 0 km/h
642 25-10-2010 17:00:00 10.68 C 4.06 g/m*3 10.68 C 0 km/h
643 25-10-2010 18:00:00 8.36 C 4.25 g/m*3 8.36 C 0 km/h
644 25-10-2010 19:00:00 6.22 C 4.68 g/m*3 6.22 C 0 km/h
645 25-10-2010 20:00:00 4.66 C 4.77 g/m*3 4.66 C 0 km/h
646 25-10-2010 21:00:00 3.92 C 4.92 g/m*3 3.92 C 0 km/h
647 25-10-2010 22:00:00 3 C 4.83 g/m*3 3 C 0 km/h
648 25-10-2010 23:00:00 2.28 C 4.79 g/m*3 2.28 C 0 km/h
649 26-10-2010 00:00:00 1.88 C 4.78 g/m*3 1.88 C 0 km/h
650 26-10-2010 01:00:00 1.48 C 4.76 g/m*3 1.48 C 0 km/h
Sensor: Nr:Datum:Temp:Abs-Feuchte:Windchill:Wind:
Aussen-T/F 651 26-10-2010 02:00:00 0.82 C 4.64 g/m*3 0.82 C 0 km/h
652 26-10-2010 03:00:00 0.3 C 4.5 g/m*3 0.3 C 0 km/h
653 26-10-2010 04:00:00 0.12 C 4.51 g/m*3 0.12 C 0 km/h
654 26-10-2010 05:00:00 0.08 C 4.56 g/m*3 0.08 C 0 km/h
655 26-10-2010 06:00:00 0.14 C 4.6 g/m*3 0.14 C 0 km/h
656 26-10-2010 07:00:00 -0.32 C 4.45 g/m*3 -0.32 C 0 km/h
657 26-10-2010 08:00:00 -0.42 C 4.42 g/m*3 -0.42 C 0 km/h
658 26-10-2010 09:00:00 -0.36 C 4.44 g/m*3 -0.36 C 0 km/h
659 26-10-2010 10:00:00 0.1 C 4.58 g/m*3 0.1 C 0 km/h
660 26-10-2010 11:00:00 1.22 C 4.82 g/m*3 1.22 C 0 km/h
661 26-10-2010 12:00:00 3.16 C 5.19 g/m*3 3.16 C 0 km/h
662 26-10-2010 13:00:00 5.54 C 5.61 g/m*3 5.54 C 0 km/h
663 26-10-2010 14:00:00 8.88 C 5.51 g/m*3 8.88 C 0 km/h
664 26-10-2010 15:00:00 9.72 C 5.28 g/m*3 9.72 C 0 km/h
665 26-10-2010 16:00:00 9.24 C 5.41 g/m*3 9.24 C 0 km/h
666 26-10-2010 17:00:00 8.04 C 5.69 g/m*3 8.04 C 0 km/h
667 26-10-2010 18:00:00 7.08 C 5.64 g/m*3 7.08 C 0 km/h
668 26-10-2010 19:00:00 6.58 C 5.68 g/m*3 6.58 C 0 km/h
669 26-10-2010 20:00:00 6.34 C 5.66 g/m*3 6.34 C 0 km/h
670 26-10-2010 21:00:00 6.06 C 5.58 g/m*3 6.06 C 0 km/h
671 26-10-2010 22:00:00 5.7 C 5.71 g/m*3 5.7 C 0 km/h
672 26-10-2010 23:00:00 5.6 C 5.73 g/m*3 5.6 C 0 km/h
673 27-10-2010 00:00:00 5.16 C 5.6 g/m*3 5.16 C 0 km/h
674 27-10-2010 01:00:00 5.36 C 5.14 g/m*3 5.36 C 0 km/h
675 27-10-2010 02:00:00 5.54 C 5.11 g/m*3 5.54 C 0 km/h
Sensor: Nr:Datum:Temp:Abs-Feuchte:Windchill:Wind:
Aussen-T/F 676 27-10-2010 03:00:00 5.48 C 5.26 g/m*3 5.48 C 0 km/h
677 27-10-2010 04:00:00 5.42 C 5.24 g/m*3 5.42 C 0 km/h
678 27-10-2010 05:00:00 5.64 C 5.16 g/m*3 5.64 C 0 km/h
679 27-10-2010 06:00:00 5.68 C 5.22 g/m*3 5.68 C 0 km/h
680 27-10-2010 07:00:00 5.76 C 5.16 g/m*3 5.76 C 0 km/h
681 27-10-2010 08:00:00 5.68 C 5.09 g/m*3 5.68 C 0 km/h
682 27-10-2010 09:00:00 5.84 C 5.65 g/m*3 5.84 C 0 km/h
683 27-10-2010 10:00:00 7 C 5.8 g/m*3 7 C 0 km/h
684 27-10-2010 11:00:00 8.22 C 5.45 g/m*3 8.22 C 0 km/h
685 27-10-2010 12:00:00 9.62 C 4.46 g/m*3 9.62 C 0 km/h
686 27-10-2010 13:00:00 10.92 C 3.84 g/m*3 10.92 C 0 km/h
687 27-10-2010 14:00:00 11.06 C 3.64 g/m*3 11.06 C 0 km/h
688 27-10-2010 15:00:00 11.56 C 3.55 g/m*3 11.56 C 0 km/h
689 27-10-2010 16:00:00 11.98 C 3.43 g/m*3 11.98 C 0 km/h
690 27-10-2010 17:00:00 11.6 C 3.55 g/m*3 11.6 C 0 km/h
691 27-10-2010 18:00:00 10.44 C 4.27 g/m*3 10.44 C 0 km/h
692 27-10-2010 19:00:00 10.04 C 4.41 g/m*3 10.04 C 0 km/h
693 27-10-2010 20:00:00 9.8 C 4.42 g/m*3 9.8 C 0 km/h
694 27-10-2010 21:00:00 9.56 C 4.71 g/m*3 9.56 C 0 km/h
695 27-10-2010 22:00:00 9.2 C 4.89 g/m*3 9.2 C 0 km/h
696 27-10-2010 23:00:00 9.02 C 4.86 g/m*3 9.02 C 0 km/h
697 28-10-2010 00:00:00 8.66 C 4.87 g/m*3 8.66 C 0 km/h
698 28-10-2010 01:00:00 8.46 C 4.91 g/m*3 8.46 C 0 km/h
699 28-10-2010 02:00:00 8.06 C 5.05 g/m*3 8.06 C 0 km/h
700 28-10-2010 03:00:00 7.62 C 4.86 g/m*3 7.62 C 0 km/h
Sensor: Nr:Datum:Temp:Abs-Feuchte:Windchill:Wind:
Aussen-T/F 701 28-10-2010 04:00:00 7.66 C 5.06 g/m*3 7.66 C 0 km/h
702 28-10-2010 05:00:00 7.52 C 5.05 g/m*3 7.52 C 0 km/h
703 28-10-2010 06:00:00 7.98 C 4.41 g/m*3 7.98 C 0 km/h
704 28-10-2010 07:00:00 8.48 C 4.31 g/m*3 8.48 C 0 km/h
705 28-10-2010 08:00:00 8.7 C 4.67 g/m*3 8.7 C 0 km/h
706 28-10-2010 09:00:00 8.86 C 4.91 g/m*3 8.86 C 0 km/h
707 28-10-2010 10:00:00 7.9 C 6.09 g/m*3 7.9 C 0 km/h
708 28-10-2010 11:00:00 9.7 C 5.97 g/m*3 9.7 C 0 km/h
709 28-10-2010 12:00:00 10.72 C 5.78 g/m*3 10.72 C 0 km/h
710 28-10-2010 13:00:00 11.34 C 5.69 g/m*3 11.34 C 0 km/h
711 28-10-2010 14:00:00 12.3 C 5.67 g/m*3 12.3 C 0 km/h
712 28-10-2010 15:00:00 12.72 C 5.66 g/m*3 12.72 C 0 km/h
713 28-10-2010 16:00:00 11.62 C 6.12 g/m*3 11.62 C 0 km/h
714 28-10-2010 17:00:00 11.08 C 6.14 g/m*3 11.08 C 0 km/h
715 28-10-2010 18:00:00 9.86 C 6.13 g/m*3 9.86 C 0 km/h
716 28-10-2010 19:00:00 9.18 C 6.22 g/m*3 9.18 C 0 km/h
717 28-10-2010 20:00:00 9 C 6.24 g/m*3 9 C 0 km/h
718 28-10-2010 21:00:00 8.38 C 6.3 g/m*3 8.38 C 0 km/h
719 28-10-2010 22:00:00 7.56 C 6.36 g/m*3 7.56 C 0 km/h
720 28-10-2010 23:00:00 6.78 C 6.32 g/m*3 6.78 C 0 km/h
721 29-10-2010 00:00:00 6.26 C 6.26 g/m*3 6.26 C 0 km/h
722 29-10-2010 01:00:00 6.28 C 6.4 g/m*3 6.28 C 0 km/h
723 29-10-2010 02:00:00 6.46 C 6.57 g/m*3 6.46 C 0 km/h
724 29-10-2010 03:00:00 7.23333 C 6.82 g/m*3 7.23 C 0 km/h
725 02-11-2010 08:00:00 8.77778 C 6.98 g/m*3 8.78 C 0 km/h
Sensor: Nr:Datum:Temp:Abs-Feuchte:Windchill:Wind:
Aussen-T/F 726 02-11-2010 09:00:00 9.9 C 6.85 g/m*3 9.9 C 0 km/h
727 02-11-2010 10:00:00 11.04 C 6.74 g/m*3 11.04 C 0 km/h
728 02-11-2010 11:00:00 11.88 C 6.43 g/m*3 11.88 C 0 km/h
729 02-11-2010 12:00:00 12.52 C 6.49 g/m*3 12.52 C 0 km/h
730 02-11-2010 13:00:00 12.72 C 6.33 g/m*3 12.72 C 0 km/h
731 02-11-2010 14:00:00 12.8 C 6.36 g/m*3 12.8 C 0 km/h
732 02-11-2010 15:00:00 12.92 C 6.39 g/m*3 12.92 C 0 km/h
733 02-11-2010 16:00:00 12.34 C 6.44 g/m*3 12.34 C 0 km/h
734 02-11-2010 17:00:00 11.34 C 6.61 g/m*3 11.34 C 0 km/h
735 02-11-2010 18:00:00 11.22 C 6.66 g/m*3 11.22 C 0 km/h
736 02-11-2010 19:00:00 11.46 C 6.66 g/m*3 11.46 C 0 km/h
737 02-11-2010 20:00:00 11 C 7.01 g/m*3 11 C 0 km/h
738 02-11-2010 21:00:00 10.94 C 7.18 g/m*3 10.94 C 0 km/h
739 02-11-2010 22:00:00 11.08 C 7.42 g/m*3 11.08 C 0 km/h
740 02-11-2010 23:00:00 11.14 C 7.57 g/m*3 11.14 C 0 km/h
741 03-11-2010 00:00:00 11.32 C 7.66 g/m*3 11.32 C 0 km/h
742 03-11-2010 01:00:00 10.88 C 7.49 g/m*3 10.88 C 0 km/h
743 03-11-2010 02:00:00 11.68 C 7.56 g/m*3 11.68 C 0 km/h
744 03-11-2010 03:00:00 12.06 C 7.34 g/m*3 12.06 C 0 km/h
745 03-11-2010 04:00:00 12.44 C 7.47 g/m*3 12.44 C 0 km/h
746 03-11-2010 05:00:00 12.72 C 7.49 g/m*3 12.72 C 0 km/h
747 03-11-2010 06:00:00 12.66 C 7.62 g/m*3 12.66 C 0 km/h
748 03-11-2010 07:00:00 12.76 C 7.66 g/m*3 12.76 C 0 km/h
749 03-11-2010 08:00:00 13.28 C 7.57 g/m*3 13.28 C 0 km/h
750 03-11-2010 09:00:00 13.78 C 7.64 g/m*3 13.78 C 0 km/h
Sensor: Nr:Datum:Temp:Abs-Feuchte:Windchill:Wind:
Aussen-T/F 751 03-11-2010 10:00:00 14.2 C 7.55 g/m*3 14.2 C 0 km/h
752 03-11-2010 11:00:00 14.42 C 7.65 g/m*3 14.42 C 0 km/h
753 03-11-2010 12:00:00 13.94 C 7.74 g/m*3 13.94 C 0 km/h
754 03-11-2010 13:00:00 13.54 C 7.83 g/m*3 13.54 C 0 km/h
755 03-11-2010 14:00:00 13.66 C 7.94 g/m*3 13.66 C 0 km/h
756 03-11-2010 15:00:00 13.78 C 8.07 g/m*3 13.78 C 0 km/h
757 03-11-2010 16:00:00 13.46 C 8.1 g/m*3 13.46 C 0 km/h
758 03-11-2010 17:00:00 13.06 C 8.2 g/m*3 13.06 C 0 km/h
759 03-11-2010 18:00:00 12.66 C 8.31 g/m*3 12.66 C 0 km/h
760 03-11-2010 19:00:00 12.96 C 8.26 g/m*3 12.96 C 0 km/h
761 03-11-2010 20:00:00 13.38 C 8.2 g/m*3 13.38 C 0 km/h
762 03-11-2010 21:00:00 13.54 C 8.16 g/m*3 13.54 C 0 km/h
763 03-11-2010 22:00:00 14.1 C 8.16 g/m*3 14.1 C 0 km/h
764 03-11-2010 23:00:00 14.2 C 8.4 g/m*3 14.2 C 0 km/h
765 04-11-2010 00:00:00 14.3 C 8.77 g/m*3 14.3 C 0 km/h
766 04-11-2010 01:00:00 14.74 C 9.06 g/m*3 14.74 C 0 km/h
767 04-11-2010 02:00:00 14.96 C 9.06 g/m*3 14.96 C 0 km/h
768 04-11-2010 03:00:00 15.16 C 9.12 g/m*3 15.16 C 0 km/h
769 04-11-2010 04:00:00 15.22 C 9.3 g/m*3 15.22 C 0 km/h
770 04-11-2010 05:00:00 15.54 C 9.41 g/m*3 15.54 C 0 km/h
771 04-11-2010 06:00:00 15.7 C 9.61 g/m*3 15.7 C 0 km/h
772 04-11-2010 07:00:00 15.92 C 9.52 g/m*3 15.92 C 0 km/h
773 04-11-2010 08:00:00 16.2 C 9.43 g/m*3 16.2 C 0 km/h
774 04-11-2010 09:00:00 16.64 C 9.06 g/m*3 16.64 C 0 km/h
775 04-11-2010 10:00:00 17.24 C 8.84 g/m*3 17.24 C 0 km/h
Sensor: Nr:Datum:Temp:Abs-Feuchte:Windchill:Wind:
Aussen-T/F 776 04-11-2010 11:00:00 17.82 C 8.45 g/m*3 17.82 C 0 km/h
777 04-11-2010 12:00:00 18.44 C 8.17 g/m*3 18.44 C 0 km/h
778 04-11-2010 13:00:00 18.54 C 8.18 g/m*3 18.54 C 0 km/h
779 04-11-2010 14:00:00 18.44 C 8.01 g/m*3 18.44 C 0 km/h
780 04-11-2010 15:00:00 18.24 C 8.13 g/m*3 18.24 C 0 km/h
781 04-11-2010 16:00:00 17.52 C 8.42 g/m*3 17.52 C 0 km/h
782 04-11-2010 17:00:00 16.92 C 8.44 g/m*3 16.92 C 0 km/h
783 04-11-2010 18:00:00 16.78 C 8.43 g/m*3 16.78 C 0 km/h
784 04-11-2010 19:00:00 16.92 C 8.47 g/m*3 16.92 C 0 km/h
785 04-11-2010 20:00:00 16.12 C 8.12 g/m*3 16.12 C 0 km/h
786 04-11-2010 21:00:00 15.74 C 8.05 g/m*3 15.74 C 0 km/h
787 04-11-2010 22:00:00 15.38 C 7.87 g/m*3 15.38 C 0 km/h
788 04-11-2010 23:00:00 15.4 C 7.88 g/m*3 15.4 C 0 km/h
789 05-11-2010 00:00:00 15.34 C 7.88 g/m*3 15.34 C 0 km/h
790 05-11-2010 01:00:00 15.14 C 7.53 g/m*3 15.14 C 0 km/h
791 05-11-2010 02:00:00 14.74 C 7.45 g/m*3 14.74 C 0 km/h
792 05-11-2010 03:00:00 14.46 C 7.37 g/m*3 14.46 C 0 km/h
793 05-11-2010 04:00:00 14.2 C 7.38 g/m*3 14.2 C 0 km/h
794 05-11-2010 05:00:00 14.14 C 7.18 g/m*3 14.14 C 0 km/h
795 05-11-2010 06:00:00 13.82 C 7.13 g/m*3 13.82 C 0 km/h
796 05-11-2010 07:00:00 13.46 C 6.95 g/m*3 13.46 C 0 km/h
797 05-11-2010 08:00:00 13.88 C 6.61 g/m*3 13.88 C 0 km/h
798 05-11-2010 09:00:00 14.52 C 6.72 g/m*3 14.52 C 0 km/h
799 05-11-2010 10:00:00 14.9 C 6.88 g/m*3 14.9 C 0 km/h
800 05-11-2010 11:00:00 15.22 C 6.99 g/m*3 15.22 C 0 km/h
Sensor: Nr:Datum:Temp:Abs-Feuchte:Windchill:Wind:
Aussen-T/F 801 05-11-2010 12:00:00 15.14 C 7.09 g/m*3 15.14 C 0 km/h
802 05-11-2010 13:00:00 15.1 C 7.1 g/m*3 15.1 C 0 km/h
803 05-11-2010 14:00:00 14.8 C 7.4 g/m*3 14.8 C 0 km/h
804 05-11-2010 15:00:00 14.6 C 7.48 g/m*3 14.6 C 0 km/h
805 05-11-2010 16:00:00 14.56 C 7.49 g/m*3 14.56 C 0 km/h
806 05-11-2010 17:00:00 14.64 C 7.55 g/m*3 14.64 C 0 km/h
807 05-11-2010 18:00:00 14.76 C 7.58 g/m*3 14.76 C 0 km/h
808 05-11-2010 19:00:00 14.36 C 7.57 g/m*3 14.36 C 0 km/h
809 05-11-2010 20:00:00 14.44 C 7.58 g/m*3 14.44 C 0 km/h
810 05-11-2010 21:00:00 14.28 C 7.61 g/m*3 14.28 C 0 km/h
811 05-11-2010 22:00:00 14.02 C 7.58 g/m*3 14.02 C 0 km/h
812 05-11-2010 23:00:00 13.94 C 7.57 g/m*3 13.94 C 0 km/h
813 06-11-2010 00:00:00 14.04 C 7.57 g/m*3 14.04 C 0 km/h
814 06-11-2010 01:00:00 14.02 C 7.61 g/m*3 14.02 C 0 km/h
815 06-11-2010 02:00:00 13.38 C 7.69 g/m*3 13.38 C 0 km/h
816 06-11-2010 03:00:00 12.9 C 7.98 g/m*3 12.9 C 0 km/h
817 06-11-2010 04:00:00 12.78 C 8.12 g/m*3 12.78 C 0 km/h
818 06-11-2010 05:00:00 13.12 C 8 g/m*3 13.12 C 0 km/h
819 06-11-2010 06:00:00 13.46 C 7.86 g/m*3 13.46 C 0 km/h
820 06-11-2010 07:00:00 13.48 C 7.57 g/m*3 13.48 C 0 km/h
821 06-11-2010 08:00:00 13.34 C 7.5 g/m*3 13.34 C 0 km/h
822 06-11-2010 09:00:00 11.92 C 7.55 g/m*3 11.92 C 0 km/h
823 06-11-2010 10:00:00 10.18 C 7.93 g/m*3 10.18 C 0 km/h
824 06-11-2010 11:00:00 10.58 C 8.19 g/m*3 10.58 C 0 km/h
825 06-11-2010 12:00:00 9.78 C 7.67 g/m*3 9.78 C 0 km/h
Sensor: Nr:Datum:Temp:Abs-Feuchte:Windchill:Wind:
Aussen-T/F 826 06-11-2010 13:00:00 9.08 C 7.46 g/m*3 9.08 C 0 km/h
827 06-11-2010 14:00:00 8.92 C 7.67 g/m*3 8.92 C 0 km/h
828 06-11-2010 15:00:00 8.64 C 7.67 g/m*3 8.64 C 0 km/h
829 06-11-2010 16:00:00 8.2 C 7.54 g/m*3 8.2 C 0 km/h
830 06-11-2010 17:00:00 7.84 C 7.49 g/m*3 7.84 C 0 km/h
831 06-11-2010 18:00:00 7.44 C 7.34 g/m*3 7.44 C 0 km/h
832 06-11-2010 19:00:00 7.42 C 7.41 g/m*3 7.42 C 0 km/h
833 06-11-2010 20:00:00 7.2 C 7.3 g/m*3 7.2 C 0 km/h
834 06-11-2010 21:00:00 7.26 C 7.33 g/m*3 7.26 C 0 km/h
835 06-11-2010 22:00:00 7.48 C 7.43 g/m*3 7.48 C 0 km/h
836 06-11-2010 23:00:00 7.36 C 7.38 g/m*3 7.36 C 0 km/h
837 07-11-2010 00:00:00 7.22 C 7.31 g/m*3 7.22 C 0 km/h
838 07-11-2010 01:00:00 7.18 C 7.29 g/m*3 7.18 C 0 km/h
839 07-11-2010 02:00:00 6.98 C 7.24 g/m*3 6.98 C 0 km/h
840 07-11-2010 03:00:00 7.3 C 7.4 g/m*3 7.3 C 0 km/h
841 07-11-2010 04:00:00 7.18 C 7.34 g/m*3 7.18 C 0 km/h
842 07-11-2010 05:00:00 6.8 C 7.19 g/m*3 6.8 C 0 km/h
843 07-11-2010 06:00:00 6.48 C 7.04 g/m*3 6.48 C 0 km/h
844 07-11-2010 07:00:00 6.7 C 7.14 g/m*3 6.7 C 0 km/h
845 07-11-2010 08:00:00 7.16 C 7.28 g/m*3 7.16 C 0 km/h
846 07-11-2010 09:00:00 7.46 C 7.47 g/m*3 7.46 C 0 km/h
847 07-11-2010 10:00:00 7.82 C 7.68 g/m*3 7.82 C 0 km/h
848 07-11-2010 11:00:00 8.06 C 7.67 g/m*3 8.06 C 0 km/h
849 07-11-2010 12:00:00 8.74 C 7.87 g/m*3 8.74 C 0 km/h
850 07-11-2010 13:00:00 8.48 C 7.5 g/m*3 8.48 C 0 km/h
Sensor: Nr:Datum:Temp:Abs-Feuchte:Windchill:Wind:
Aussen-T/F 851 07-11-2010 14:00:00 8.22 C 7.43 g/m*3 8.22 C 0 km/h
852 07-11-2010 15:00:00 7.5 C 7.17 g/m*3 7.5 C 0 km/h
853 07-11-2010 16:00:00 6.82 C 6.97 g/m*3 6.82 C 0 km/h
854 07-11-2010 17:00:00 6.76 C 7.02 g/m*3 6.76 C 0 km/h
855 07-11-2010 18:00:00 6.58 C 6.94 g/m*3 6.58 C 0 km/h
856 07-11-2010 19:00:00 5.72 C 6.61 g/m*3 5.72 C 0 km/h
857 07-11-2010 20:00:00 5.18 C 6.4 g/m*3 5.18 C 0 km/h
858 07-11-2010 21:00:00 4.98 C 6.32 g/m*3 4.98 C 0 km/h
859 07-11-2010 22:00:00 4.9 C 6.32 g/m*3 4.9 C 0 km/h
860 07-11-2010 23:00:00 4.64 C 6.22 g/m*3 4.64 C 0 km/h
861 08-11-2010 00:00:00 4.04 C 5.95 g/m*3 4.04 C 0 km/h
862 08-11-2010 01:00:00 4.12 C 5.97 g/m*3 4.12 C 0 km/h
863 08-11-2010 02:00:00 4.04 C 5.97 g/m*3 4.04 C 0 km/h
864 08-11-2010 03:00:00 4.46 C 6.16 g/m*3 4.46 C 0 km/h
865 08-11-2010 04:00:00 4.4 C 6.14 g/m*3 4.4 C 0 km/h
866 08-11-2010 05:00:00 4.6 C 6.22 g/m*3 4.6 C 0 km/h
867 08-11-2010 06:00:00 4.86 C 6.33 g/m*3 4.86 C 0 km/h
868 08-11-2010 07:00:00 4.74 C 6.26 g/m*3 4.74 C 0 km/h
869 08-11-2010 08:00:00 4.96 C 6.34 g/m*3 4.96 C 0 km/h
870 08-11-2010 09:00:00 5.84 C 6.58 g/m*3 5.84 C 0 km/h
871 08-11-2010 10:00:00 7.08 C 6.5 g/m*3 7.08 C 0 km/h
872 08-11-2010 11:00:00 7.26 C 5.75 g/m*3 7.26 C 0 km/h
873 08-11-2010 12:00:00 6.78 C 5.3 g/m*3 6.78 C 0 km/h
874 08-11-2010 13:00:00 7.24 C 5.15 g/m*3 7.24 C 0 km/h
875 08-11-2010 14:00:00 6.88 C 4.74 g/m*3 6.88 C 0 km/h
Sensor: Nr:Datum:Temp:Abs-Feuchte:Windchill:Wind:
Aussen-T/F 876 08-11-2010 15:00:00 5.6 C 4.67 g/m*3 5.6 C 0 km/h
877 08-11-2010 16:00:00 2.98 C 4.87 g/m*3 2.98 C 0 km/h
878 08-11-2010 17:00:00 2.08 C 4.85 g/m*3 2.08 C 0 km/h
879 08-11-2010 18:00:00 1.46 C 4.79 g/m*3 1.46 C 0 km/h
880 08-11-2010 19:00:00 2.26 C 5.11 g/m*3 2.26 C 0 km/h
881 08-11-2010 20:00:00 3.5 C 5.42 g/m*3 3.5 C 0 km/h
882 08-11-2010 21:00:00 3.9 C 5.56 g/m*3 3.9 C 0 km/h
883 08-11-2010 22:00:00 4.22 C 5.72 g/m*3 4.22 C 0 km/h
884 08-11-2010 23:00:00 4.44 C 5.62 g/m*3 4.44 C 0 km/h
885 09-11-2010 00:00:00 4.24 C 5.65 g/m*3 4.24 C 0 km/h
886 09-11-2010 01:00:00 4.2 C 5.73 g/m*3 4.2 C 0 km/h
887 09-11-2010 02:00:00 4.2 C 5.79 g/m*3 4.2 C 0 km/h
888 09-11-2010 03:00:00 4.46 C 5.97 g/m*3 4.46 C 0 km/h
889 09-11-2010 04:00:00 4.44 C 5.96 g/m*3 4.44 C 0 km/h
890 09-11-2010 05:00:00 4.74 C 6.08 g/m*3 4.74 C 0 km/h
891 09-11-2010 06:00:00 5.1 C 6.16 g/m*3 5.1 C 0 km/h
892 09-11-2010 07:00:00 5.58 C 6.24 g/m*3 5.58 C 0 km/h
893 09-11-2010 08:00:00 6.42 C 6.09 g/m*3 6.42 C 0 km/h
894 09-11-2010 09:00:00 6.9 C 6.1 g/m*3 6.9 C 0 km/h
895 09-11-2010 10:00:00 7.9 C 6.26 g/m*3 7.9 C 0 km/h
896 09-11-2010 11:00:00 9.16 C 6.29 g/m*3 9.16 C 0 km/h
897 09-11-2010 12:00:00 9.52 C 6.43 g/m*3 9.52 C 0 km/h
898 09-11-2010 13:00:00 9.66 C 6.47 g/m*3 9.66 C 0 km/h
899 09-11-2010 14:00:00 8.86 C 6.85 g/m*3 8.86 C 0 km/h
900 09-11-2010 15:00:00 8.42 C 7.07 g/m*3 8.42 C 0 km/h
Sensor: Nr:Datum:Temp:Abs-Feuchte:Windchill:Wind:
Aussen-T/F 901 09-11-2010 16:00:00 7.92 C 7.19 g/m*3 7.92 C 0 km/h
902 09-11-2010 17:00:00 7.3 C 7.05 g/m*3 7.3 C 0 km/h
903 09-11-2010 18:00:00 6.64 C 6.83 g/m*3 6.64 C 0 km/h
904 09-11-2010 19:00:00 6.86 C 7.02 g/m*3 6.86 C 0 km/h
905 09-11-2010 20:00:00 6.78 C 7.03 g/m*3 6.78 C 0 km/h
906 09-11-2010 21:00:00 6.84 C 7.05 g/m*3 6.84 C 0 km/h
907 09-11-2010 22:00:00 6.78 C 7.03 g/m*3 6.78 C 0 km/h
908 09-11-2010 23:00:00 6.84 C 7.05 g/m*3 6.84 C 0 km/h
909 10-11-2010 00:00:00 6.56 C 6.93 g/m*3 6.56 C 0 km/h
910 10-11-2010 01:00:00 6.92 C 7.14 g/m*3 6.92 C 0 km/h
911 10-11-2010 02:00:00 6.9 C 7.14 g/m*3 6.9 C 0 km/h
912 10-11-2010 03:00:00 7.1 C 7.18 g/m*3 7.1 C 0 km/h
913 10-11-2010 04:00:00 6.88 C 7.12 g/m*3 6.88 C 0 km/h
914 10-11-2010 05:00:00 6.9 C 7.13 g/m*3 6.9 C 0 km/h
915 10-11-2010 06:00:00 6.82 C 7.09 g/m*3 6.82 C 0 km/h
916 10-11-2010 07:00:00 6.34 C 6.87 g/m*3 6.34 C 0 km/h
917 10-11-2010 08:00:00 6.72 C 7.05 g/m*3 6.72 C 0 km/h
918 10-11-2010 09:00:00 8.22 C 7.56 g/m*3 8.22 C 0 km/h
919 10-11-2010 10:00:00 9.6 C 6.93 g/m*3 9.6 C 0 km/h
920 10-11-2010 11:00:00 9.64 C 6.48 g/m*3 9.64 C 0 km/h
921 10-11-2010 12:00:00 10.18 C 6.48 g/m*3 10.18 C 0 km/h
922 10-11-2010 13:00:00 11.08 C 6.16 g/m*3 11.08 C 0 km/h
923 10-11-2010 14:00:00 10.52 C 6.02 g/m*3 10.52 C 0 km/h
924 10-11-2010 15:00:00 7.86 C 6.41 g/m*3 7.86 C 0 km/h
925 10-11-2010 16:00:00 6.24 C 6.18 g/m*3 6.24 C 0 km/h
Sensor: Nr:Datum:Temp:Abs-Feuchte:Windchill:Wind:
Aussen-T/F 926 10-11-2010 17:00:00 5.94 C 5.81 g/m*3 5.94 C 0 km/h
927 10-11-2010 18:00:00 5.22 C 5.67 g/m*3 5.22 C 0 km/h
928 10-11-2010 19:00:00 5.2 C 5.63 g/m*3 5.2 C 0 km/h
929 10-11-2010 20:00:00 5.34 C 5.5 g/m*3 5.34 C 0 km/h
930 10-11-2010 21:00:00 4.46 C 5.52 g/m*3 4.46 C 0 km/h
931 10-11-2010 22:00:00 4.55 C 5.59 g/m*3 4.55 C 0 km/h
932 10-11-2010 23:00:00 4.3 C 5.34 g/m*3 4.3 C 0 km/h
933 11-11-2010 00:00:00 4.6 C 5.29 g/m*3 4.6 C 0 km/h
934 11-11-2010 01:00:00 4.5 C 5.44 g/m*3 4.5 C 0 km/h
935 11-11-2010 02:00:00 5.02 C 5.42 g/m*3 5.02 C 0 km/h
936 11-11-2010 03:00:00 4.84 C 5.23 g/m*3 4.84 C 0 km/h
937 11-11-2010 04:00:00 4.3 C 5.24 g/m*3 4.3 C 0 km/h
938 11-11-2010 05:00:00 4.12 C 5.2 g/m*3 4.12 C 0 km/h
939 11-11-2010 06:00:00 3.7 C 5.01 g/m*3 3.7 C 0 km/h
940 11-11-2010 07:00:00 3.56 C 4.98 g/m*3 3.56 C 0 km/h
941 11-11-2010 08:00:00 2.32 C 4.71 g/m*3 2.32 C 0 km/h
942 11-11-2010 09:00:00 3.66 C 5.28 g/m*3 3.66 C 0 km/h
943 11-11-2010 10:00:00 5.58 C 4.59 g/m*3 5.58 C 0 km/h
944 11-11-2010 11:00:00 6.94 C 3.78 g/m*3 6.94 C 0 km/h
945 11-11-2010 12:00:00 7.46 C 3.98 g/m*3 7.46 C 0 km/h
946 11-11-2010 13:00:00 7.7 C 4.15 g/m*3 7.7 C 0 km/h
947 11-11-2010 14:00:00 7.36 C 4.24 g/m*3 7.36 C 0 km/h
948 11-11-2010 15:00:00 6.8 C 4.45 g/m*3 6.8 C 0 km/h
949 11-11-2010 16:00:00 5.54 C 5.08 g/m*3 5.54 C 0 km/h
950 11-11-2010 17:00:00 5.28 C 5.48 g/m*3 5.28 C 0 km/h
Sensor: Nr:Datum:Temp:Abs-Feuchte:Windchill:Wind:
Aussen-T/F 951 11-11-2010 18:00:00 5.64 C 5.87 g/m*3 5.64 C 0 km/h
952 11-11-2010 19:00:00 6.22 C 6.27 g/m*3 6.22 C 0 km/h
953 11-11-2010 20:00:00 7.5 C 6.34 g/m*3 7.5 C 0 km/h
954 11-11-2010 21:00:00 8.44 C 6.57 g/m*3 8.44 C 0 km/h
955 11-11-2010 22:00:00 9.34 C 7.23 g/m*3 9.34 C 0 km/h
956 11-11-2010 23:00:00 9.78 C 7.69 g/m*3 9.78 C 0 km/h
957 12-11-2010 00:00:00 9.74 C 6.82 g/m*3 9.74 C 0 km/h
958 12-11-2010 01:00:00 9.84 C 5.93 g/m*3 9.84 C 0 km/h
959 12-11-2010 02:00:00 9.88 C 5.63 g/m*3 9.88 C 0 km/h
960 12-11-2010 03:00:00 9.6 C 5.81 g/m*3 9.6 C 0 km/h
961 12-11-2010 04:00:00 9.8 C 5.6 g/m*3 9.8 C 0 km/h
962 12-11-2010 05:00:00 9.94 C 5.77 g/m*3 9.94 C 0 km/h
963 12-11-2010 06:00:00 10.62 C 5.77 g/m*3 10.62 C 0 km/h
964 12-11-2010 07:00:00 10.62 C 5.8 g/m*3 10.62 C 0 km/h
965 12-11-2010 08:00:00 10.7 C 5.81 g/m*3 10.7 C 0 km/h
966 12-11-2010 09:00:00 10.84 C 5.85 g/m*3 10.84 C 0 km/h
967 12-11-2010 10:00:00 10.7 C 6.11 g/m*3 10.7 C 0 km/h
968 12-11-2010 11:00:00 11.42 C 6.08 g/m*3 11.42 C 0 km/h
969 12-11-2010 12:00:00 11.88 C 5.99 g/m*3 11.88 C 0 km/h
970 12-11-2010 13:00:00 11.64 C 6.29 g/m*3 11.64 C 0 km/h
971 12-11-2010 14:00:00 11.6 C 6.55 g/m*3 11.6 C 0 km/h
972 12-11-2010 15:00:00 11.6 C 6.57 g/m*3 11.6 C 0 km/h
973 12-11-2010 16:00:00 11.54 C 6.73 g/m*3 11.54 C 0 km/h
974 12-11-2010 17:00:00 11.16 C 7.2 g/m*3 11.16 C 0 km/h
975 12-11-2010 18:00:00 10.48 C 7.73 g/m*3 10.48 C 0 km/h
Sensor: Nr:Datum:Temp:Abs-Feuchte:Windchill:Wind:
Aussen-T/F 976 12-11-2010 19:00:00 10.52 C 8.29 g/m*3 10.52 C 0 km/h
977 12-11-2010 20:00:00 11.52 C 8.77 g/m*3 11.52 C 0 km/h
978 12-11-2010 21:00:00 12.16 C 9.28 g/m*3 12.16 C 0 km/h
979 12-11-2010 22:00:00 13.3 C 9.22 g/m*3 13.3 C 0 km/h
980 12-11-2010 23:00:00 13.88 C 8.69 g/m*3 13.88 C 0 km/h
981 13-11-2010 00:00:00 13.82 C 8.85 g/m*3 13.82 C 0 km/h
982 13-11-2010 01:00:00 13.86 C 9.06 g/m*3 13.86 C 0 km/h
983 13-11-2010 02:00:00 13.78 C 9.28 g/m*3 13.78 C 0 km/h
984 13-11-2010 03:00:00 14.2 C 9.33 g/m*3 14.2 C 0 km/h
985 13-11-2010 04:00:00 14.14 C 9.25 g/m*3 14.14 C 0 km/h
986 13-11-2010 05:00:00 14.5 C 9.1 g/m*3 14.5 C 0 km/h
987 13-11-2010 06:00:00 14.62 C 9.05 g/m*3 14.62 C 0 km/h
988 13-11-2010 07:00:00 14.72 C 9 g/m*3 14.72 C 0 km/h
989 13-11-2010 08:00:00 14.72 C 9 g/m*3 14.72 C 0 km/h
990 13-11-2010 09:00:00 14.18 C 9.15 g/m*3 14.18 C 0 km/h
991 13-11-2010 10:00:00 14.32 C 9.23 g/m*3 14.32 C 0 km/h
992 13-11-2010 11:00:00 14.76 C 9 g/m*3 14.76 C 0 km/h
993 13-11-2010 12:00:00 14.8 C 8.84 g/m*3 14.8 C 0 km/h
994 13-11-2010 13:00:00 14.76 C 8.85 g/m*3 14.76 C 0 km/h
995 13-11-2010 14:00:00 14.78 C 8.68 g/m*3 14.78 C 0 km/h
996 13-11-2010 15:00:00 14.82 C 8.55 g/m*3 14.82 C 0 km/h
997 13-11-2010 16:00:00 14.68 C 8.68 g/m*3 14.68 C 0 km/h
998 13-11-2010 17:00:00 14.26 C 8.75 g/m*3 14.26 C 0 km/h
999 13-11-2010 18:00:00 14.68 C 8.7 g/m*3 14.68 C 0 km/h
1000 13-11-2010 19:00:00 14.94 C 8.51 g/m*3 14.94 C 0 km/h
Sensor: Nr:Datum:Temp:Abs-Feuchte:Windchill:Wind:
Aussen-T/F 1001 13-11-2010 20:00:00 15 C 8.28 g/m*3 15 C 0 km/h
1002 13-11-2010 21:00:00 14.52 C 8.39 g/m*3 14.52 C 0 km/h
1003 13-11-2010 22:00:00 14.86 C 8.11 g/m*3 14.86 C 0 km/h
1004 13-11-2010 23:00:00 14.74 C 8.05 g/m*3 14.74 C 0 km/h
1005 14-11-2010 00:00:00 15.08 C 8.07 g/m*3 15.08 C 0 km/h
1006 14-11-2010 01:00:00 14.24 C 8.27 g/m*3 14.24 C 0 km/h
1007 14-11-2010 02:00:00 13.58 C 8.7 g/m*3 13.58 C 0 km/h
1008 14-11-2010 03:00:00 14.36 C 8.39 g/m*3 14.36 C 0 km/h
1009 14-11-2010 04:00:00 14.02 C 8.38 g/m*3 14.02 C 0 km/h
1010 14-11-2010 05:00:00 13.9 C 8.46 g/m*3 13.9 C 0 km/h
1011 14-11-2010 06:00:00 13.42 C 8.36 g/m*3 13.42 C 0 km/h
1012 14-11-2010 07:00:00 11.92 C 8 g/m*3 11.92 C 0 km/h
1013 14-11-2010 08:00:00 12.66 C 7.53 g/m*3 12.66 C 0 km/h
1014 14-11-2010 09:00:00 14.28 C 7.24 g/m*3 14.28 C 0 km/h
1015 14-11-2010 10:00:00 15.02 C 7.22 g/m*3 15.02 C 0 km/h
1016 14-11-2010 11:00:00 15.44 C 7.22 g/m*3 15.44 C 0 km/h
1017 14-11-2010 12:00:00 16.16 C 7.4 g/m*3 16.16 C 0 km/h
1018 14-11-2010 13:00:00 17.46 C 7.44 g/m*3 17.46 C 0 km/h
1019 14-11-2010 14:00:00 17.64 C 7.25 g/m*3 17.64 C 0 km/h
1020 14-11-2010 15:00:00 17.7 C 7.12 g/m*3 17.7 C 0 km/h
1021 14-11-2010 16:00:00 15.72 C 7.64 g/m*3 15.72 C 0 km/h
1022 14-11-2010 17:00:00 14.74 C 8.13 g/m*3 14.74 C 0 km/h
1023 14-11-2010 18:00:00 14.16 C 8.02 g/m*3 14.16 C 0 km/h
1024 14-11-2010 19:00:00 13.96 C 7.89 g/m*3 13.96 C 0 km/h
1025 14-11-2010 20:00:00 14.02 C 7.68 g/m*3 14.02 C 0 km/h
Sensor: Nr:Datum:Temp:Abs-Feuchte:Windchill:Wind:
Aussen-T/F 1026 14-11-2010 21:00:00 13.92 C 7.27 g/m*3 13.92 C 0 km/h
1027 14-11-2010 22:00:00 13.78 C 7.09 g/m*3 13.78 C 0 km/h
1028 14-11-2010 23:00:00 13.42 C 6.94 g/m*3 13.42 C 0 km/h
1029 15-11-2010 00:00:00 12.88 C 6.98 g/m*3 12.88 C 0 km/h
1030 15-11-2010 01:00:00 12.22 C 6.91 g/m*3 12.22 C 0 km/h
1031 15-11-2010 02:00:00 11.78 C 6.92 g/m*3 11.78 C 0 km/h
1032 15-11-2010 03:00:00 10.9 C 7.02 g/m*3 10.9 C 0 km/h
1033 15-11-2010 04:00:00 10.24 C 6.95 g/m*3 10.24 C 0 km/h
1034 15-11-2010 05:00:00 9.92 C 6.53 g/m*3 9.92 C 0 km/h
1035 15-11-2010 06:00:00 9.34 C 6.27 g/m*3 9.34 C 0 km/h
1036 15-11-2010 07:00:00 8.96 C 6.42 g/m*3 8.96 C 0 km/h
1037 15-11-2010 08:00:00 9.1 C 6.28 g/m*3 9.1 C 0 km/h
1038 15-11-2010 09:00:00 9.16 C 6.07 g/m*3 9.16 C 0 km/h
1039 15-11-2010 10:00:00 9.82 C 5.87 g/m*3 9.82 C 0 km/h
1040 15-11-2010 11:00:00 10.3 C 5.75 g/m*3 10.3 C 0 km/h
1041 15-11-2010 12:00:00 10.84 C 5.57 g/m*3 10.84 C 0 km/h
1042 15-11-2010 13:00:00 10.48 C 5.62 g/m*3 10.48 C 0 km/h
1043 15-11-2010 14:00:00 10.24 C 5.5 g/m*3 10.24 C 0 km/h
1044 15-11-2010 15:00:00 9.68 C 5.54 g/m*3 9.68 C 0 km/h
1045 15-11-2010 16:00:00 8.96 C 5.7 g/m*3 8.96 C 0 km/h
1046 15-11-2010 17:00:00 8.16 C 5.81 g/m*3 8.16 C 0 km/h
1047 15-11-2010 18:00:00 8.14 C 5.89 g/m*3 8.14 C 0 km/h
1048 15-11-2010 19:00:00 7.98 C 5.88 g/m*3 7.98 C 0 km/h
1049 15-11-2010 20:00:00 7.6 C 5.95 g/m*3 7.6 C 0 km/h
1050 15-11-2010 21:00:00 7.16 C 5.93 g/m*3 7.16 C 0 km/h
Sensor: Nr:Datum:Temp:Abs-Feuchte:Windchill:Wind:
Aussen-T/F 1051 15-11-2010 22:00:00 6.94 C 5.97 g/m*3 6.94 C 0 km/h
1052 15-11-2010 23:00:00 6.68 C 5.99 g/m*3 6.68 C 0 km/h
1053 16-11-2010 00:00:00 5.88 C 5.95 g/m*3 5.88 C 0 km/h
1054 16-11-2010 01:00:00 5.2 C 5.87 g/m*3 5.2 C 0 km/h
1055 16-11-2010 02:00:00 5.48 C 6.1 g/m*3 5.48 C 0 km/h
1056 16-11-2010 03:00:00 5.86 C 6.21 g/m*3 5.86 C 0 km/h
1057 16-11-2010 04:00:00 5.22 C 5.97 g/m*3 5.22 C 0 km/h
1058 16-11-2010 05:00:00 5.5 C 6.07 g/m*3 5.5 C 0 km/h
1059 16-11-2010 06:00:00 5.22 C 5.83 g/m*3 5.22 C 0 km/h
1060 16-11-2010 07:00:00 5.18 C 5.79 g/m*3 5.18 C 0 km/h
1061 16-11-2010 08:00:00 5.42 C 5.83 g/m*3 5.42 C 0 km/h
1062 16-11-2010 09:00:00 5.88 C 5.82 g/m*3 5.88 C 0 km/h
1063 16-11-2010 10:00:00 6.26 C 5.74 g/m*3 6.26 C 0 km/h
1064 16-11-2010 11:00:00 6.56 C 5.65 g/m*3 6.56 C 0 km/h
1065 16-11-2010 12:00:00 7.34 C 5.53 g/m*3 7.34 C 0 km/h
1066 16-11-2010 13:00:00 7.54 C 5.59 g/m*3 7.54 C 0 km/h
1067 16-11-2010 14:00:00 7.68 C 5.52 g/m*3 7.68 C 0 km/h
1068 16-11-2010 15:00:00 7.24 C 5.51 g/m*3 7.24 C 0 km/h
1069 16-11-2010 16:00:00 7.08 C 5.53 g/m*3 7.08 C 0 km/h
1070 16-11-2010 17:00:00 6.8 C 5.64 g/m*3 6.8 C 0 km/h
1071 16-11-2010 18:00:00 6.22 C 5.67 g/m*3 6.22 C 0 km/h
1072 16-11-2010 19:00:00 5.92 C 5.75 g/m*3 5.92 C 0 km/h
1073 16-11-2010 20:00:00 5.56 C 5.71 g/m*3 5.56 C 0 km/h
1074 16-11-2010 21:00:00 5.42 C 5.66 g/m*3 5.42 C 0 km/h
1075 16-11-2010 22:00:00 5.24 C 5.61 g/m*3 5.24 C 0 km/h
Sensor: Nr:Datum:Temp:Abs-Feuchte:Windchill:Wind:
Aussen-T/F 1076 16-11-2010 23:00:00 4.6 C 5.58 g/m*3 4.6 C 0 km/h
1077 17-11-2010 00:00:00 4.78 C 5.72 g/m*3 4.78 C 0 km/h
1078 17-11-2010 01:00:00 5.08 C 5.62 g/m*3 5.08 C 0 km/h
1079 17-11-2010 02:00:00 5 C 5.59 g/m*3 5 C 0 km/h
1080 17-11-2010 03:00:00 4.92 C 5.66 g/m*3 4.92 C 0 km/h
1081 17-11-2010 04:00:00 4.8 C 5.65 g/m*3 4.8 C 0 km/h
1082 17-11-2010 05:00:00 4.74 C 5.72 g/m*3 4.74 C 0 km/h
1083 17-11-2010 06:00:00 4.7 C 5.73 g/m*3 4.7 C 0 km/h
1084 17-11-2010 07:00:00 4.72 C 5.67 g/m*3 4.72 C 0 km/h
1085 17-11-2010 08:00:00 5.1 C 4.98 g/m*3 5.1 C 0 km/h
1086 17-11-2010 09:00:00 5.56 C 4.64 g/m*3 5.56 C 0 km/h
1087 17-11-2010 10:00:00 5.78 C 4.66 g/m*3 5.78 C 0 km/h
1088 17-11-2010 11:00:00 6.04 C 4.6 g/m*3 6.04 C 0 km/h
1089 17-11-2010 12:00:00 6.28 C 4.6 g/m*3 6.28 C 0 km/h
1090 17-11-2010 13:00:00 6.54 C 4.63 g/m*3 6.54 C 0 km/h
1091 17-11-2010 14:00:00 6.18 C 4.55 g/m*3 6.18 C 0 km/h
1092 17-11-2010 15:00:00 5.86 C 4.67 g/m*3 5.86 C 0 km/h
1093 17-11-2010 16:00:00 5.54 C 4.8 g/m*3 5.54 C 0 km/h
1094 17-11-2010 17:00:00 5.26 C 4.91 g/m*3 5.26 C 0 km/h
1095 17-11-2010 18:00:00 5.2 C 4.97 g/m*3 5.2 C 0 km/h
1096 17-11-2010 19:00:00 5.3 C 4.99 g/m*3 5.3 C 0 km/h
1097 17-11-2010 20:00:00 5.3 C 5.12 g/m*3 5.3 C 0 km/h
1098 17-11-2010 21:00:00 5.26 C 5.21 g/m*3 5.26 C 0 km/h
1099 17-11-2010 22:00:00 5.04 C 5.34 g/m*3 5.04 C 0 km/h
1100 17-11-2010 23:00:00 4.52 C 5.58 g/m*3 4.52 C 0 km/h
Sensor: Nr:Datum:Temp:Abs-Feuchte:Windchill:Wind:
Aussen-T/F 1101 18-11-2010 00:00:00 4.56 C 5.74 g/m*3 4.56 C 0 km/h
1102 18-11-2010 01:00:00 4.28 C 5.71 g/m*3 4.28 C 0 km/h
1103 18-11-2010 02:00:00 4.28 C 5.77 g/m*3 4.28 C 0 km/h
1104 18-11-2010 03:00:00 4.06 C 5.75 g/m*3 4.06 C 0 km/h
1105 18-11-2010 04:00:00 4.28 C 5.88 g/m*3 4.28 C 0 km/h
1106 18-11-2010 05:00:00 4.28 C 5.89 g/m*3 4.28 C 0 km/h
1107 18-11-2010 06:00:00 3.92 C 5.81 g/m*3 3.92 C 0 km/h
1108 18-11-2010 07:00:00 3.98 C 5.84 g/m*3 3.98 C 0 km/h
1109 18-11-2010 08:00:00 4.22 C 5.94 g/m*3 4.22 C 0 km/h
1110 18-11-2010 09:00:00 4.94 C 6.2 g/m*3 4.94 C 0 km/h
1111 18-11-2010 10:00:00 5.96 C 6.24 g/m*3 5.96 C 0 km/h
1112 18-11-2010 11:00:00 6.9 C 6.02 g/m*3 6.9 C 0 km/h
1113 18-11-2010 12:00:00 7.54 C 5.92 g/m*3 7.54 C 0 km/h
1114 18-11-2010 13:00:00 8.36 C 5.7 g/m*3 8.36 C 0 km/h
1115 18-11-2010 14:00:00 8.14 C 5.32 g/m*3 8.14 C 0 km/h
1116 18-11-2010 15:00:00 7.76 C 5.39 g/m*3 7.76 C 0 km/h
1117 18-11-2010 16:00:00 6.9 C 5.77 g/m*3 6.9 C 0 km/h
1118 18-11-2010 17:00:00 6.12 C 5.87 g/m*3 6.12 C 0 km/h
1119 18-11-2010 18:00:00 6.2 C 6.02 g/m*3 6.2 C 0 km/h
1120 18-11-2010 19:00:00 5.94 C 6.01 g/m*3 5.94 C 0 km/h
1121 18-11-2010 20:00:00 5.58 C 6.23 g/m*3 5.58 C 0 km/h
1122 18-11-2010 21:00:00 5.52 C 6.27 g/m*3 5.52 C 0 km/h
1123 18-11-2010 22:00:00 5.5 C 6.32 g/m*3 5.5 C 0 km/h
1124 18-11-2010 23:00:00 5.64 C 6.42 g/m*3 5.64 C 0 km/h
1125 19-11-2010 00:00:00 5.66 C 6.26 g/m*3 5.66 C 0 km/h
Sensor: Nr:Datum:Temp:Abs-Feuchte:Windchill:Wind:
Aussen-T/F 1126 19-11-2010 01:00:00 5.58 C 6.11 g/m*3 5.58 C 0 km/h
1127 19-11-2010 02:00:00 5.34 C 6.17 g/m*3 5.34 C 0 km/h
1128 19-11-2010 03:00:00 5.12 C 6.08 g/m*3 5.12 C 0 km/h
1129 19-11-2010 04:00:00 5.04 C 6.05 g/m*3 5.04 C 0 km/h
1130 19-11-2010 05:00:00 4.94 C 6.04 g/m*3 4.94 C 0 km/h
1131 19-11-2010 06:00:00 4.9 C 6.02 g/m*3 4.9 C 0 km/h
1132 19-11-2010 07:00:00 5.14 C 6.1 g/m*3 5.14 C 0 km/h
1133 19-11-2010 08:00:00 5.44 C 6.23 g/m*3 5.44 C 0 km/h
1134 19-11-2010 09:00:00 6.32 C 6.26 g/m*3 6.32 C 0 km/h
1135 19-11-2010 10:00:00 7.62 C 6.28 g/m*3 7.62 C 0 km/h
1136 19-11-2010 11:00:00 8.84 C 6.06 g/m*3 8.84 C 0 km/h
1137 19-11-2010 12:00:00 9.52 C 5.85 g/m*3 9.52 C 0 km/h
1138 19-11-2010 13:00:00 9.74 C 5.82 g/m*3 9.74 C 0 km/h
1139 19-11-2010 14:00:00 9.94 C 5.69 g/m*3 9.94 C 0 km/h
1140 19-11-2010 15:00:00 8.5 C 5.93 g/m*3 8.5 C 0 km/h
1141 19-11-2010 16:00:00 7.04 C 6.23 g/m*3 7.04 C 0 km/h
1142 19-11-2010 17:00:00 7.58 C 6.31 g/m*3 7.58 C 0 km/h
1143 19-11-2010 18:00:00 7.62 C 6.32 g/m*3 7.62 C 0 km/h
1144 19-11-2010 19:00:00 6.96 C 6.23 g/m*3 6.96 C 0 km/h
1145 19-11-2010 20:00:00 5.1 C 5.91 g/m*3 5.1 C 0 km/h
1146 19-11-2010 21:00:00 3.86 C 5.62 g/m*3 3.86 C 0 km/h
1147 19-11-2010 22:00:00 3.92 C 5.74 g/m*3 3.92 C 0 km/h
1148 19-11-2010 23:00:00 4.54 C 6.02 g/m*3 4.54 C 0 km/h
1149 20-11-2010 00:00:00 4.04 C 5.86 g/m*3 4.04 C 0 km/h
1150 20-11-2010 01:00:00 4.18 C 5.92 g/m*3 4.18 C 0 km/h
Sensor: Nr:Datum:Temp:Abs-Feuchte:Windchill:Wind:
Aussen-T/F 1151 20-11-2010 02:00:00 1.94 C 5.11 g/m*3 1.94 C 0 km/h
1152 20-11-2010 03:00:00 1.34 C 4.91 g/m*3 1.34 C 0 km/h
1153 20-11-2010 04:00:00 2.64 C 5.37 g/m*3 2.64 C 0 km/h
1154 20-11-2010 05:00:00 3.34 C 5.65 g/m*3 3.34 C 0 km/h
1155 20-11-2010 06:00:00 3.76 C 5.82 g/m*3 3.76 C 0 km/h
1156 20-11-2010 07:00:00 4.06 C 5.94 g/m*3 4.06 C 0 km/h
1157 20-11-2010 08:00:00 4.4 C 6.07 g/m*3 4.4 C 0 km/h
1158 20-11-2010 09:00:00 5.04 C 6.32 g/m*3 5.04 C 0 km/h
1159 20-11-2010 10:00:00 6.02 C 6.63 g/m*3 6.02 C 0 km/h
1160 20-11-2010 11:00:00 7.46 C 6.75 g/m*3 7.46 C 0 km/h
1161 20-11-2010 12:00:00 9.1 C 6.67 g/m*3 9.1 C 0 km/h
1162 20-11-2010 13:00:00 8.88 C 6.37 g/m*3 8.88 C 0 km/h
1163 20-11-2010 14:00:00 8.78 C 6.29 g/m*3 8.78 C 0 km/h
1164 20-11-2010 15:00:00 7.76 C 6.19 g/m*3 7.76 C 0 km/h
1165 20-11-2010 16:00:00 5.34 C 5.87 g/m*3 5.34 C 0 km/h
1166 20-11-2010 17:00:00 4.6 C 5.9 g/m*3 4.6 C 0 km/h
1167 20-11-2010 18:00:00 4.4 C 5.9 g/m*3 4.4 C 0 km/h
1168 20-11-2010 19:00:00 3.92 C 5.75 g/m*3 3.92 C 0 km/h
1169 20-11-2010 20:00:00 3.28 C 5.55 g/m*3 3.28 C 0 km/h
1170 20-11-2010 21:00:00 3.26 C 5.57 g/m*3 3.26 C 0 km/h
1171 20-11-2010 22:00:00 4.32 C 5.98 g/m*3 4.32 C 0 km/h
1172 20-11-2010 23:00:00 4.12 C 5.92 g/m*3 4.12 C 0 km/h
1173 21-11-2010 00:00:00 4.32 C 5.96 g/m*3 4.32 C 0 km/h
1174 21-11-2010 01:00:00 4.48 C 5.75 g/m*3 4.48 C 0 km/h
1175 21-11-2010 02:00:00 4.44 C 5.43 g/m*3 4.44 C 0 km/h
Sensor: Nr:Datum:Temp:Abs-Feuchte:Windchill:Wind:
Aussen-T/F 1176 21-11-2010 03:00:00 4.5 C 5.28 g/m*3 4.5 C 0 km/h
1177 21-11-2010 04:00:00 4.56 C 5.06 g/m*3 4.56 C 0 km/h
1178 21-11-2010 05:00:00 4.5 C 4.94 g/m*3 4.5 C 0 km/h
1179 21-11-2010 06:00:00 4.4 C 4.92 g/m*3 4.4 C 0 km/h
1180 21-11-2010 07:00:00 4.38 C 5.05 g/m*3 4.38 C 0 km/h
1181 21-11-2010 08:00:00 4.7 C 5.14 g/m*3 4.7 C 0 km/h
1182 21-11-2010 09:00:00 5 C 4.92 g/m*3 5 C 0 km/h
1183 21-11-2010 10:00:00 5.36 C 4.82 g/m*3 5.36 C 0 km/h
1184 21-11-2010 11:00:00 5.3 C 4.63 g/m*3 5.3 C 0 km/h
1185 21-11-2010 12:00:00 5.1 C 4.53 g/m*3 5.1 C 0 km/h
1186 21-11-2010 13:00:00 5.12 C 4.45 g/m*3 5.12 C 0 km/h
1187 21-11-2010 14:00:00 4.88 C 4.42 g/m*3 4.88 C 0 km/h
1188 21-11-2010 15:00:00 4.44 C 4.28 g/m*3 4.44 C 0 km/h
1189 21-11-2010 16:00:00 4.16 C 4.38 g/m*3 4.16 C 0 km/h
1190 21-11-2010 17:00:00 3.96 C 4.5 g/m*3 3.96 C 0 km/h
1191 21-11-2010 18:00:00 3.96 C 4.57 g/m*3 3.96 C 0 km/h
1192 21-11-2010 19:00:00 4.06 C 4.61 g/m*3 4.06 C 0 km/h
1193 21-11-2010 20:00:00 4.3 C 4.55 g/m*3 4.3 C 0 km/h
1194 21-11-2010 21:00:00 4.16 C 4.5 g/m*3 4.16 C 0 km/h
1195 21-11-2010 22:00:00 3.76 C 4.66 g/m*3 3.76 C 0 km/h
1196 21-11-2010 23:00:00 3.76 C 4.81 g/m*3 3.76 C 0 km/h
1197 22-11-2010 00:00:00 4.06 C 4.93 g/m*3 4.06 C 0 km/h
1198 22-11-2010 01:00:00 4.08 C 4.92 g/m*3 4.08 C 0 km/h
1199 22-11-2010 02:00:00 4.16 C 4.97 g/m*3 4.16 C 0 km/h
1200 22-11-2010 03:00:00 4.46 C 5.06 g/m*3 4.46 C 0 km/h
Sensor: Nr:Datum:Temp:Abs-Feuchte:Windchill:Wind:
Aussen-T/F 1201 22-11-2010 04:00:00 4.86 C 5.01 g/m*3 4.86 C 0 km/h
1202 22-11-2010 05:00:00 4.88 C 4.95 g/m*3 4.88 C 0 km/h
1203 22-11-2010 06:00:00 4.7 C 4.86 g/m*3 4.7 C 0 km/h
1204 22-11-2010 07:00:00 4.64 C 4.79 g/m*3 4.64 C 0 km/h
1205 22-11-2010 08:00:00 4.64 C 4.8 g/m*3 4.64 C 0 km/h
1206 22-11-2010 09:00:00 4.74 C 4.81 g/m*3 4.74 C 0 km/h
1207 22-11-2010 10:00:00 4.82 C 4.86 g/m*3 4.82 C 0 km/h
1208 22-11-2010 11:00:00 4.48 C 4.95 g/m*3 4.48 C 0 km/h
1209 22-11-2010 12:00:00 4.2 C 5.21 g/m*3 4.2 C 0 km/h
1210 22-11-2010 13:00:00 4.24 C 5.38 g/m*3 4.24 C 0 km/h
1211 22-11-2010 14:00:00 4.78 C 5.25 g/m*3 4.78 C 0 km/h
1212 22-11-2010 15:00:00 4.9 C 5.02 g/m*3 4.9 C 0 km/h
1213 22-11-2010 16:00:00 4.32 C 4.91 g/m*3 4.32 C 0 km/h
1214 22-11-2010 17:00:00 4.04 C 4.99 g/m*3 4.04 C 0 km/h
1215 22-11-2010 18:00:00 4.28 C 4.95 g/m*3 4.28 C 0 km/h
1216 22-11-2010 19:00:00 4.38 C 4.88 g/m*3 4.38 C 0 km/h
1217 22-11-2010 20:00:00 4.42 C 4.8 g/m*3 4.42 C 0 km/h
1218 22-11-2010 21:00:00 4.4 C 4.82 g/m*3 4.4 C 0 km/h
1219 22-11-2010 22:00:00 4.5 C 4.89 g/m*3 4.5 C 0 km/h
1220 22-11-2010 23:00:00 4.4 C 4.94 g/m*3 4.4 C 0 km/h
1221 23-11-2010 00:00:00 4.44 C 4.94 g/m*3 4.44 C 0 km/h
1222 23-11-2010 01:00:00 4.46 C 4.85 g/m*3 4.46 C 0 km/h
1223 23-11-2010 02:00:00 4.26 C 4.62 g/m*3 4.26 C 0 km/h
1224 23-11-2010 03:00:00 4.08 C 4.42 g/m*3 4.08 C 0 km/h
1225 23-11-2010 04:00:00 3.68 C 4.52 g/m*3 3.68 C 0 km/h
Sensor: Nr:Datum:Temp:Abs-Feuchte:Windchill:Wind:
Aussen-T/F 1226 23-11-2010 05:00:00 3.2 C 4.65 g/m*3 3.2 C 0 km/h
1227 23-11-2010 06:00:00 2.66 C 5.01 g/m*3 2.66 C 0 km/h
1228 23-11-2010 07:00:00 2.96 C 5.08 g/m*3 2.96 C 0 km/h
1229 23-11-2010 08:00:00 3.18 C 4.89 g/m*3 3.18 C 0 km/h
1230 23-11-2010 09:00:00 3.68 C 4.75 g/m*3 3.68 C 0 km/h
1231 23-11-2010 10:00:00 4.26 C 4.58 g/m*3 4.26 C 0 km/h
1232 23-11-2010 11:00:00 4.72 C 4.66 g/m*3 4.72 C 0 km/h
1233 23-11-2010 12:00:00 5.28 C 4.47 g/m*3 5.28 C 0 km/h
1234 23-11-2010 13:00:00 6.04 C 4.37 g/m*3 6.04 C 0 km/h
1235 23-11-2010 14:00:00 5.74 C 4.25 g/m*3 5.74 C 0 km/h
1236 23-11-2010 15:00:00 5.54 C 4.25 g/m*3 5.54 C 0 km/h
1237 23-11-2010 16:00:00 5.38 C 4.47 g/m*3 5.38 C 0 km/h
1238 23-11-2010 17:00:00 5.32 C 4.46 g/m*3 5.32 C 0 km/h
1239 23-11-2010 18:00:00 5.28 C 4.42 g/m*3 5.28 C 0 km/h
1240 23-11-2010 19:00:00 5.2 C 4.5 g/m*3 5.2 C 0 km/h
1241 23-11-2010 20:00:00 5.14 C 4.46 g/m*3 5.14 C 0 km/h
1242 23-11-2010 21:00:00 4.98 C 4.33 g/m*3 4.98 C 0 km/h
1243 23-11-2010 22:00:00 4.95 C 4.33 g/m*3 4.95 C 0 km/h
1244 23-11-2010 23:00:00 4.64 C 4.39 g/m*3 4.64 C 0 km/h
1245 24-11-2010 00:00:00 4.32 C 4.44 g/m*3 4.32 C 0 km/h
1246 24-11-2010 01:00:00 3.96 C 4.46 g/m*3 3.96 C 0 km/h
1247 24-11-2010 02:00:00 3.42 C 4.5 g/m*3 3.42 C 0 km/h
1248 24-11-2010 03:00:00 3.52 C 4.62 g/m*3 3.52 C 0 km/h
1249 24-11-2010 04:00:00 3.46 C 4.72 g/m*3 3.46 C 0 km/h
1250 24-11-2010 05:00:00 2.92 C 5 g/m*3 2.92 C 0 km/h
Sensor: Nr:Datum:Temp:Abs-Feuchte:Windchill:Wind:
Aussen-T/F 1251 24-11-2010 06:00:00 3.2 C 5.07 g/m*3 3.2 C 0 km/h
1252 24-11-2010 07:00:00 3.34 C 5.01 g/m*3 3.34 C 0 km/h
1253 24-11-2010 08:00:00 3.42 C 5.08 g/m*3 3.42 C 0 km/h
1254 24-11-2010 09:00:00 4.22 C 4.99 g/m*3 4.22 C 0 km/h
1255 24-11-2010 10:00:00 5.22 C 4.7 g/m*3 5.22 C 0 km/h
1256 24-11-2010 11:00:00 5.22 C 4.78 g/m*3 5.22 C 0 km/h
1257 24-11-2010 12:00:00 5.8 C 4.57 g/m*3 5.8 C 0 km/h
1258 24-11-2010 13:00:00 5.36 C 4.61 g/m*3 5.36 C 0 km/h
1259 24-11-2010 14:00:00 4.48 C 5.08 g/m*3 4.48 C 0 km/h
1260 24-11-2010 15:00:00 3.48 C 5.24 g/m*3 3.48 C 0 km/h
1261 24-11-2010 16:00:00 3.3 C 5.22 g/m*3 3.3 C 0 km/h
1262 24-11-2010 17:00:00 2.28 C 4.88 g/m*3 2.28 C 0 km/h
1263 24-11-2010 18:00:00 1.64 C 4.9 g/m*3 1.64 C 0 km/h
1264 24-11-2010 19:00:00 2.02 C 5.09 g/m*3 2.02 C 0 km/h
1265 24-11-2010 20:00:00 1.42 C 4.91 g/m*3 1.42 C 0 km/h
1266 24-11-2010 21:00:00 1.42 C 4.91 g/m*3 1.42 C 0 km/h
1267 24-11-2010 22:00:00 2.14 C 5.13 g/m*3 2.14 C 0 km/h
1268 24-11-2010 23:00:00 2.4 C 5.06 g/m*3 2.4 C 0 km/h
1269 25-11-2010 00:00:00 2.5 C 4.93 g/m*3 2.5 C 0 km/h
1270 25-11-2010 01:00:00 2.94 C 4.82 g/m*3 2.94 C 0 km/h
1271 25-11-2010 02:00:00 2.76 C 4.55 g/m*3 2.76 C 0 km/h
1272 25-11-2010 03:00:00 2.82 C 4.43 g/m*3 2.82 C 0 km/h
1273 25-11-2010 04:00:00 2.02 C 4.2 g/m*3 2.02 C 0 km/h
1274 25-11-2010 05:00:00 1.3 C 4.08 g/m*3 1.3 C 0 km/h
1275 25-11-2010 06:00:00 0.66 C 4.12 g/m*3 0.66 C 0 km/h
Sensor: Nr:Datum:Temp:Abs-Feuchte:Windchill:Wind:
Aussen-T/F 1276 25-11-2010 07:00:00 0.06 C 4.24 g/m*3 0.06 C 0 km/h
1277 25-11-2010 08:00:00 -0.28 C 4.23 g/m*3 -0.28 C 0 km/h
1278 25-11-2010 09:00:00 0.58 C 4.45 g/m*3 0.58 C 0 km/h
1279 25-11-2010 10:00:00 0.8 C 4.42 g/m*3 0.8 C 0 km/h
1280 25-11-2010 11:00:00 1.76 C 4.53 g/m*3 1.76 C 0 km/h
1281 25-11-2010 12:00:00 2 C 4.51 g/m*3 2 C 0 km/h
1282 25-11-2010 13:00:00 3.48 C 4.22 g/m*3 3.48 C 0 km/h
1283 25-11-2010 14:00:00 3.66 C 4.03 g/m*3 3.66 C 0 km/h
1284 25-11-2010 15:00:00 3.28 C 3.96 g/m*3 3.28 C 0 km/h
1285 25-11-2010 16:00:00 2.04 C 4.21 g/m*3 2.04 C 0 km/h
1286 25-11-2010 17:00:00 2.04 C 4.35 g/m*3 2.04 C 0 km/h
1287 25-11-2010 18:00:00 1.74 C 4.42 g/m*3 1.74 C 0 km/h
1288 25-11-2010 19:00:00 0.98 C 4.38 g/m*3 0.98 C 0 km/h
1289 25-11-2010 20:00:00 0.7 C 4.4 g/m*3 0.7 C 0 km/h
1290 25-11-2010 21:00:00 1.24 C 4.5 g/m*3 1.24 C 0 km/h
1291 25-11-2010 22:00:00 1.34 C 4.49 g/m*3 1.34 C 0 km/h
1292 25-11-2010 23:00:00 1.36 C 4.52 g/m*3 1.36 C 0 km/h
1293 26-11-2010 00:00:00 1.4 C 4.51 g/m*3 1.4 C 0 km/h
1294 26-11-2010 01:00:00 1.06 C 4.49 g/m*3 1.06 C 0 km/h
1295 26-11-2010 02:00:00 1.06 C 4.47 g/m*3 1.06 C 0 km/h
1296 26-11-2010 03:00:00 0.74 C 4.37 g/m*3 0.74 C 0 km/h
1297 26-11-2010 04:00:00 0.32 C 4.4 g/m*3 0.32 C 0 km/h
1298 26-11-2010 05:00:00 0.26 C 4.47 g/m*3 0.26 C 0 km/h
1299 26-11-2010 06:00:00 0.22 C 4.49 g/m*3 0.22 C 0 km/h
1300 26-11-2010 07:00:00 0 C 4.46 g/m*3 0 C 0 km/h
Sensor: Nr:Datum:Temp:Abs-Feuchte:Windchill:Wind:
Aussen-T/F 1301 26-11-2010 08:00:00 0.04 C 4.49 g/m*3 0.04 C 0 km/h
1302 26-11-2010 09:00:00 0.14 C 4.55 g/m*3 0.14 C 0 km/h
1303 26-11-2010 10:00:00 0.58 C 4.66 g/m*3 0.58 C 0 km/h
1304 26-11-2010 11:00:00 1.12 C 4.61 g/m*3 1.12 C 0 km/h
1305 26-11-2010 12:00:00 0.84 C 4.41 g/m*3 0.84 C 0 km/h
1306 26-11-2010 13:00:00 0.9 C 4.37 g/m*3 0.9 C 0 km/h
1307 26-11-2010 14:00:00 1.6 C 4.17 g/m*3 1.6 C 0 km/h
1308 26-11-2010 15:00:00 0.8 C 3.8 g/m*3 0.8 C 0 km/h
1309 26-11-2010 16:00:00 -1.48 C 3.69 g/m*3 -1.48 C 0 km/h
1310 26-11-2010 17:00:00 -2.36 C 3.65 g/m*3 -2.36 C 0 km/h
1311 26-11-2010 18:00:00 -1.38 C 4 g/m*3 -1.38 C 0 km/h
1312 26-11-2010 19:00:00 -1.54 C 3.96 g/m*3 -1.54 C 0 km/h
1313 26-11-2010 20:00:00 -1.96 C 3.85 g/m*3 -1.96 C 0 km/h
1314 26-11-2010 21:00:00 -2.34 C 3.75 g/m*3 -2.34 C 0 km/h
1315 26-11-2010 22:00:00 -3.24 C 3.5 g/m*3 -3.24 C 0 km/h
1316 26-11-2010 23:00:00 -3.76 C 3.35 g/m*3 -3.76 C 0 km/h
1317 27-11-2010 00:00:00 -4.08 C 3.27 g/m*3 -4.08 C 0 km/h
1318 27-11-2010 01:00:00 -3.54 C 3.39 g/m*3 -3.54 C 0 km/h
1319 27-11-2010 02:00:00 -3.94 C 3.25 g/m*3 -3.94 C 0 km/h
1320 27-11-2010 03:00:00 -3.16 C 3.46 g/m*3 -3.16 C 0 km/h
1321 27-11-2010 04:00:00 -4.12 C 3.19 g/m*3 -4.12 C 0 km/h
1322 27-11-2010 05:00:00 -4.28 C 3.15 g/m*3 -4.28 C 0 km/h
1323 27-11-2010 06:00:00 -3.52 C 3.35 g/m*3 -3.52 C 0 km/h
1324 27-11-2010 07:00:00 -3.54 C 3.33 g/m*3 -3.54 C 0 km/h
1325 27-11-2010 08:00:00 -3 C 3.48 g/m*3 -3 C 0 km/h
Sensor: Nr:Datum:Temp:Abs-Feuchte:Windchill:Wind:
Aussen-T/F 1326 27-11-2010 09:00:00 -1.8 C 3.8 g/m*3 -1.8 C 0 km/h
1327 27-11-2010 10:00:00 -0.84 C 4.06 g/m*3 -0.84 C 0 km/h
1328 27-11-2010 11:00:00 -0.2 C 4.19 g/m*3 -0.2 C 0 km/h
1329 27-11-2010 12:00:00 0.38 C 4 g/m*3 0.38 C 0 km/h
1330 27-11-2010 13:00:00 0.86 C 3.91 g/m*3 0.86 C 0 km/h
1331 27-11-2010 14:00:00 1.48 C 3.79 g/m*3 1.48 C 0 km/h
1332 27-11-2010 15:00:00 0.76 C 3.8 g/m*3 0.76 C 0 km/h
1333 27-11-2010 16:00:00 -0.72 C 3.59 g/m*3 -0.72 C 0 km/h
1334 27-11-2010 17:00:00 -0.86 C 3.65 g/m*3 -0.86 C 0 km/h
1335 27-11-2010 18:00:00 -1.58 C 3.59 g/m*3 -1.58 C 0 km/h
1336 27-11-2010 19:00:00 -0.92 C 3.75 g/m*3 -0.92 C 0 km/h
1337 27-11-2010 20:00:00 -1.5 C 3.52 g/m*3 -1.5 C 0 km/h
1338 27-11-2010 21:00:00 -3.1 C 3.27 g/m*3 -3.1 C 0 km/h
1339 27-11-2010 22:00:00 -3.36 C 3.3 g/m*3 -3.36 C 0 km/h
1340 27-11-2010 23:00:00 -3.22 C 3.31 g/m*3 -3.22 C 0 km/h
1341 28-11-2010 00:00:00 -3.76 C 3.2 g/m*3 -3.76 C 0 km/h
1342 28-11-2010 01:00:00 -2.76 C 3.5 g/m*3 -2.76 C 0 km/h
1343 28-11-2010 02:00:00 -2.18 C 3.6 g/m*3 -2.18 C 0 km/h
1344 28-11-2010 03:00:00 -3.4 C 3.22 g/m*3 -3.4 C 0 km/h
1345 28-11-2010 04:00:00 -2.64 C 3.47 g/m*3 -2.64 C 0 km/h
1346 28-11-2010 05:00:00 -2.72 C 3.42 g/m*3 -2.72 C 0 km/h
1347 28-11-2010 06:00:00 -2.18 C 3.56 g/m*3 -2.18 C 0 km/h
1348 28-11-2010 07:00:00 -1.88 C 3.58 g/m*3 -1.88 C 0 km/h
1349 28-11-2010 08:00:00 -1.66 C 3.6 g/m*3 -1.66 C 0 km/h
1350 28-11-2010 09:00:00 -1.18 C 3.62 g/m*3 -1.18 C 0 km/h
Sensor: Nr:Datum:Temp:Abs-Feuchte:Windchill:Wind:
Aussen-T/F 1351 28-11-2010 10:00:00 -0.38 C 3.63 g/m*3 -0.38 C 0 km/h
1352 28-11-2010 11:00:00 -0.18 C 3.55 g/m*3 -0.18 C 0 km/h
1353 28-11-2010 12:00:00 0.02 C 3.59 g/m*3 0.02 C 0 km/h
1354 28-11-2010 13:00:00 0.14 C 3.63 g/m*3 0.14 C 0 km/h
1355 28-11-2010 14:00:00 0.5 C 3.69 g/m*3 0.5 C 0 km/h
1356 28-11-2010 15:00:00 0.54 C 3.71 g/m*3 0.54 C 0 km/h
1357 28-11-2010 16:00:00 -0.34 C 3.68 g/m*3 -0.34 C 0 km/h
1358 28-11-2010 17:00:00 -0.64 C 3.67 g/m*3 -0.64 C 0 km/h
1359 28-11-2010 18:00:00 -1.1 C 3.71 g/m*3 -1.1 C 0 km/h
1360 28-11-2010 19:00:00 -0.7 C 3.7 g/m*3 -0.7 C 0 km/h
1361 28-11-2010 20:00:00 -0.8 C 3.55 g/m*3 -0.8 C 0 km/h
1362 28-11-2010 21:00:00 -0.86 C 3.46 g/m*3 -0.86 C 0 km/h
1363 28-11-2010 22:00:00 -1.6 C 3.36 g/m*3 -1.6 C 0 km/h
1364 28-11-2010 23:00:00 -2.04 C 3.42 g/m*3 -2.04 C 0 km/h
1365 29-11-2010 00:00:00 -1.48 C 3.37 g/m*3 -1.48 C 0 km/h
1366 29-11-2010 01:00:00 -1.8 C 3.31 g/m*3 -1.8 C 0 km/h
1367 29-11-2010 02:00:00 -1.88 C 3.26 g/m*3 -1.88 C 0 km/h
1368 29-11-2010 03:00:00 -2 C 3.21 g/m*3 -2 C 0 km/h
1369 29-11-2010 04:00:00 -2 C 3.22 g/m*3 -2 C 0 km/h
1370 29-11-2010 05:00:00 -1.82 C 3.27 g/m*3 -1.82 C 0 km/h
1371 29-11-2010 06:00:00 -1.68 C 3.31 g/m*3 -1.68 C 0 km/h
1372 29-11-2010 07:00:00 -1.66 C 3.29 g/m*3 -1.66 C 0 km/h
1373 29-11-2010 08:00:00 -1.6 C 3.33 g/m*3 -1.6 C 0 km/h
1374 29-11-2010 09:00:00 -1.38 C 3.3 g/m*3 -1.38 C 0 km/h
1375 29-11-2010 10:00:00 -1.3 C 3.37 g/m*3 -1.3 C 0 km/h
Sensor: Nr:Datum:Temp:Abs-Feuchte:Windchill:Wind:
Aussen-T/F 1376 29-11-2010 11:00:00 -1.22 C 3.45 g/m*3 -1.22 C 0 km/h
1377 29-11-2010 12:00:00 -1.14 C 3.52 g/m*3 -1.14 C 0 km/h
1378 29-11-2010 13:00:00 -0.84 C 3.57 g/m*3 -0.84 C 0 km/h
1379 29-11-2010 14:00:00 -1.02 C 3.67 g/m*3 -1.02 C 0 km/h
1380 29-11-2010 15:00:00 -1.3 C 3.72 g/m*3 -1.3 C 0 km/h
1381 29-11-2010 16:00:00 -1.46 C 3.73 g/m*3 -1.46 C 0 km/h
1382 29-11-2010 17:00:00 -1.68 C 3.71 g/m*3 -1.68 C 0 km/h
1383 29-11-2010 18:00:00 -1.68 C 3.75 g/m*3 -1.68 C 0 km/h
1384 29-11-2010 19:00:00 -1.7 C 3.75 g/m*3 -1.7 C 0 km/h
1385 29-11-2010 20:00:00 -1.64 C 3.8 g/m*3 -1.64 C 0 km/h
1386 29-11-2010 21:00:00 -1.66 C 3.8 g/m*3 -1.66 C 0 km/h
1387 29-11-2010 22:00:00 -1.78 C 3.77 g/m*3 -1.78 C 0 km/h
1388 29-11-2010 23:00:00 -1.68 C 3.83 g/m*3 -1.68 C 0 km/h
1389 30-11-2010 00:00:00 -1.78 C 3.81 g/m*3 -1.78 C 0 km/h
1390 30-11-2010 01:00:00 -1.96 C 3.76 g/m*3 -1.96 C 0 km/h
1391 30-11-2010 02:00:00 -1.68 C 3.84 g/m*3 -1.68 C 0 km/h
1392 30-11-2010 03:00:00 -1.7 C 3.82 g/m*3 -1.7 C 0 km/h
1393 30-11-2010 04:00:00 -2.36 C 3.62 g/m*3 -2.36 C 0 km/h
1394 30-11-2010 05:00:00 -2.4 C 3.62 g/m*3 -2.4 C 0 km/h
1395 30-11-2010 06:00:00 -2.26 C 3.66 g/m*3 -2.26 C 0 km/h
1396 30-11-2010 07:00:00 -2.28 C 3.66 g/m*3 -2.28 C 0 km/h
1397 30-11-2010 08:00:00 -2.08 C 3.66 g/m*3 -2.08 C 0 km/h
1398 30-11-2010 09:00:00 -2 C 3.58 g/m*3 -2 C 0 km/h
1399 30-11-2010 10:00:00 -1.82 C 3.51 g/m*3 -1.82 C 0 km/h
1400 30-11-2010 11:00:00 -1.5 C 3.44 g/m*3 -1.5 C 0 km/h
Sensor: Nr:Datum:Temp:Abs-Feuchte:Windchill:Wind:
Aussen-T/F 1401 30-11-2010 12:00:00 -1.3 C 3.28 g/m*3 -1.3 C 0 km/h
1402 30-11-2010 13:00:00 -1.08 C 3.25 g/m*3 -1.08 C 0 km/h
1403 30-11-2010 14:00:00 -1.32 C 3.2 g/m*3 -1.32 C 0 km/h
1404 30-11-2010 15:00:00 -1.48 C 3.23 g/m*3 -1.48 C 0 km/h
1405 30-11-2010 16:00:00 -1.5 C 3.23 g/m*3 -1.5 C 0 km/h
1406 30-11-2010 17:00:00 -1.92 C 3.21 g/m*3 -1.92 C 0 km/h
1407 30-11-2010 18:00:00 -2.1 C 3.18 g/m*3 -2.1 C 0 km/h
1408 30-11-2010 19:00:00 -2.1 C 3.17 g/m*3 -2.1 C 0 km/h
1409 30-11-2010 20:00:00 -2.26 C 3.11 g/m*3 -2.26 C 0 km/h
1410 30-11-2010 21:00:00 -2.4 C 3.05 g/m*3 -2.4 C 0 km/h
1411 30-11-2010 22:00:00 -2.58 C 2.94 g/m*3 -2.58 C 0 km/h
1412 30-11-2010 23:00:00 -2.76 C 2.83 g/m*3 -2.76 C 0 km/h
1413 01-12-2010 00:00:00 -3 C 2.76 g/m*3 -3 C 0 km/h
1414 01-12-2010 01:00:00 -3.3 C 2.67 g/m*3 -3.3 C 0 km/h
1415 01-12-2010 02:00:00 -3.88 C 2.51 g/m*3 -3.88 C 0 km/h
1416 01-12-2010 03:00:00 -4.34 C 2.36 g/m*3 -4.34 C 0 km/h
1417 01-12-2010 04:00:00 -5 C 2.23 g/m*3 -5 C 0 km/h
1418 01-12-2010 05:00:00 -5.4 C 2.18 g/m*3 -5.4 C 0 km/h
1419 01-12-2010 06:00:00 -5.56 C 2.14 g/m*3 -5.56 C 0 km/h
1420 01-12-2010 07:00:00 -5.9 C 2.05 g/m*3 -5.9 C 0 km/h
1421 01-12-2010 08:00:00 -6.26 C 1.95 g/m*3 -6.26 C 0 km/h
1422 01-12-2010 09:00:00 -5.96 C 1.92 g/m*3 -5.96 C 0 km/h
1423 01-12-2010 10:00:00 -5.54 C 1.95 g/m*3 -5.54 C 0 km/h
1424 01-12-2010 11:00:00 -5.48 C 1.97 g/m*3 -5.48 C 0 km/h
1425 01-12-2010 12:00:00 -5.82 C 1.93 g/m*3 -5.82 C 0 km/h
Sensor: Nr:Datum:Temp:Abs-Feuchte:Windchill:Wind:
Aussen-T/F 1426 01-12-2010 13:00:00 -6.1 C 1.85 g/m*3 -6.1 C 0 km/h
1427 01-12-2010 14:00:00 -6.18 C 1.79 g/m*3 -6.18 C 0 km/h
1428 01-12-2010 15:00:00 -6.28 C 1.78 g/m*3 -6.28 C 0 km/h
1429 01-12-2010 16:00:00 -6.58 C 1.75 g/m*3 -6.58 C 0 km/h
1430 01-12-2010 17:00:00 -6.58 C 1.8 g/m*3 -6.58 C 0 km/h
1431 01-12-2010 18:00:00 -6.54 C 1.82 g/m*3 -6.54 C 0 km/h
1432 01-12-2010 19:00:00 -6.58 C 1.81 g/m*3 -6.58 C 0 km/h
1433 01-12-2010 20:00:00 -6.64 C 1.77 g/m*3 -6.64 C 0 km/h
1434 01-12-2010 21:00:00 -6.74 C 1.74 g/m*3 -6.74 C 0 km/h
1435 01-12-2010 22:00:00 -6.86 C 1.73 g/m*3 -6.86 C 0 km/h
1436 01-12-2010 23:00:00 -7.06 C 1.77 g/m*3 -7.06 C 0 km/h
1437 02-12-2010 00:00:00 -7.14 C 1.81 g/m*3 -7.14 C 0 km/h
1438 02-12-2010 01:00:00 -7.12 C 1.79 g/m*3 -7.12 C 0 km/h
1439 02-12-2010 02:00:00 -7.28 C 1.71 g/m*3 -7.28 C 0 km/h
1440 02-12-2010 03:00:00 -7.32 C 1.74 g/m*3 -7.32 C 0 km/h
1441 02-12-2010 04:00:00 -7.5 C 1.78 g/m*3 -7.5 C 0 km/h
1442 02-12-2010 05:00:00 -7.64 C 1.79 g/m*3 -7.64 C 0 km/h
1443 02-12-2010 06:00:00 -7.76 C 1.84 g/m*3 -7.76 C 0 km/h
1444 02-12-2010 07:00:00 -7.72 C 1.89 g/m*3 -7.72 C 0 km/h
1445 02-12-2010 08:00:00 -7.7 C 1.87 g/m*3 -7.7 C 0 km/h
1446 02-12-2010 09:00:00 -7.1 C 1.96 g/m*3 -7.1 C 0 km/h
1447 02-12-2010 10:00:00 -6.14 C 1.99 g/m*3 -6.14 C 0 km/h
1448 02-12-2010 11:00:00 -5.62 C 2.03 g/m*3 -5.62 C 0 km/h
1449 02-12-2010 12:00:00 -6.08 C 2.05 g/m*3 -6.08 C 0 km/h
1450 02-12-2010 13:00:00 -5.3 C 2.15 g/m*3 -5.3 C 0 km/h
Sensor: Nr:Datum:Temp:Abs-Feuchte:Windchill:Wind:
Aussen-T/F 1451 02-12-2010 14:00:00 -5.6 C 2.16 g/m*3 -5.6 C 0 km/h
1452 02-12-2010 15:00:00 -4.74 C 2.28 g/m*3 -4.74 C 0 km/h
1453 02-12-2010 16:00:00 -5.12 C 2.3 g/m*3 -5.12 C 0 km/h
1454 02-12-2010 17:00:00 -7.36 C 2.12 g/m*3 -7.36 C 0 km/h
1455 02-12-2010 18:00:00 -8.02 C 2.2 g/m*3 -8.02 C 0 km/h
1456 02-12-2010 19:00:00 -8.42 C 2.16 g/m*3 -8.42 C 0 km/h
1457 02-12-2010 20:00:00 -8.04 C 2.25 g/m*3 -8.04 C 0 km/h
1458 02-12-2010 21:00:00 -7.54 C 2.33 g/m*3 -7.54 C 0 km/h
1459 02-12-2010 22:00:00 -8.54 C 2.13 g/m*3 -8.54 C 0 km/h
1460 02-12-2010 23:00:00 -7.96 C 2.23 g/m*3 -7.96 C 0 km/h
1461 03-12-2010 00:00:00 -9.88 C 1.86 g/m*3 -9.88 C 0 km/h
1462 03-12-2010 01:00:00 -9.66 C 1.91 g/m*3 -9.66 C 0 km/h
1463 03-12-2010 02:00:00 -9.12 C 2 g/m*3 -9.12 C 0 km/h
1464 03-12-2010 03:00:00 -8.78 C 2.04 g/m*3 -8.78 C 0 km/h
1465 03-12-2010 04:00:00 -8.06 C 2.15 g/m*3 -8.06 C 0 km/h
1466 03-12-2010 05:00:00 -8.68 C 2.03 g/m*3 -8.68 C 0 km/h
1467 03-12-2010 06:00:00 -9.48 C 1.91 g/m*3 -9.48 C 0 km/h
1468 03-12-2010 07:00:00 -8.92 C 2.03 g/m*3 -8.92 C 0 km/h
1469 03-12-2010 08:00:00 -9.92 C 1.85 g/m*3 -9.92 C 0 km/h
1470 03-12-2010 09:00:00 -9.8 C 1.85 g/m*3 -9.8 C 0 km/h
1471 03-12-2010 10:00:00 -8.1 C 2.05 g/m*3 -8.1 C 0 km/h
1472 03-12-2010 11:00:00 -6.32 C 2.23 g/m*3 -6.32 C 0 km/h
1473 03-12-2010 12:00:00 -5.16 C 2.28 g/m*3 -5.16 C 0 km/h
1474 03-12-2010 13:00:00 -4.74 C 2.32 g/m*3 -4.74 C 0 km/h
1475 03-12-2010 14:00:00 -4.26 C 2.38 g/m*3 -4.26 C 0 km/h
Sensor: Nr:Datum:Temp:Abs-Feuchte:Windchill:Wind:
Aussen-T/F 1476 03-12-2010 15:00:00 -4.68 C 2.4 g/m*3 -4.68 C 0 km/h
1477 03-12-2010 16:00:00 -6.18 C 2.37 g/m*3 -6.18 C 0 km/h
1478 03-12-2010 17:00:00 -6.98 C 2.34 g/m*3 -6.98 C 0 km/h
1479 03-12-2010 18:00:00 -7.02 C 2.36 g/m*3 -7.02 C 0 km/h
1480 03-12-2010 19:00:00 -5.74 C 2.63 g/m*3 -5.74 C 0 km/h
1481 03-12-2010 20:00:00 -5.36 C 2.64 g/m*3 -5.36 C 0 km/h
1482 03-12-2010 21:00:00 -5.72 C 2.55 g/m*3 -5.72 C 0 km/h
1483 03-12-2010 22:00:00 -6.78 C 2.39 g/m*3 -6.78 C 0 km/h
1484 03-12-2010 23:00:00 -7.92 C 2.24 g/m*3 -7.92 C 0 km/h
1485 04-12-2010 00:00:00 -8.5 C 2.17 g/m*3 -8.5 C 0 km/h
1486 04-12-2010 01:00:00 -9.1 C 2.06 g/m*3 -9.1 C 0 km/h
1487 04-12-2010 02:00:00 -9.26 C 2.02 g/m*3 -9.26 C 0 km/h
1488 04-12-2010 03:00:00 -9.94 C 1.9 g/m*3 -9.94 C 0 km/h
1489 04-12-2010 04:00:00 -7.96 C 2.24 g/m*3 -7.96 C 0 km/h
1490 04-12-2010 05:00:00 -5.52 C 2.67 g/m*3 -5.52 C 0 km/h
1491 04-12-2010 06:00:00 -4.94 C 2.59 g/m*3 -4.94 C 0 km/h
1492 04-12-2010 07:00:00 -5.14 C 2.58 g/m*3 -5.14 C 0 km/h
1493 04-12-2010 08:00:00 -3.94 C 2.67 g/m*3 -3.94 C 0 km/h
1494 04-12-2010 09:00:00 -3.1 C 2.58 g/m*3 -3.1 C 0 km/h
1495 04-12-2010 10:00:00 -2.12 C 2.68 g/m*3 -2.12 C 0 km/h
1496 04-12-2010 11:00:00 -1.38 C 2.45 g/m*3 -1.38 C 0 km/h
1497 04-12-2010 12:00:00 -0.86 C 2.46 g/m*3 -0.86 C 0 km/h
1498 04-12-2010 13:00:00 -1.4 C 2.41 g/m*3 -1.4 C 0 km/h
1499 04-12-2010 14:00:00 -1 C 2.47 g/m*3 -1 C 0 km/h
1500 04-12-2010 15:00:00 -0.92 C 2.52 g/m*3 -0.92 C 0 km/h
Sensor: Nr:Datum:Temp:Abs-Feuchte:Windchill:Wind:
Aussen-T/F 1501 04-12-2010 16:00:00 -1.22 C 2.64 g/m*3 -1.22 C 0 km/h
1502 04-12-2010 17:00:00 -1.08 C 2.76 g/m*3 -1.08 C 0 km/h
1503 04-12-2010 18:00:00 -0.9 C 2.79 g/m*3 -0.9 C 0 km/h
1504 04-12-2010 19:00:00 -0.92 C 2.79 g/m*3 -0.92 C 0 km/h
1505 04-12-2010 20:00:00 -0.96 C 2.87 g/m*3 -0.96 C 0 km/h
1506 04-12-2010 21:00:00 -1.1 C 3.13 g/m*3 -1.1 C 0 km/h
1507 04-12-2010 22:00:00 -1.18 C 3.46 g/m*3 -1.18 C 0 km/h
1508 04-12-2010 23:00:00 -1.12 C 3.51 g/m*3 -1.12 C 0 km/h
1509 05-12-2010 00:00:00 -0.5 C 3.48 g/m*3 -0.5 C 0 km/h
1510 05-12-2010 01:00:00 0.12 C 3.31 g/m*3 0.12 C 0 km/h
1511 05-12-2010 02:00:00 0.02 C 3.49 g/m*3 0.02 C 0 km/h
1512 05-12-2010 03:00:00 0.12 C 3.53 g/m*3 0.12 C 0 km/h
1513 05-12-2010 04:00:00 0.12 C 3.58 g/m*3 0.12 C 0 km/h
1514 05-12-2010 05:00:00 0.22 C 3.25 g/m*3 0.22 C 0 km/h
1515 05-12-2010 06:00:00 0.22 C 3.02 g/m*3 0.22 C 0 km/h
1516 05-12-2010 07:00:00 -0.08 C 2.91 g/m*3 -0.08 C 0 km/h
1517 05-12-2010 08:00:00 -0.32 C 2.9 g/m*3 -0.32 C 0 km/h
1518 05-12-2010 09:00:00 0.02 C 2.96 g/m*3 0.02 C 0 km/h
1519 05-12-2010 10:00:00 1.68 C 2.83 g/m*3 1.68 C 0 km/h
1520 05-12-2010 11:00:00 2.54 C 2.77 g/m*3 2.54 C 0 km/h
1521 05-12-2010 12:00:00 3.1 C 2.67 g/m*3 3.1 C 0 km/h
1522 05-12-2010 13:00:00 3.4 C 2.63 g/m*3 3.4 C 0 km/h
1523 05-12-2010 14:00:00 3.24 C 2.6 g/m*3 3.24 C 0 km/h
1524 05-12-2010 15:00:00 2.22 C 3.05 g/m*3 2.22 C 0 km/h
1525 05-12-2010 16:00:00 1.24 C 3.28 g/m*3 1.24 C 0 km/h
Sensor: Nr:Datum:Temp:Abs-Feuchte:Windchill:Wind:
Aussen-T/F 1526 05-12-2010 17:00:00 1.38 C 3.4 g/m*3 1.38 C 0 km/h
1527 05-12-2010 18:00:00 0.88 C 3.81 g/m*3 0.88 C 0 km/h
1528 05-12-2010 19:00:00 0.86 C 3.97 g/m*3 0.86 C 0 km/h
1529 05-12-2010 20:00:00 0.62 C 4.08 g/m*3 0.62 C 0 km/h
1530 05-12-2010 21:00:00 0.34 C 4.27 g/m*3 0.34 C 0 km/h
1531 05-12-2010 22:00:00 0.36 C 4.35 g/m*3 0.36 C 0 km/h
1532 05-12-2010 23:00:00 0.2 C 4.33 g/m*3 0.2 C 0 km/h
1533 06-12-2010 00:00:00 0.12 C 4.35 g/m*3 0.12 C 0 km/h
1534 06-12-2010 01:00:00 0.12 C 4.38 g/m*3 0.12 C 0 km/h
1535 06-12-2010 02:00:00 0.1 C 4.39 g/m*3 0.1 C 0 km/h
1536 06-12-2010 03:00:00 0.1 C 4.35 g/m*3 0.1 C 0 km/h
1537 06-12-2010 04:00:00 0.14 C 4.38 g/m*3 0.14 C 0 km/h
1538 06-12-2010 05:00:00 0.04 C 4.33 g/m*3 0.04 C 0 km/h
1539 06-12-2010 06:00:00 0.02 C 4.37 g/m*3 0.02 C 0 km/h
1540 06-12-2010 07:00:00 0 C 4.34 g/m*3 0 C 0 km/h
1541 06-12-2010 08:00:00 0.06 C 4.31 g/m*3 0.06 C 0 km/h
1542 06-12-2010 09:00:00 0.84 C 4.37 g/m*3 0.84 C 0 km/h
1543 06-12-2010 10:00:00 1.38 C 4.04 g/m*3 1.38 C 0 km/h
1544 06-12-2010 11:00:00 1.88 C 3.94 g/m*3 1.88 C 0 km/h
1545 06-12-2010 12:00:00 2.4 C 3.76 g/m*3 2.4 C 0 km/h
1546 06-12-2010 13:00:00 2.54 C 3.68 g/m*3 2.54 C 0 km/h
1547 06-12-2010 14:00:00 1.9 C 3.59 g/m*3 1.9 C 0 km/h
1548 06-12-2010 15:00:00 0.96 C 3.65 g/m*3 0.96 C 0 km/h
1549 06-12-2010 16:00:00 -0.26 C 3.69 g/m*3 -0.26 C 0 km/h
1550 06-12-2010 17:00:00 -0.68 C 3.73 g/m*3 -0.68 C 0 km/h
Sensor: Nr:Datum:Temp:Abs-Feuchte:Windchill:Wind:
Aussen-T/F 1551 06-12-2010 18:00:00 -0.9 C 3.76 g/m*3 -0.9 C 0 km/h
1552 06-12-2010 19:00:00 -0.84 C 3.75 g/m*3 -0.84 C 0 km/h
1553 06-12-2010 20:00:00 -1.14 C 3.67 g/m*3 -1.14 C 0 km/h
1554 06-12-2010 21:00:00 -1.275 C 3.64 g/m*3 -1.27 C 0 km/h
1555 06-12-2010 22:00:00 -1.24 C 3.68 g/m*3 -1.24 C 0 km/h
1556 06-12-2010 23:00:00 -0.68 C 3.74 g/m*3 -0.68 C 0 km/h
1557 07-12-2010 00:00:00 -1.06 C 3.6 g/m*3 -1.06 C 0 km/h
1558 07-12-2010 01:00:00 -1.16 C 3.68 g/m*3 -1.16 C 0 km/h
1559 07-12-2010 02:00:00 -0.56 C 3.77 g/m*3 -0.56 C 0 km/h
1560 07-12-2010 03:00:00 -0.56 C 3.73 g/m*3 -0.56 C 0 km/h
1561 07-12-2010 04:00:00 -0.74 C 3.7 g/m*3 -0.74 C 0 km/h
1562 07-12-2010 05:00:00 -0.94 C 3.68 g/m*3 -0.94 C 0 km/h
1563 07-12-2010 06:00:00 -0.78 C 3.68 g/m*3 -0.78 C 0 km/h
1564 07-12-2010 07:00:00 -1 C 3.57 g/m*3 -1 C 0 km/h
1565 07-12-2010 08:00:00 -0.84 C 3.6 g/m*3 -0.84 C 0 km/h
1566 07-12-2010 09:00:00 -0.4 C 3.61 g/m*3 -0.4 C 0 km/h
1567 07-12-2010 10:00:00 0.18 C 3.6 g/m*3 0.18 C 0 km/h
1568 07-12-2010 11:00:00 0.56 C 3.61 g/m*3 0.56 C 0 km/h
1569 07-12-2010 12:00:00 1.12 C 3.63 g/m*3 1.12 C 0 km/h
1570 07-12-2010 13:00:00 1.44 C 3.61 g/m*3 1.44 C 0 km/h
1571 07-12-2010 14:00:00 1.06 C 3.67 g/m*3 1.06 C 0 km/h
1572 07-12-2010 15:00:00 0.4 C 3.81 g/m*3 0.4 C 0 km/h
1573 07-12-2010 16:00:00 -0.22 C 4.06 g/m*3 -0.22 C 0 km/h
1574 07-12-2010 17:00:00 -0.3 C 4.2 g/m*3 -0.3 C 0 km/h
1575 07-12-2010 18:00:00 -0.26 C 4.26 g/m*3 -0.26 C 0 km/h
Sensor: Nr:Datum:Temp:Abs-Feuchte:Windchill:Wind:
Aussen-T/F 1576 07-12-2010 19:00:00 -0.2 C 4.31 g/m*3 -0.2 C 0 km/h
1577 07-12-2010 20:00:00 -0.16 C 4.36 g/m*3 -0.16 C 0 km/h
1578 07-12-2010 21:00:00 -0.2 C 4.36 g/m*3 -0.2 C 0 km/h
1579 07-12-2010 22:00:00 -0.18 C 4.4 g/m*3 -0.18 C 0 km/h
1580 07-12-2010 23:00:00 -0.2 C 4.4 g/m*3 -0.2 C 0 km/h
1581 08-12-2010 00:00:00 -0.2 C 4.4 g/m*3 -0.2 C 0 km/h
1582 08-12-2010 01:00:00 -0.2 C 4.4 g/m*3 -0.2 C 0 km/h
1583 08-12-2010 02:00:00 -0.16 C 4.41 g/m*3 -0.16 C 0 km/h
1584 08-12-2010 03:00:00 -0.18 C 4.4 g/m*3 -0.18 C 0 km/h
1585 08-12-2010 04:00:00 -0.08 C 4.43 g/m*3 -0.08 C 0 km/h
1586 08-12-2010 05:00:00 -0.08 C 4.46 g/m*3 -0.08 C 0 km/h
1587 08-12-2010 06:00:00 -0.06 C 4.49 g/m*3 -0.06 C 0 km/h
1588 08-12-2010 07:00:00 -0.02 C 4.5 g/m*3 -0.02 C 0 km/h
1589 08-12-2010 08:00:00 0 C 4.51 g/m*3 0 C 0 km/h
1590 08-12-2010 09:00:00 0.08 C 4.53 g/m*3 0.08 C 0 km/h
1591 08-12-2010 10:00:00 0.18 C 4.56 g/m*3 0.18 C 0 km/h
1592 08-12-2010 11:00:00 0.34 C 4.63 g/m*3 0.34 C 0 km/h
1593 08-12-2010 12:00:00 0.56 C 4.67 g/m*3 0.56 C 0 km/h
1594 08-12-2010 13:00:00 0.62 C 4.58 g/m*3 0.62 C 0 km/h
1595 08-12-2010 14:00:00 0.42 C 4.44 g/m*3 0.42 C 0 km/h
1596 08-12-2010 15:00:00 -0.08 C 4.29 g/m*3 -0.08 C 0 km/h
1597 08-12-2010 16:00:00 -0.3 C 4.26 g/m*3 -0.3 C 0 km/h
1598 08-12-2010 17:00:00 -0.36 C 4.24 g/m*3 -0.36 C 0 km/h
1599 08-12-2010 18:00:00 -0.74 C 4.1 g/m*3 -0.74 C 0 km/h
1600 08-12-2010 19:00:00 -0.92 C 4.05 g/m*3 -0.92 C 0 km/h
Sensor: Nr:Datum:Temp:Abs-Feuchte:Windchill:Wind:
Aussen-T/F 1601 08-12-2010 20:00:00 -1.06 C 4.02 g/m*3 -1.06 C 0 km/h
1602 08-12-2010 21:00:00 -1.24 C 3.94 g/m*3 -1.24 C 0 km/h
1603 08-12-2010 22:00:00 -1.44 C 3.82 g/m*3 -1.44 C 0 km/h
1604 08-12-2010 23:00:00 -1.3 C 3.74 g/m*3 -1.3 C 0 km/h
1605 09-12-2010 00:00:00 -1.32 C 3.64 g/m*3 -1.32 C 0 km/h
1606 09-12-2010 01:00:00 -1.52 C 3.56 g/m*3 -1.52 C 0 km/h
1607 09-12-2010 02:00:00 -1.74 C 3.55 g/m*3 -1.74 C 0 km/h
1608 09-12-2010 03:00:00 -1.7 C 3.69 g/m*3 -1.7 C 0 km/h
1609 09-12-2010 04:00:00 -1.62 C 3.72 g/m*3 -1.62 C 0 km/h
1610 09-12-2010 05:00:00 -1.04 C 3.84 g/m*3 -1.04 C 0 km/h
1611 09-12-2010 06:00:00 -0.42 C 3.9 g/m*3 -0.42 C 0 km/h
1612 09-12-2010 07:00:00 -0.28 C 3.95 g/m*3 -0.28 C 0 km/h
1613 09-12-2010 08:00:00 -0.38 C 3.91 g/m*3 -0.38 C 0 km/h
1614 09-12-2010 09:00:00 -0.08 C 3.93 g/m*3 -0.08 C 0 km/h
1615 09-12-2010 10:00:00 0.32 C 4 g/m*3 0.32 C 0 km/h
1616 09-12-2010 11:00:00 0.8 C 4.06 g/m*3 0.8 C 0 km/h
1617 09-12-2010 12:00:00 2.18 C 4.07 g/m*3 2.18 C 0 km/h
1618 09-12-2010 13:00:00 1.74 C 4.11 g/m*3 1.74 C 0 km/h
1619 09-12-2010 14:00:00 2.12 C 3.92 g/m*3 2.12 C 0 km/h
1620 09-12-2010 15:00:00 1.84 C 3.75 g/m*3 1.84 C 0 km/h
1621 09-12-2010 16:00:00 1.52 C 3.66 g/m*3 1.52 C 0 km/h
1622 09-12-2010 17:00:00 1.5 C 3.89 g/m*3 1.5 C 0 km/h
1623 09-12-2010 18:00:00 1.68 C 4.03 g/m*3 1.68 C 0 km/h
1624 09-12-2010 19:00:00 2.16 C 3.9 g/m*3 2.16 C 0 km/h
1625 09-12-2010 20:00:00 2.44 C 4 g/m*3 2.44 C 0 km/h
Sensor: Nr:Datum:Temp:Abs-Feuchte:Windchill:Wind:
Aussen-T/F 1626 09-12-2010 21:00:00 2.58 C 4.06 g/m*3 2.58 C 0 km/h
1627 09-12-2010 22:00:00 2.44 C 4.16 g/m*3 2.44 C 0 km/h
1628 09-12-2010 23:00:00 1.5 C 4.43 g/m*3 1.5 C 0 km/h
1629 10-12-2010 00:00:00 1.9 C 4.42 g/m*3 1.9 C 0 km/h
1630 10-12-2010 01:00:00 2.04 C 4.36 g/m*3 2.04 C 0 km/h
1631 10-12-2010 02:00:00 1.7 C 4.26 g/m*3 1.7 C 0 km/h
1632 10-12-2010 03:00:00 1.24 C 4.52 g/m*3 1.24 C 0 km/h
1633 10-12-2010 04:00:00 1.7 C 4.79 g/m*3 1.7 C 0 km/h
1634 10-12-2010 05:00:00 2.52 C 4.87 g/m*3 2.52 C 0 km/h
1635 10-12-2010 06:00:00 1.84 C 4.73 g/m*3 1.84 C 0 km/h
1636 10-12-2010 07:00:00 0.76 C 4.53 g/m*3 0.76 C 0 km/h
1637 10-12-2010 08:00:00 -0.32 C 4.28 g/m*3 -0.32 C 0 km/h
1638 10-12-2010 09:00:00 -0.4 C 4.3 g/m*3 -0.4 C 0 km/h
1639 10-12-2010 10:00:00 0.06 C 4.45 g/m*3 0.06 C 0 km/h
1640 10-12-2010 11:00:00 1.38 C 4.82 g/m*3 1.38 C 0 km/h
1641 10-12-2010 12:00:00 2.24 C 4.95 g/m*3 2.24 C 0 km/h
1642 10-12-2010 13:00:00 2.96 C 4.9 g/m*3 2.96 C 0 km/h
1643 10-12-2010 14:00:00 2.82 C 4.65 g/m*3 2.82 C 0 km/h
1644 10-12-2010 15:00:00 1.78 C 4.64 g/m*3 1.78 C 0 km/h
1645 10-12-2010 16:00:00 1.54 C 4.8 g/m*3 1.54 C 0 km/h
1646 10-12-2010 17:00:00 1.84 C 4.95 g/m*3 1.84 C 0 km/h
1647 10-12-2010 18:00:00 1.86 C 4.93 g/m*3 1.86 C 0 km/h
1648 10-12-2010 19:00:00 2.28 C 4.97 g/m*3 2.28 C 0 km/h
1649 10-12-2010 20:00:00 2.6 C 4.93 g/m*3 2.6 C 0 km/h
1650 10-12-2010 21:00:00 2.5 C 4.85 g/m*3 2.5 C 0 km/h
Sensor: Nr:Datum:Temp:Abs-Feuchte:Windchill:Wind:
Aussen-T/F 1651 10-12-2010 22:00:00 2.52 C 4.87 g/m*3 2.52 C 0 km/h
1652 10-12-2010 23:00:00 2.24 C 4.86 g/m*3 2.24 C 0 km/h
1653 11-12-2010 00:00:00 2.18 C 4.97 g/m*3 2.18 C 0 km/h
1654 11-12-2010 01:00:00 2.46 C 5.08 g/m*3 2.46 C 0 km/h
1655 11-12-2010 02:00:00 2.72 C 5.13 g/m*3 2.72 C 0 km/h
1656 11-12-2010 03:00:00 2.54 C 5.1 g/m*3 2.54 C 0 km/h
1657 11-12-2010 04:00:00 3.26 C 5.24 g/m*3 3.26 C 0 km/h
1658 11-12-2010 05:00:00 3.86 C 5.19 g/m*3 3.86 C 0 km/h
1659 11-12-2010 06:00:00 3.36 C 5.15 g/m*3 3.36 C 0 km/h
1660 11-12-2010 07:00:00 4.14 C 5.21 g/m*3 4.14 C 0 km/h
1661 11-12-2010 08:00:00 4.86 C 5.01 g/m*3 4.86 C 0 km/h
1662 11-12-2010 09:00:00 4.16 C 5.04 g/m*3 4.16 C 0 km/h
1663 11-12-2010 10:00:00 3.9 C 5.38 g/m*3 3.9 C 0 km/h
1664 11-12-2010 11:00:00 4.3 C 5.37 g/m*3 4.3 C 0 km/h
1665 11-12-2010 12:00:00 4.54 C 5.56 g/m*3 4.54 C 0 km/h
1666 11-12-2010 13:00:00 4.86 C 5.39 g/m*3 4.86 C 0 km/h
1667 11-12-2010 14:00:00 4.9 C 5.31 g/m*3 4.9 C 0 km/h
1668 11-12-2010 15:00:00 5.06 C 5.18 g/m*3 5.06 C 0 km/h
1669 11-12-2010 16:00:00 4.9 C 5.24 g/m*3 4.9 C 0 km/h
1670 11-12-2010 17:00:00 5.16 C 5.22 g/m*3 5.16 C 0 km/h
1671 11-12-2010 18:00:00 4.22 C 5.21 g/m*3 4.22 C 0 km/h
1672 11-12-2010 19:00:00 4.26 C 5.2 g/m*3 4.26 C 0 km/h
1673 11-12-2010 20:00:00 4.82 C 5.01 g/m*3 4.82 C 0 km/h
1674 11-12-2010 21:00:00 4.4 C 5.04 g/m*3 4.4 C 0 km/h
1675 11-12-2010 22:00:00 4.3 C 5.03 g/m*3 4.3 C 0 km/h
Sensor: Nr:Datum:Temp:Abs-Feuchte:Windchill:Wind:
Aussen-T/F 1676 11-12-2010 23:00:00 4.66 C 4.89 g/m*3 4.66 C 0 km/h
1677 12-12-2010 00:00:00 4.26 C 4.97 g/m*3 4.26 C 0 km/h
1678 12-12-2010 01:00:00 4.84 C 4.84 g/m*3 4.84 C 0 km/h
1679 12-12-2010 02:00:00 4.82 C 4.58 g/m*3 4.82 C 0 km/h
1680 12-12-2010 03:00:00 4.2 C 4.66 g/m*3 4.2 C 0 km/h
1681 12-12-2010 04:00:00 3.68 C 5.18 g/m*3 3.68 C 0 km/h
1682 12-12-2010 05:00:00 3.44 C 5.11 g/m*3 3.44 C 0 km/h
1683 12-12-2010 06:00:00 3.04 C 5.07 g/m*3 3.04 C 0 km/h
1684 12-12-2010 07:00:00 3.86 C 4.93 g/m*3 3.86 C 0 km/h
1685 12-12-2010 08:00:00 3.62 C 4.87 g/m*3 3.62 C 0 km/h
1686 12-12-2010 09:00:00 3.7 C 4.96 g/m*3 3.7 C 0 km/h
1687 12-12-2010 10:00:00 3.86 C 5.03 g/m*3 3.86 C 0 km/h
1688 12-12-2010 11:00:00 4.12 C 5.14 g/m*3 4.12 C 0 km/h
1689 12-12-2010 12:00:00 4.5 C 5.34 g/m*3 4.5 C 0 km/h
1690 12-12-2010 13:00:00 4.82 C 5.17 g/m*3 4.82 C 0 km/h
1691 12-12-2010 14:00:00 3.46 C 4.95 g/m*3 3.46 C 0 km/h
1692 12-12-2010 15:00:00 3.1 C 5.21 g/m*3 3.1 C 0 km/h
1693 12-12-2010 16:00:00 2.7 C 5.12 g/m*3 2.7 C 0 km/h
1694 12-12-2010 17:00:00 2.48 C 4.62 g/m*3 2.48 C 0 km/h
1695 12-12-2010 18:00:00 1.86 C 4.15 g/m*3 1.86 C 0 km/h
1696 12-12-2010 19:00:00 1.38 C 3.91 g/m*3 1.38 C 0 km/h
1697 12-12-2010 20:00:00 1.18 C 3.56 g/m*3 1.18 C 0 km/h
1698 12-12-2010 21:00:00 0.76 C 3.35 g/m*3 0.76 C 0 km/h
1699 12-12-2010 22:00:00 0.4 C 3.18 g/m*3 0.4 C 0 km/h
1700 12-12-2010 23:00:00 -0.04 C 2.73 g/m*3 -0.04 C 0 km/h
Sensor: Nr:Datum:Temp:Abs-Feuchte:Windchill:Wind:
Aussen-T/F 1701 13-12-2010 00:00:00 -0.52 C 2.5 g/m*3 -0.52 C 0 km/h
1702 13-12-2010 01:00:00 -0.84 C 2.45 g/m*3 -0.84 C 0 km/h
1703 13-12-2010 02:00:00 -2.28 C 2.3 g/m*3 -2.28 C 0 km/h
1704 13-12-2010 03:00:00 -3.5 C 2.27 g/m*3 -3.5 C 0 km/h
1705 13-12-2010 04:00:00 -4.2 C 2.29 g/m*3 -4.2 C 0 km/h
1706 13-12-2010 05:00:00 -5.8 C 2.22 g/m*3 -5.8 C 0 km/h
1707 13-12-2010 06:00:00 -6.94 C 2.21 g/m*3 -6.94 C 0 km/h
1708 13-12-2010 07:00:00 -7.2 C 2.22 g/m*3 -7.2 C 0 km/h
1709 13-12-2010 08:00:00 -7.18 C 2.27 g/m*3 -7.18 C 0 km/h
1710 13-12-2010 09:00:00 -7.12 C 2.29 g/m*3 -7.12 C 0 km/h
1711 13-12-2010 10:00:00 -6.62 C 2.4 g/m*3 -6.62 C 0 km/h
1712 13-12-2010 11:00:00 -4 C 2.63 g/m*3 -4 C 0 km/h
1713 13-12-2010 12:00:00 -2.78 C 2.52 g/m*3 -2.78 C 0 km/h
1714 13-12-2010 13:00:00 -2.32 C 2.5 g/m*3 -2.32 C 0 km/h
1715 13-12-2010 14:00:00 -2.2 C 2.39 g/m*3 -2.2 C 0 km/h
1716 13-12-2010 15:00:00 -3.66 C 2.47 g/m*3 -3.66 C 0 km/h
1717 13-12-2010 16:00:00 -4.98 C 2.58 g/m*3 -4.98 C 0 km/h
1718 13-12-2010 17:00:00 -5.88 C 2.5 g/m*3 -5.88 C 0 km/h
1719 13-12-2010 18:00:00 -6.2 C 2.48 g/m*3 -6.2 C 0 km/h
1720 13-12-2010 19:00:00 -5.44 C 2.72 g/m*3 -5.44 C 0 km/h
1721 13-12-2010 20:00:00 -4.86 C 2.8 g/m*3 -4.86 C 0 km/h
1722 13-12-2010 21:00:00 -4.22 C 2.82 g/m*3 -4.22 C 0 km/h
1723 13-12-2010 22:00:00 -3.92 C 2.86 g/m*3 -3.92 C 0 km/h
1724 13-12-2010 23:00:00 -4.1 C 3 g/m*3 -4.1 C 0 km/h
1725 14-12-2010 00:00:00 -4.1 C 3.02 g/m*3 -4.1 C 0 km/h
Sensor: Nr:Datum:Temp:Abs-Feuchte:Windchill:Wind:
Aussen-T/F 1726 14-12-2010 01:00:00 -4.06 C 3.03 g/m*3 -4.06 C 0 km/h
1727 14-12-2010 02:00:00 -3.84 C 3.07 g/m*3 -3.84 C 0 km/h
1728 14-12-2010 03:00:00 -3.66 C 3.11 g/m*3 -3.66 C 0 km/h
1729 14-12-2010 04:00:00 -3.62 C 3.09 g/m*3 -3.62 C 0 km/h
1730 14-12-2010 05:00:00 -3.8 C 3.04 g/m*3 -3.8 C 0 km/h
1731 14-12-2010 06:00:00 -4.7 C 2.87 g/m*3 -4.7 C 0 km/h
1732 14-12-2010 07:00:00 -6.22 C 2.59 g/m*3 -6.22 C 0 km/h
1733 14-12-2010 08:00:00 -6.38 C 2.62 g/m*3 -6.38 C 0 km/h
1734 14-12-2010 09:00:00 -6 C 2.69 g/m*3 -6 C 0 km/h
1735 14-12-2010 10:00:00 -4.06 C 3 g/m*3 -4.06 C 0 km/h
1736 14-12-2010 11:00:00 -3.24 C 2.75 g/m*3 -3.24 C 0 km/h
1737 14-12-2010 12:00:00 -2.42 C 2.66 g/m*3 -2.42 C 0 km/h
1738 14-12-2010 13:00:00 -2.2 C 2.64 g/m*3 -2.2 C 0 km/h
1739 14-12-2010 14:00:00 -2.44 C 2.66 g/m*3 -2.44 C 0 km/h
1740 14-12-2010 15:00:00 -2.76 C 2.7 g/m*3 -2.76 C 0 km/h
1741 14-12-2010 16:00:00 -2.9 C 2.8 g/m*3 -2.9 C 0 km/h
1742 14-12-2010 17:00:00 -2.98 C 2.91 g/m*3 -2.98 C 0 km/h
1743 14-12-2010 18:00:00 -3.06 C 2.78 g/m*3 -3.06 C 0 km/h
1744 14-12-2010 19:00:00 -2.82 C 2.84 g/m*3 -2.82 C 0 km/h
1745 14-12-2010 20:00:00 -3.04 C 2.74 g/m*3 -3.04 C 0 km/h
1746 14-12-2010 21:00:00 -3.12 C 2.64 g/m*3 -3.12 C 0 km/h
1747 14-12-2010 22:00:00 -3.16 C 2.58 g/m*3 -3.16 C 0 km/h
1748 14-12-2010 23:00:00 -3.22 C 2.51 g/m*3 -3.22 C 0 km/h
1749 15-12-2010 00:00:00 -3.3 C 2.5 g/m*3 -3.3 C 0 km/h
1750 15-12-2010 01:00:00 -3.26 C 2.57 g/m*3 -3.26 C 0 km/h
Sensor: Nr:Datum:Temp:Abs-Feuchte:Windchill:Wind:
Aussen-T/F 1751 15-12-2010 02:00:00 -4.16 C 2.54 g/m*3 -4.16 C 0 km/h
1752 15-12-2010 03:00:00 -4.9 C 2.5 g/m*3 -4.9 C 0 km/h
1753 15-12-2010 04:00:00 -4.86 C 2.54 g/m*3 -4.86 C 0 km/h
1754 15-12-2010 05:00:00 -4.72 C 2.63 g/m*3 -4.72 C 0 km/h
1755 15-12-2010 06:00:00 -3.78 C 2.71 g/m*3 -3.78 C 0 km/h
1756 15-12-2010 07:00:00 -3.42 C 2.81 g/m*3 -3.42 C 0 km/h
1757 15-12-2010 08:00:00 -3.3 C 2.88 g/m*3 -3.3 C 0 km/h
1758 15-12-2010 09:00:00 -2.56 C 3.02 g/m*3 -2.56 C 0 km/h
1759 15-12-2010 10:00:00 -1.76 C 3.22 g/m*3 -1.76 C 0 km/h
1760 15-12-2010 11:00:00 -0.68 C 3.51 g/m*3 -0.68 C 0 km/h
1761 15-12-2010 12:00:00 -0.48 C 3.47 g/m*3 -0.48 C 0 km/h
1762 15-12-2010 13:00:00 -0.38 C 3.56 g/m*3 -0.38 C 0 km/h
1763 15-12-2010 14:00:00 -0.12 C 3.36 g/m*3 -0.12 C 0 km/h
1764 15-12-2010 15:00:00 -1.44 C 2.8 g/m*3 -1.44 C 0 km/h
1765 15-12-2010 16:00:00 -3.2 C 2.7 g/m*3 -3.2 C 0 km/h
1766 15-12-2010 17:00:00 -4.34 C 2.74 g/m*3 -4.34 C 0 km/h
1767 15-12-2010 18:00:00 -4.86 C 2.77 g/m*3 -4.86 C 0 km/h
1768 15-12-2010 19:00:00 -4.42 C 2.86 g/m*3 -4.42 C 0 km/h
1769 15-12-2010 20:00:00 -3.62 C 2.83 g/m*3 -3.62 C 0 km/h
1770 15-12-2010 21:00:00 -3.18 C 2.77 g/m*3 -3.18 C 0 km/h
1771 15-12-2010 22:00:00 -3.78 C 2.76 g/m*3 -3.78 C 0 km/h
1772 15-12-2010 23:00:00 -4.54 C 2.76 g/m*3 -4.54 C 0 km/h
1773 16-12-2010 00:00:00 -4.68 C 2.85 g/m*3 -4.68 C 0 km/h
1774 16-12-2010 01:00:00 -4.84 C 2.87 g/m*3 -4.84 C 0 km/h
1775 16-12-2010 02:00:00 -5.3 C 2.73 g/m*3 -5.3 C 0 km/h
Sensor: Nr:Datum:Temp:Abs-Feuchte:Windchill:Wind:
Aussen-T/F 1776 16-12-2010 03:00:00 -5.36 C 2.75 g/m*3 -5.36 C 0 km/h
1777 16-12-2010 04:00:00 -5.58 C 2.66 g/m*3 -5.58 C 0 km/h
1778 16-12-2010 05:00:00 -6.4 C 2.41 g/m*3 -6.4 C 0 km/h
1779 16-12-2010 06:00:00 -7.54 C 2.25 g/m*3 -7.54 C 0 km/h
1780 16-12-2010 07:00:00 -8.28 C 2.11 g/m*3 -8.28 C 0 km/h
1781 16-12-2010 08:00:00 -7.86 C 2.18 g/m*3 -7.86 C 0 km/h
1782 16-12-2010 09:00:00 -6.6 C 2.26 g/m*3 -6.6 C 0 km/h
1783 16-12-2010 10:00:00 -4.84 C 2.47 g/m*3 -4.84 C 0 km/h
1784 16-12-2010 11:00:00 -3.42 C 2.65 g/m*3 -3.42 C 0 km/h
1785 16-12-2010 12:00:00 -2.84 C 2.8 g/m*3 -2.84 C 0 km/h
1786 16-12-2010 13:00:00 -2.12 C 2.99 g/m*3 -2.12 C 0 km/h
1787 16-12-2010 14:00:00 -1.72 C 3.2 g/m*3 -1.72 C 0 km/h
1788 16-12-2010 15:00:00 -1.4 C 3.45 g/m*3 -1.4 C 0 km/h
1789 16-12-2010 16:00:00 -1.3 C 3.43 g/m*3 -1.3 C 0 km/h
1790 16-12-2010 17:00:00 -1.26 C 3.47 g/m*3 -1.26 C 0 km/h
1791 16-12-2010 18:00:00 -0.7 C 3.61 g/m*3 -0.7 C 0 km/h
1792 16-12-2010 19:00:00 -0.28 C 3.67 g/m*3 -0.28 C 0 km/h
1793 16-12-2010 20:00:00 0.02 C 3.69 g/m*3 0.02 C 0 km/h
1794 16-12-2010 21:00:00 -0.12 C 3.79 g/m*3 -0.12 C 0 km/h
1795 16-12-2010 22:00:00 -0.34 C 3.88 g/m*3 -0.34 C 0 km/h
1796 16-12-2010 23:00:00 -0.46 C 3.84 g/m*3 -0.46 C 0 km/h
1797 17-12-2010 00:00:00 -0.28 C 3.85 g/m*3 -0.28 C 0 km/h
1798 17-12-2010 01:00:00 -0.34 C 3.88 g/m*3 -0.34 C 0 km/h
1799 17-12-2010 02:00:00 -0.58 C 3.62 g/m*3 -0.58 C 0 km/h
1800 17-12-2010 03:00:00 -1.2 C 3.36 g/m*3 -1.2 C 0 km/h
Sensor: Nr:Datum:Temp:Abs-Feuchte:Windchill:Wind:
Aussen-T/F 1801 17-12-2010 04:00:00 -1.28 C 3.16 g/m*3 -1.28 C 0 km/h
1802 17-12-2010 05:00:00 -1.62 C 3.26 g/m*3 -1.62 C 0 km/h
1803 17-12-2010 06:00:00 -2.24 C 2.97 g/m*3 -2.24 C 0 km/h
1804 17-12-2010 07:00:00 -2.28 C 2.65 g/m*3 -2.28 C 0 km/h
1805 17-12-2010 08:00:00 -2.22 C 3 g/m*3 -2.22 C 0 km/h
1806 17-12-2010 09:00:00 -1.92 C 3.01 g/m*3 -1.92 C 0 km/h
1807 17-12-2010 10:00:00 -1.66 C 2.95 g/m*3 -1.66 C 0 km/h
1808 17-12-2010 11:00:00 -1.2 C 2.74 g/m*3 -1.2 C 0 km/h
1809 17-12-2010 12:00:00 -1.14 C 2.52 g/m*3 -1.14 C 0 km/h
1810 17-12-2010 13:00:00 -1.22 C 2.43 g/m*3 -1.22 C 0 km/h
1811 17-12-2010 14:00:00 -1.4 C 2.66 g/m*3 -1.4 C 0 km/h
1812 17-12-2010 15:00:00 -1.82 C 2.98 g/m*3 -1.82 C 0 km/h
1813 17-12-2010 16:00:00 -2.08 C 3 g/m*3 -2.08 C 0 km/h
1814 17-12-2010 17:00:00 -4.06 C 2.8 g/m*3 -4.06 C 0 km/h
1815 17-12-2010 18:00:00 -5.22 C 2.69 g/m*3 -5.22 C 0 km/h
1816 17-12-2010 19:00:00 -6.48 C 2.51 g/m*3 -6.48 C 0 km/h
1817 17-12-2010 20:00:00 -6.58 C 2.52 g/m*3 -6.58 C 0 km/h
1818 17-12-2010 21:00:00 -6.94 C 2.44 g/m*3 -6.94 C 0 km/h
1819 17-12-2010 22:00:00 -6.92 C 2.44 g/m*3 -6.92 C 0 km/h
1820 17-12-2010 23:00:00 -5.9 C 2.66 g/m*3 -5.9 C 0 km/h
1821 18-12-2010 00:00:00 -4.74 C 2.93 g/m*3 -4.74 C 0 km/h
1822 18-12-2010 01:00:00 -4.44 C 2.9 g/m*3 -4.44 C 0 km/h
1823 18-12-2010 02:00:00 -5.28 C 2.7 g/m*3 -5.28 C 0 km/h
1824 18-12-2010 03:00:00 -4.36 C 2.87 g/m*3 -4.36 C 0 km/h
1825 18-12-2010 04:00:00 -4.36 C 2.94 g/m*3 -4.36 C 0 km/h
Sensor: Nr:Datum:Temp:Abs-Feuchte:Windchill:Wind:
Aussen-T/F 1826 18-12-2010 05:00:00 -4.44 C 2.98 g/m*3 -4.44 C 0 km/h
1827 18-12-2010 06:00:00 -4.34 C 3.01 g/m*3 -4.34 C 0 km/h
1828 18-12-2010 07:00:00 -5.26 C 2.81 g/m*3 -5.26 C 0 km/h
1829 18-12-2010 08:00:00 -5.34 C 2.8 g/m*3 -5.34 C 0 km/h
1830 18-12-2010 09:00:00 -4.84 C 2.73 g/m*3 -4.84 C 0 km/h
1831 18-12-2010 10:00:00 -3.82 C 2.68 g/m*3 -3.82 C 0 km/h
1832 18-12-2010 11:00:00 -3.48 C 2.59 g/m*3 -3.48 C 0 km/h
1833 18-12-2010 12:00:00 -3.28 C 2.46 g/m*3 -3.28 C 0 km/h
1834 18-12-2010 13:00:00 -2.96 C 2.36 g/m*3 -2.96 C 0 km/h
1835 18-12-2010 14:00:00 -3.84 C 2.29 g/m*3 -3.84 C 0 km/h
1836 18-12-2010 15:00:00 -5.48 C 2.31 g/m*3 -5.48 C 0 km/h
1837 18-12-2010 16:00:00 -7.06 C 2.27 g/m*3 -7.06 C 0 km/h
1838 18-12-2010 17:00:00 -7.56 C 2.29 g/m*3 -7.56 C 0 km/h
1839 18-12-2010 18:00:00 -6.74 C 2.48 g/m*3 -6.74 C 0 km/h
1840 18-12-2010 19:00:00 -5.34 C 2.79 g/m*3 -5.34 C 0 km/h
1841 18-12-2010 20:00:00 -4.36 C 2.97 g/m*3 -4.36 C 0 km/h
1842 18-12-2010 21:00:00 -3.98 C 3.05 g/m*3 -3.98 C 0 km/h
1843 18-12-2010 22:00:00 -3.42 C 3.2 g/m*3 -3.42 C 0 km/h
1844 18-12-2010 23:00:00 -3.08 C 3.28 g/m*3 -3.08 C 0 km/h
1845 19-12-2010 00:00:00 -2.56 C 3.41 g/m*3 -2.56 C 0 km/h
1846 19-12-2010 01:00:00 -2.44 C 3.53 g/m*3 -2.44 C 0 km/h
1847 19-12-2010 02:00:00 -2.5 C 3.54 g/m*3 -2.5 C 0 km/h
1848 19-12-2010 03:00:00 -2.7 C 3.49 g/m*3 -2.7 C 0 km/h
1849 19-12-2010 04:00:00 -2.46 C 3.55 g/m*3 -2.46 C 0 km/h
1850 19-12-2010 05:00:00 -1.02 C 3.67 g/m*3 -1.02 C 0 km/h
Sensor: Nr:Datum:Temp:Abs-Feuchte:Windchill:Wind:
Aussen-T/F 1851 19-12-2010 06:00:00 -1.64 C 3.24 g/m*3 -1.64 C 0 km/h
1852 19-12-2010 07:00:00 -2.58 C 3.19 g/m*3 -2.58 C 0 km/h
1853 19-12-2010 08:00:00 -2.5 C 3.2 g/m*3 -2.5 C 0 km/h
1854 19-12-2010 09:00:00 -2.04 C 3.37 g/m*3 -2.04 C 0 km/h
1855 19-12-2010 10:00:00 -0.94 C 3.41 g/m*3 -0.94 C 0 km/h
1856 19-12-2010 11:00:00 -0.38 C 3.56 g/m*3 -0.38 C 0 km/h
1857 19-12-2010 12:00:00 0.3 C 3.6 g/m*3 0.3 C 0 km/h
1858 19-12-2010 13:00:00 0.14 C 3.71 g/m*3 0.14 C 0 km/h
1859 19-12-2010 14:00:00 -0.18 C 3.94 g/m*3 -0.18 C 0 km/h
1860 19-12-2010 15:00:00 -0.4 C 4.08 g/m*3 -0.4 C 0 km/h
1861 19-12-2010 16:00:00 -0.3 C 4.23 g/m*3 -0.3 C 0 km/h
1862 19-12-2010 17:00:00 -0.2 C 4.33 g/m*3 -0.2 C 0 km/h
1863 19-12-2010 18:00:00 -0.18 C 4.36 g/m*3 -0.18 C 0 km/h
1864 19-12-2010 19:00:00 -0.04 C 4.45 g/m*3 -0.04 C 0 km/h
1865 19-12-2010 20:00:00 0.08 C 4.49 g/m*3 0.08 C 0 km/h
1866 19-12-2010 21:00:00 1.1 C 4.84 g/m*3 1.1 C 0 km/h
1867 19-12-2010 22:00:00 1.92 C 5.06 g/m*3 1.92 C 0 km/h
1868 19-12-2010 23:00:00 4.42 C 5.05 g/m*3 4.42 C 0 km/h
1869 20-12-2010 00:00:00 4.02 C 4.62 g/m*3 4.02 C 0 km/h
1870 20-12-2010 01:00:00 1.68 C 4.43 g/m*3 1.68 C 0 km/h
1871 20-12-2010 02:00:00 0.42 C 3.7 g/m*3 0.42 C 0 km/h
1872 20-12-2010 03:00:00 -0.08 C 3.63 g/m*3 -0.08 C 0 km/h
1873 20-12-2010 04:00:00 -0.44 C 3.67 g/m*3 -0.44 C 0 km/h
1874 20-12-2010 05:00:00 -1.02 C 3.56 g/m*3 -1.02 C 0 km/h
1875 20-12-2010 06:00:00 -1.66 C 3.46 g/m*3 -1.66 C 0 km/h
Sensor: Nr:Datum:Temp:Abs-Feuchte:Windchill:Wind:
Aussen-T/F 1876 20-12-2010 07:00:00 -2.6 C 3.38 g/m*3 -2.6 C 0 km/h
1877 20-12-2010 08:00:00 -2.42 C 3.54 g/m*3 -2.42 C 0 km/h
1878 20-12-2010 09:00:00 -1.8 C 3.59 g/m*3 -1.8 C 0 km/h
1879 20-12-2010 10:00:00 -1.22 C 3.33 g/m*3 -1.22 C 0 km/h
1880 20-12-2010 11:00:00 -0.8 C 3.28 g/m*3 -0.8 C 0 km/h
1881 20-12-2010 12:00:00 -1.06 C 3.27 g/m*3 -1.06 C 0 km/h
1882 20-12-2010 13:00:00 -0.92 C 3.28 g/m*3 -0.92 C 0 km/h
1883 20-12-2010 14:00:00 -0.98 C 3.26 g/m*3 -0.98 C 0 km/h
1884 20-12-2010 15:00:00 -1.08 C 3.26 g/m*3 -1.08 C 0 km/h
1885 20-12-2010 16:00:00 -3.04 C 3.05 g/m*3 -3.04 C 0 km/h
1886 20-12-2010 17:00:00 -3.52 C 3.23 g/m*3 -3.52 C 0 km/h
1887 20-12-2010 18:00:00 -3.04 C 3.42 g/m*3 -3.04 C 0 km/h
1888 20-12-2010 19:00:00 -3 C 3.45 g/m*3 -3 C 0 km/h
1889 20-12-2010 20:00:00 -2.92 C 3.48 g/m*3 -2.92 C 0 km/h
1890 20-12-2010 21:00:00 -3.64 C 3.26 g/m*3 -3.64 C 0 km/h
1891 20-12-2010 22:00:00 -4.3 C 3.11 g/m*3 -4.3 C 0 km/h
1892 20-12-2010 23:00:00 -3.46 C 3.37 g/m*3 -3.46 C 0 km/h
1893 21-12-2010 00:00:00 -3.62 C 3.33 g/m*3 -3.62 C 0 km/h
1894 21-12-2010 01:00:00 -2.88 C 3.53 g/m*3 -2.88 C 0 km/h
1895 21-12-2010 02:00:00 -2.6 C 3.6 g/m*3 -2.6 C 0 km/h
1896 21-12-2010 03:00:00 -2.54 C 3.57 g/m*3 -2.54 C 0 km/h
1897 21-12-2010 04:00:00 -2.14 C 3.67 g/m*3 -2.14 C 0 km/h
1898 21-12-2010 05:00:00 -1.88 C 3.76 g/m*3 -1.88 C 0 km/h
1899 21-12-2010 06:00:00 -1.78 C 3.81 g/m*3 -1.78 C 0 km/h
1900 21-12-2010 07:00:00 -1.7 C 3.83 g/m*3 -1.7 C 0 km/h
Sensor: Nr:Datum:Temp:Abs-Feuchte:Windchill:Wind:
Aussen-T/F 1901 21-12-2010 08:00:00 -1.64 C 3.85 g/m*3 -1.64 C 0 km/h
1902 21-12-2010 09:00:00 -1.24 C 3.91 g/m*3 -1.24 C 0 km/h
1903 21-12-2010 10:00:00 -0.6 C 3.91 g/m*3 -0.6 C 0 km/h
1904 21-12-2010 11:00:00 0.5 C 3.98 g/m*3 0.5 C 0 km/h
1905 21-12-2010 12:00:00 1.14 C 3.97 g/m*3 1.14 C 0 km/h
1906 21-12-2010 13:00:00 1.44 C 4.12 g/m*3 1.44 C 0 km/h
1907 21-12-2010 14:00:00 1.24 C 4.06 g/m*3 1.24 C 0 km/h
1908 21-12-2010 15:00:00 1.18 C 4.18 g/m*3 1.18 C 0 km/h
1909 21-12-2010 16:00:00 0.58 C 4.2 g/m*3 0.58 C 0 km/h
1910 21-12-2010 17:00:00 0.16 C 4.28 g/m*3 0.16 C 0 km/h
1911 21-12-2010 18:00:00 0.18 C 4.38 g/m*3 0.18 C 0 km/h
1912 21-12-2010 19:00:00 0.12 C 4.4 g/m*3 0.12 C 0 km/h
1913 21-12-2010 20:00:00 0.12 C 4.4 g/m*3 0.12 C 0 km/h
1914 21-12-2010 21:00:00 0.12 C 4.45 g/m*3 0.12 C 0 km/h
1915 21-12-2010 22:00:00 0.15 C 4.45 g/m*3 0.15 C 0 km/h
1916 21-12-2010 23:00:00 0.12 C 4.45 g/m*3 0.12 C 0 km/h
1917 22-12-2010 00:00:00 0.1 C 4.48 g/m*3 0.1 C 0 km/h
1918 22-12-2010 01:00:00 0.16 C 4.51 g/m*3 0.16 C 0 km/h
1919 22-12-2010 02:00:00 0.2 C 4.52 g/m*3 0.2 C 0 km/h
1920 22-12-2010 03:00:00 0.16 C 4.51 g/m*3 0.16 C 0 km/h
1921 22-12-2010 04:00:00 0.28 C 4.54 g/m*3 0.28 C 0 km/h
1922 22-12-2010 05:00:00 0.3 C 4.55 g/m*3 0.3 C 0 km/h
1923 22-12-2010 06:00:00 0.3 C 4.55 g/m*3 0.3 C 0 km/h
1924 22-12-2010 07:00:00 0.3 C 4.57 g/m*3 0.3 C 0 km/h
1925 22-12-2010 08:00:00 0.34 C 4.61 g/m*3 0.34 C 0 km/h
Sensor: Nr:Datum:Temp:Abs-Feuchte:Windchill:Wind:
Aussen-T/F 1926 22-12-2010 09:00:00 0.7 C 4.73 g/m*3 0.7 C 0 km/h
1927 22-12-2010 10:00:00 1.38 C 4.9 g/m*3 1.38 C 0 km/h
1928 22-12-2010 11:00:00 2.3 C 5.02 g/m*3 2.3 C 0 km/h
1929 22-12-2010 12:00:00 2.76 C 4.89 g/m*3 2.76 C 0 km/h
1930 22-12-2010 13:00:00 2.38 C 4.73 g/m*3 2.38 C 0 km/h
1931 22-12-2010 14:00:00 2.4 C 4.76 g/m*3 2.4 C 0 km/h
1932 22-12-2010 15:00:00 1.66 C 4.59 g/m*3 1.66 C 0 km/h
1933 22-12-2010 16:00:00 1.16 C 4.6 g/m*3 1.16 C 0 km/h
1934 22-12-2010 17:00:00 0.8 C 4.6 g/m*3 0.8 C 0 km/h
1935 22-12-2010 18:00:00 0.7 C 4.63 g/m*3 0.7 C 0 km/h
1936 22-12-2010 19:00:00 0.78 C 4.7 g/m*3 0.78 C 0 km/h
1937 22-12-2010 20:00:00 0.78 C 4.7 g/m*3 0.78 C 0 km/h
1938 22-12-2010 21:00:00 0.8 C 4.71 g/m*3 0.8 C 0 km/h
1939 22-12-2010 22:00:00 0.7 C 4.68 g/m*3 0.7 C 0 km/h
1940 22-12-2010 23:00:00 0.7 C 4.68 g/m*3 0.7 C 0 km/h
1941 23-12-2010 00:00:00 0.76 C 4.74 g/m*3 0.76 C 0 km/h
1942 23-12-2010 01:00:00 0.7 C 4.73 g/m*3 0.7 C 0 km/h
1943 23-12-2010 02:00:00 0.7 C 4.73 g/m*3 0.7 C 0 km/h
1944 23-12-2010 03:00:00 0.7 C 4.73 g/m*3 0.7 C 0 km/h
1945 23-12-2010 04:00:00 0.66 C 4.72 g/m*3 0.66 C 0 km/h
1946 23-12-2010 05:00:00 0.48 C 4.66 g/m*3 0.48 C 0 km/h
1947 23-12-2010 06:00:00 0.34 C 4.61 g/m*3 0.34 C 0 km/h
1948 23-12-2010 07:00:00 0 C 4.51 g/m*3 0 C 0 km/h
1949 23-12-2010 08:00:00 -0.32 C 4.39 g/m*3 -0.32 C 0 km/h
1950 23-12-2010 09:00:00 -0.5 C 4.31 g/m*3 -0.5 C 0 km/h
Sensor: Nr:Datum:Temp:Abs-Feuchte:Windchill:Wind:
Aussen-T/F 1951 23-12-2010 10:00:00 -0.54 C 4.27 g/m*3 -0.54 C 0 km/h
1952 23-12-2010 11:00:00 -0.58 C 4.19 g/m*3 -0.58 C 0 km/h
1953 23-12-2010 12:00:00 -0.68 C 4.06 g/m*3 -0.68 C 0 km/h
1954 23-12-2010 13:00:00 -0.66 C 4 g/m*3 -0.66 C 0 km/h
1955 23-12-2010 14:00:00 -0.62 C 3.99 g/m*3 -0.62 C 0 km/h
1956 23-12-2010 15:00:00 -0.86 C 3.93 g/m*3 -0.86 C 0 km/h
1957 23-12-2010 16:00:00 -0.9 C 3.96 g/m*3 -0.9 C 0 km/h
1958 23-12-2010 17:00:00 -1.02 C 3.93 g/m*3 -1.02 C 0 km/h
1959 23-12-2010 18:00:00 -1.14 C 3.89 g/m*3 -1.14 C 0 km/h
1960 23-12-2010 19:00:00 -1.26 C 3.84 g/m*3 -1.26 C 0 km/h
1961 23-12-2010 20:00:00 -1.26 C 3.84 g/m*3 -1.26 C 0 km/h
1962 23-12-2010 21:00:00 -1.1 C 3.86 g/m*3 -1.1 C 0 km/h
1963 23-12-2010 22:00:00 -0.94 C 3.92 g/m*3 -0.94 C 0 km/h
1964 23-12-2010 23:00:00 -0.8 C 3.98 g/m*3 -0.8 C 0 km/h
1965 24-12-2010 00:00:00 -0.9 C 3.91 g/m*3 -0.9 C 0 km/h
1966 24-12-2010 01:00:00 -0.74 C 3.98 g/m*3 -0.74 C 0 km/h
1967 24-12-2010 02:00:00 -0.5 C 4.03 g/m*3 -0.5 C 0 km/h
1968 24-12-2010 03:00:00 -0.48 C 4.03 g/m*3 -0.48 C 0 km/h
1969 24-12-2010 04:00:00 -0.5 C 4.03 g/m*3 -0.5 C 0 km/h
1970 24-12-2010 05:00:00 -0.74 C 3.91 g/m*3 -0.74 C 0 km/h
1971 24-12-2010 06:00:00 -0.96 C 3.79 g/m*3 -0.96 C 0 km/h
1972 24-12-2010 07:00:00 -1.2 C 3.64 g/m*3 -1.2 C 0 km/h
1973 24-12-2010 08:00:00 -1.48 C 3.64 g/m*3 -1.48 C 0 km/h
1974 24-12-2010 09:00:00 -1.7 C 3.66 g/m*3 -1.7 C 0 km/h
1975 24-12-2010 10:00:00 -1.54 C 3.68 g/m*3 -1.54 C 0 km/h
Sensor: Nr:Datum:Temp:Abs-Feuchte:Windchill:Wind:
Aussen-T/F 1976 24-12-2010 11:00:00 -1.32 C 3.67 g/m*3 -1.32 C 0 km/h
1977 24-12-2010 12:00:00 -1.34 C 3.58 g/m*3 -1.34 C 0 km/h
1978 24-12-2010 13:00:00 -1.38 C 3.52 g/m*3 -1.38 C 0 km/h
1979 24-12-2010 14:00:00 -1.4 C 3.52 g/m*3 -1.4 C 0 km/h
1980 24-12-2010 15:00:00 -1.84 C 3.46 g/m*3 -1.84 C 0 km/h
1981 24-12-2010 16:00:00 -2.42 C 3.35 g/m*3 -2.42 C 0 km/h
1982 24-12-2010 17:00:00 -2.56 C 3.22 g/m*3 -2.56 C 0 km/h
1983 24-12-2010 18:00:00 -2.8 C 3.23 g/m*3 -2.8 C 0 km/h
1984 24-12-2010 19:00:00 -2.94 C 3.13 g/m*3 -2.94 C 0 km/h
1985 24-12-2010 20:00:00 -3.02 C 3.11 g/m*3 -3.02 C 0 km/h
1986 24-12-2010 21:00:00 -3.23333 C 3.06 g/m*3 -3.23 C 0 km/h
1987 24-12-2010 22:00:00 -3.56 C 3.02 g/m*3 -3.56 C 0 km/h
1988 24-12-2010 23:00:00 -3.74 C 2.98 g/m*3 -3.74 C 0 km/h
1989 25-12-2010 00:00:00 -3.82 C 2.94 g/m*3 -3.82 C 0 km/h
1990 25-12-2010 01:00:00 -3.92 C 2.88 g/m*3 -3.92 C 0 km/h
1991 25-12-2010 02:00:00 -4.08 C 2.87 g/m*3 -4.08 C 0 km/h
1992 25-12-2010 03:00:00 -4.16 C 2.81 g/m*3 -4.16 C 0 km/h
1993 25-12-2010 04:00:00 -4.26 C 2.68 g/m*3 -4.26 C 0 km/h
1994 25-12-2010 05:00:00 -4.46 C 2.58 g/m*3 -4.46 C 0 km/h
1995 25-12-2010 06:00:00 -4.62 C 2.51 g/m*3 -4.62 C 0 km/h
1996 25-12-2010 07:00:00 -4.72 C 2.45 g/m*3 -4.72 C 0 km/h
1997 25-12-2010 08:00:00 -4.8 C 2.47 g/m*3 -4.8 C 0 km/h
1998 25-12-2010 09:00:00 -4.82 C 2.44 g/m*3 -4.82 C 0 km/h
1999 25-12-2010 10:00:00 -4.58 C 2.36 g/m*3 -4.58 C 0 km/h
2000 25-12-2010 11:00:00 -4.5 C 2.18 g/m*3 -4.5 C 0 km/h
Sensor: Nr:Datum:Temp:Abs-Feuchte:Windchill:Wind:
Aussen-T/F 2001 25-12-2010 12:00:00 -4.98 C 2.07 g/m*3 -4.98 C 0 km/h
2002 25-12-2010 13:00:00 -4.72 C 2.18 g/m*3 -4.72 C 0 km/h
2003 25-12-2010 14:00:00 -4.92 C 2.1 g/m*3 -4.92 C 0 km/h
2004 25-12-2010 15:00:00 -5.54 C 2.09 g/m*3 -5.54 C 0 km/h
2005 25-12-2010 16:00:00 -6.82 C 2.12 g/m*3 -6.82 C 0 km/h
2006 25-12-2010 17:00:00 -7.52 C 2.13 g/m*3 -7.52 C 0 km/h
2007 25-12-2010 18:00:00 -7.46 C 2.17 g/m*3 -7.46 C 0 km/h
2008 25-12-2010 19:00:00 -7.4 C 2.17 g/m*3 -7.4 C 0 km/h
2009 25-12-2010 20:00:00 -8.34 C 2.11 g/m*3 -8.34 C 0 km/h
2010 25-12-2010 21:00:00 -7.4 C 2.32 g/m*3 -7.4 C 0 km/h
2011 25-12-2010 22:00:00 -6.8 C 2.31 g/m*3 -6.8 C 0 km/h
2012 25-12-2010 23:00:00 -6.82 C 2.18 g/m*3 -6.82 C 0 km/h
2013 26-12-2010 00:00:00 -7.08 C 2.12 g/m*3 -7.08 C 0 km/h
2014 26-12-2010 01:00:00 -8 C 1.99 g/m*3 -8 C 0 km/h
2015 26-12-2010 02:00:00 -8.78 C 1.88 g/m*3 -8.78 C 0 km/h
2016 26-12-2010 03:00:00 -9.04 C 1.82 g/m*3 -9.04 C 0 km/h
2017 26-12-2010 04:00:00 -9.04 C 1.85 g/m*3 -9.04 C 0 km/h
2018 26-12-2010 05:00:00 -8.44 C 1.94 g/m*3 -8.44 C 0 km/h
2019 26-12-2010 06:00:00 -7.24 C 2.11 g/m*3 -7.24 C 0 km/h
2020 26-12-2010 07:00:00 -6.34 C 2.24 g/m*3 -6.34 C 0 km/h
2021 26-12-2010 08:00:00 -5.84 C 2.36 g/m*3 -5.84 C 0 km/h
2022 26-12-2010 09:00:00 -4.88 C 2.6 g/m*3 -4.88 C 0 km/h
2023 26-12-2010 10:00:00 -4.24 C 2.68 g/m*3 -4.24 C 0 km/h
2024 26-12-2010 11:00:00 -3.52 C 2.69 g/m*3 -3.52 C 0 km/h
2025 26-12-2010 12:00:00 -3.14 C 2.78 g/m*3 -3.14 C 0 km/h
Sensor: Nr:Datum:Temp:Abs-Feuchte:Windchill:Wind:
Aussen-T/F 2026 26-12-2010 13:00:00 -2.72 C 2.85 g/m*3 -2.72 C 0 km/h
2027 26-12-2010 14:00:00 -2.66 C 3 g/m*3 -2.66 C 0 km/h
2028 26-12-2010 15:00:00 -2.72 C 3.13 g/m*3 -2.72 C 0 km/h
2029 26-12-2010 16:00:00 -2.86 C 3.16 g/m*3 -2.86 C 0 km/h
2030 26-12-2010 17:00:00 -2.82 C 3.17 g/m*3 -2.82 C 0 km/h
2031 26-12-2010 18:00:00 -2.9 C 3.17 g/m*3 -2.9 C 0 km/h
2032 26-12-2010 19:00:00 -2.72 C 3.18 g/m*3 -2.72 C 0 km/h
2033 26-12-2010 20:00:00 -3.04 C 3.16 g/m*3 -3.04 C 0 km/h
2034 26-12-2010 21:00:00 -3.3 C 3.08 g/m*3 -3.3 C 0 km/h
2035 26-12-2010 22:00:00 -3.04 C 3.13 g/m*3 -3.04 C 0 km/h
2036 26-12-2010 23:00:00 -2.72 C 3.18 g/m*3 -2.72 C 0 km/h
2037 27-12-2010 00:00:00 -2.64 C 3.22 g/m*3 -2.64 C 0 km/h
2038 27-12-2010 01:00:00 -1.92 C 3.31 g/m*3 -1.92 C 0 km/h
2039 27-12-2010 02:00:00 -1.6 C 3.35 g/m*3 -1.6 C 0 km/h
2040 27-12-2010 03:00:00 -1.38 C 3.41 g/m*3 -1.38 C 0 km/h
2041 27-12-2010 04:00:00 -1.3 C 3.36 g/m*3 -1.3 C 0 km/h
2042 27-12-2010 05:00:00 -1.32 C 3.37 g/m*3 -1.32 C 0 km/h
2043 27-12-2010 06:00:00 -1.44 C 3.38 g/m*3 -1.44 C 0 km/h
2044 27-12-2010 07:00:00 -1.62 C 3.33 g/m*3 -1.62 C 0 km/h
2045 27-12-2010 08:00:00 -1.86 C 3.29 g/m*3 -1.86 C 0 km/h
2046 27-12-2010 09:00:00 -1.78 C 3.24 g/m*3 -1.78 C 0 km/h
2047 27-12-2010 10:00:00 -1.42 C 3.27 g/m*3 -1.42 C 0 km/h
2048 27-12-2010 11:00:00 -1.16 C 3.26 g/m*3 -1.16 C 0 km/h
2049 27-12-2010 12:00:00 -1.02 C 3.22 g/m*3 -1.02 C 0 km/h
2050 27-12-2010 13:00:00 -0.88 C 3.29 g/m*3 -0.88 C 0 km/h
Sensor: Nr:Datum:Temp:Abs-Feuchte:Windchill:Wind:
Aussen-T/F 2051 27-12-2010 14:00:00 -1.04 C 3.27 g/m*3 -1.04 C 0 km/h
2052 27-12-2010 15:00:00 -1.3 C 3.33 g/m*3 -1.3 C 0 km/h
2053 27-12-2010 16:00:00 -2.3 C 3.25 g/m*3 -2.3 C 0 km/h
2054 27-12-2010 17:00:00 -3.16 C 3.25 g/m*3 -3.16 C 0 km/h
2055 27-12-2010 18:00:00 -3.18 C 3.34 g/m*3 -3.18 C 0 km/h
2056 27-12-2010 19:00:00 -3.74 C 3.21 g/m*3 -3.74 C 0 km/h
2057 27-12-2010 20:00:00 -4.3 C 3.12 g/m*3 -4.3 C 0 km/h
2058 27-12-2010 21:00:00 -4.4 C 3.1 g/m*3 -4.4 C 0 km/h
2059 27-12-2010 22:00:00 -4.14 C 3.16 g/m*3 -4.14 C 0 km/h
2060 27-12-2010 23:00:00 -4.34 C 3.11 g/m*3 -4.34 C 0 km/h
2061 28-12-2010 00:00:00 -4.46 C 3.08 g/m*3 -4.46 C 0 km/h
2062 28-12-2010 01:00:00 -4.3 C 3.12 g/m*3 -4.3 C 0 km/h
2063 28-12-2010 02:00:00 -4.16 C 3.15 g/m*3 -4.16 C 0 km/h
2064 28-12-2010 03:00:00 -4.36 C 3.08 g/m*3 -4.36 C 0 km/h
2065 28-12-2010 04:00:00 -4.16 C 3.15 g/m*3 -4.16 C 0 km/h
2066 28-12-2010 05:00:00 -3.78 C 3.23 g/m*3 -3.78 C 0 km/h
2067 28-12-2010 06:00:00 -3.74 C 3.24 g/m*3 -3.74 C 0 km/h
2068 28-12-2010 07:00:00 -3.72 C 3.22 g/m*3 -3.72 C 0 km/h
2069 28-12-2010 08:00:00 -3.56 C 3.25 g/m*3 -3.56 C 0 km/h
2070 28-12-2010 09:00:00 -2.68 C 3.44 g/m*3 -2.68 C 0 km/h
2071 28-12-2010 10:00:00 -1.12 C 3.61 g/m*3 -1.12 C 0 km/h
2072 28-12-2010 11:00:00 -0.54 C 3.46 g/m*3 -0.54 C 0 km/h
2073 28-12-2010 12:00:00 0.3 C 3.31 g/m*3 0.3 C 0 km/h
2074 28-12-2010 13:00:00 0.36 C 3.32 g/m*3 0.36 C 0 km/h
2075 28-12-2010 14:00:00 0 C 3.33 g/m*3 0 C 0 km/h
Sensor: Nr:Datum:Temp:Abs-Feuchte:Windchill:Wind:
Aussen-T/F 2076 28-12-2010 15:00:00 -0.54 C 3.42 g/m*3 -0.54 C 0 km/h
2077 28-12-2010 16:00:00 -0.68 C 3.39 g/m*3 -0.68 C 0 km/h
2078 28-12-2010 17:00:00 -0.7 C 3.42 g/m*3 -0.7 C 0 km/h
2079 28-12-2010 18:00:00 -0.88 C 3.38 g/m*3 -0.88 C 0 km/h
2080 28-12-2010 19:00:00 -1.2 C 3.45 g/m*3 -1.2 C 0 km/h
2081 28-12-2010 20:00:00 -1.4 C 3.43 g/m*3 -1.4 C 0 km/h
2082 28-12-2010 21:00:00 -1.86 C 3.4 g/m*3 -1.86 C 0 km/h
2083 28-12-2010 22:00:00 -1.275 C 3.59 g/m*3 -1.27 C 0 km/h
2084 28-12-2010 23:00:00 -1.28 C 3.58 g/m*3 -1.28 C 0 km/h
2085 29-12-2010 00:00:00 -1.32 C 3.56 g/m*3 -1.32 C 0 km/h
2086 29-12-2010 01:00:00 -1.3 C 3.62 g/m*3 -1.3 C 0 km/h
2087 29-12-2010 02:00:00 -1.3 C 3.64 g/m*3 -1.3 C 0 km/h
2088 29-12-2010 03:00:00 -1.22 C 3.68 g/m*3 -1.22 C 0 km/h
2089 29-12-2010 04:00:00 -1.28 C 3.66 g/m*3 -1.28 C 0 km/h
2090 29-12-2010 05:00:00 -1.3 C 3.67 g/m*3 -1.3 C 0 km/h
2091 29-12-2010 06:00:00 -1.2 C 3.73 g/m*3 -1.2 C 0 km/h
2092 29-12-2010 07:00:00 -1.1 C 3.79 g/m*3 -1.1 C 0 km/h
2093 29-12-2010 08:00:00 -1.1 C 3.83 g/m*3 -1.1 C 0 km/h
2094 29-12-2010 09:00:00 -0.74 C 3.88 g/m*3 -0.74 C 0 km/h
2095 29-12-2010 10:00:00 0.14 C 3.75 g/m*3 0.14 C 0 km/h
2096 29-12-2010 11:00:00 0.58 C 3.6 g/m*3 0.58 C 0 km/h
2097 29-12-2010 12:00:00 0.88 C 3.58 g/m*3 0.88 C 0 km/h
2098 29-12-2010 13:00:00 1.34 C 3.61 g/m*3 1.34 C 0 km/h
2099 29-12-2010 14:00:00 1.76 C 3.66 g/m*3 1.76 C 0 km/h
2100 29-12-2010 15:00:00 1.18 C 3.73 g/m*3 1.18 C 0 km/h
Sensor: Nr:Datum:Temp:Abs-Feuchte:Windchill:Wind:
Aussen-T/F 2101 29-12-2010 16:00:00 0.62 C 3.85 g/m*3 0.62 C 0 km/h
2102 29-12-2010 17:00:00 0.28 C 3.85 g/m*3 0.28 C 0 km/h
2103 29-12-2010 18:00:00 0.14 C 3.89 g/m*3 0.14 C 0 km/h
2104 29-12-2010 19:00:00 0.06 C 3.97 g/m*3 0.06 C 0 km/h
2105 29-12-2010 20:00:00 -0.04 C 3.96 g/m*3 -0.04 C 0 km/h
2106 29-12-2010 21:00:00 -0.18 C 3.92 g/m*3 -0.18 C 0 km/h
2107 29-12-2010 22:00:00 -0.32 C 3.84 g/m*3 -0.32 C 0 km/h
2108 29-12-2010 23:00:00 -0.7 C 3.79 g/m*3 -0.7 C 0 km/h
2109 30-12-2010 00:00:00 -0.925 C 3.79 g/m*3 -0.93 C 0 km/h
2110 30-12-2010 01:00:00 -1.32 C 3.7 g/m*3 -1.32 C 0 km/h
2111 30-12-2010 02:00:00 -1.46 C 3.75 g/m*3 -1.46 C 0 km/h
2112 30-12-2010 03:00:00 -1.14 C 3.85 g/m*3 -1.14 C 0 km/h
2113 30-12-2010 04:00:00 -1.14 C 3.76 g/m*3 -1.14 C 0 km/h
2114 30-12-2010 05:00:00 -2.82 C 3.25 g/m*3 -2.82 C 0 km/h
2115 30-12-2010 06:00:00 -1.24 C 3.53 g/m*3 -1.24 C 0 km/h
2116 30-12-2010 07:00:00 -1.34 C 3.44 g/m*3 -1.34 C 0 km/h
2117 30-12-2010 08:00:00 -1.4 C 3.45 g/m*3 -1.4 C 0 km/h
2118 30-12-2010 09:00:00 -1.1 C 3.47 g/m*3 -1.1 C 0 km/h
2119 30-12-2010 10:00:00 -0.45 C 3.46 g/m*3 -0.45 C 0 km/h
2120 30-12-2010 11:00:00 0.08 C 3.53 g/m*3 0.08 C 0 km/h
2121 30-12-2010 12:00:00 0.6 C 3.59 g/m*3 0.6 C 0 km/h
2122 30-12-2010 13:00:00 1.2 C 3.59 g/m*3 1.2 C 0 km/h
2123 30-12-2010 14:00:00 1.32 C 3.61 g/m*3 1.32 C 0 km/h
2124 30-12-2010 15:00:00 0.98 C 3.67 g/m*3 0.98 C 0 km/h
2125 30-12-2010 16:00:00 0.3 C 3.73 g/m*3 0.3 C 0 km/h
Sensor: Nr:Datum:Temp:Abs-Feuchte:Windchill:Wind:
Aussen-T/F 2126 30-12-2010 17:00:00 0.04 C 3.74 g/m*3 0.04 C 0 km/h
2127 30-12-2010 18:00:00 -0.3 C 3.68 g/m*3 -0.3 C 0 km/h
2128 30-12-2010 19:00:00 -0.44 C 3.75 g/m*3 -0.44 C 0 km/h
2129 30-12-2010 20:00:00 -0.48 C 3.71 g/m*3 -0.48 C 0 km/h
2130 30-12-2010 21:00:00 -0.6 C 3.63 g/m*3 -0.6 C 0 km/h
2131 30-12-2010 22:00:00 -0.78 C 3.59 g/m*3 -0.78 C 0 km/h
2132 30-12-2010 23:00:00 -0.96 C 3.51 g/m*3 -0.96 C 0 km/h
2133 31-12-2010 00:00:00 -1.1 C 3.49 g/m*3 -1.1 C 0 km/h
2134 31-12-2010 01:00:00 -1.14 C 3.54 g/m*3 -1.14 C 0 km/h
2135 31-12-2010 02:00:00 -1.34 C 3.49 g/m*3 -1.34 C 0 km/h
2136 31-12-2010 03:00:00 -1.76 C 3.4 g/m*3 -1.76 C 0 km/h
2137 31-12-2010 04:00:00 -1.98 C 3.38 g/m*3 -1.98 C 0 km/h
2138 31-12-2010 05:00:00 -2.12 C 3.34 g/m*3 -2.12 C 0 km/h
2139 31-12-2010 06:00:00 -2.26 C 3.29 g/m*3 -2.26 C 0 km/h
2140 31-12-2010 07:00:00 -2.12 C 3.36 g/m*3 -2.12 C 0 km/h
2141 31-12-2010 08:00:00 -2.12 C 3.39 g/m*3 -2.12 C 0 km/h
2142 31-12-2010 09:00:00 -2.18 C 3.35 g/m*3 -2.18 C 0 km/h
2143 31-12-2010 10:00:00 -1.9 C 3.35 g/m*3 -1.9 C 0 km/h
2144 31-12-2010 11:00:00 -1.22 C 3.38 g/m*3 -1.22 C 0 km/h
2145 31-12-2010 12:00:00 -0.92 C 3.41 g/m*3 -0.92 C 0 km/h
2146 31-12-2010 13:00:00 -0.18 C 3.46 g/m*3 -0.18 C 0 km/h
2147 31-12-2010 14:00:00 0.24 C 3.37 g/m*3 0.24 C 0 km/h
2148 31-12-2010 15:00:00 -0.34 C 3.43 g/m*3 -0.34 C 0 km/h
2149 31-12-2010 16:00:00 -0.56 C 3.52 g/m*3 -0.56 C 0 km/h
2150 31-12-2010 17:00:00 -0.6 C 3.63 g/m*3 -0.6 C 0 km/h
Sensor: Nr:Datum:Temp:Abs-Feuchte:Windchill:Wind:
Aussen-T/F 2151 31-12-2010 18:00:00 -0.54 C 3.76 g/m*3 -0.54 C 0 km/h
2152 31-12-2010 19:00:00 -0.6 C 3.82 g/m*3 -0.6 C 0 km/h
2153 31-12-2010 20:00:00 -0.64 C 3.94 g/m*3 -0.64 C 0 km/h
2154 31-12-2010 21:00:00 -0.58 C 4.02 g/m*3 -0.58 C 0 km/h
2155 31-12-2010 22:00:00 -0.38 C 4.11 g/m*3 -0.38 C 0 km/h
2156 31-12-2010 23:00:00 -0.325 C 4.12 g/m*3 -0.33 C 0 km/h
2157 01-01-2011 00:00:00 -0.32 C 4.12 g/m*3 -0.32 C 0 km/h
2158 01-01-2011 01:00:00 -0.28 C 4.18 g/m*3 -0.28 C 0 km/h
2159 01-01-2011 02:00:00 -0.14 C 4.22 g/m*3 -0.14 C 0 km/h
2160 01-01-2011 03:00:00 -0.13333 C 4.22 g/m*3 -0.13 C 0 km/h
2161 01-01-2011 04:00:00 -0.2 C 4.21 g/m*3 -0.2 C 0 km/h
2162 01-01-2011 05:00:00 -0.02 C 4.3 g/m*3 -0.02 C 0 km/h
2163 01-01-2011 06:00:00 0.36 C 4.29 g/m*3 0.36 C 0 km/h
2164 01-01-2011 07:00:00 0.5 C 4.25 g/m*3 0.5 C 0 km/h
2165 01-01-2011 08:00:00 0.82 C 4.3 g/m*3 0.82 C 0 km/h
2166 01-01-2011 09:00:00 1.08 C 4.38 g/m*3 1.08 C 0 km/h
2167 01-01-2011 10:00:00 1.36 C 4.59 g/m*3 1.36 C 0 km/h
2168 01-01-2011 11:00:00 1.94 C 4.68 g/m*3 1.94 C 0 km/h
2169 01-01-2011 12:00:00 2.44 C 4.63 g/m*3 2.44 C 0 km/h
2170 01-01-2011 13:00:00 2.92 C 4.62 g/m*3 2.92 C 0 km/h
2171 01-01-2011 14:00:00 2.54 C 4.63 g/m*3 2.54 C 0 km/h
2172 01-01-2011 15:00:00 2.02 C 4.64 g/m*3 2.02 C 0 km/h
2173 01-01-2011 16:00:00 1.58 C 4.73 g/m*3 1.58 C 0 km/h
2174 01-01-2011 17:00:00 1.34 C 4.75 g/m*3 1.34 C 0 km/h
2175 01-01-2011 18:00:00 1.46 C 4.87 g/m*3 1.46 C 0 km/h
Sensor: Nr:Datum:Temp:Abs-Feuchte:Windchill:Wind:
Aussen-T/F 2176 01-01-2011 19:00:00 1.96 C 5.05 g/m*3 1.96 C 0 km/h
2177 01-01-2011 20:00:00 1.72 C 4.93 g/m*3 1.72 C 0 km/h
2178 01-01-2011 21:00:00 1.18 C 4.73 g/m*3 1.18 C 0 km/h
2179 01-01-2011 22:00:00 1.06 C 4.73 g/m*3 1.06 C 0 km/h
2180 01-01-2011 23:00:00 0.3 C 4.5 g/m*3 0.3 C 0 km/h
2181 02-01-2011 00:00:00 0.18 C 4.5 g/m*3 0.18 C 0 km/h
2182 02-01-2011 01:00:00 0.32 C 4.57 g/m*3 0.32 C 0 km/h
2183 02-01-2011 02:00:00 0.36 C 4.61 g/m*3 0.36 C 0 km/h
2184 02-01-2011 03:00:00 0.44 C 4.64 g/m*3 0.44 C 0 km/h
2185 02-01-2011 04:00:00 0.5 C 4.65 g/m*3 0.5 C 0 km/h
2186 02-01-2011 05:00:00 0.28 C 4.54 g/m*3 0.28 C 0 km/h
2187 02-01-2011 06:00:00 0.3 C 4.54 g/m*3 0.3 C 0 km/h
2188 02-01-2011 07:00:00 0.3 C 4.47 g/m*3 0.3 C 0 km/h
2189 02-01-2011 08:00:00 0.12 C 4.34 g/m*3 0.12 C 0 km/h
2190 02-01-2011 09:00:00 0.54 C 4.48 g/m*3 0.54 C 0 km/h
2191 02-01-2011 10:00:00 1.42 C 4.47 g/m*3 1.42 C 0 km/h
2192 02-01-2011 11:00:00 1.8 C 4.16 g/m*3 1.8 C 0 km/h
2193 02-01-2011 12:00:00 2.06 C 4.16 g/m*3 2.06 C 0 km/h
2194 02-01-2011 13:00:00 2.5 C 4.14 g/m*3 2.5 C 0 km/h
2195 02-01-2011 14:00:00 2.22 C 4.07 g/m*3 2.22 C 0 km/h
2196 02-01-2011 15:00:00 1.7 C 4.03 g/m*3 1.7 C 0 km/h
2197 02-01-2011 16:00:00 1.44 C 4.19 g/m*3 1.44 C 0 km/h
2198 02-01-2011 17:00:00 0.66 C 4.36 g/m*3 0.66 C 0 km/h
2199 02-01-2011 18:00:00 0.62 C 4.45 g/m*3 0.62 C 0 km/h
2200 02-01-2011 19:00:00 0.58 C 4.44 g/m*3 0.58 C 0 km/h
Sensor: Nr:Datum:Temp:Abs-Feuchte:Windchill:Wind:
Aussen-T/F 2201 02-01-2011 20:00:00 0.42 C 4.36 g/m*3 0.42 C 0 km/h
2202 02-01-2011 21:00:00 0.18 C 4.32 g/m*3 0.18 C 0 km/h
2203 02-01-2011 22:00:00 0.2 C 4.29 g/m*3 0.2 C 0 km/h
2204 02-01-2011 23:00:00 0.12 C 4.3 g/m*3 0.12 C 0 km/h
2205 03-01-2011 00:00:00 0.12 C 4.34 g/m*3 0.12 C 0 km/h
2206 03-01-2011 01:00:00 0.06 C 4.28 g/m*3 0.06 C 0 km/h
2207 03-01-2011 02:00:00 -0.16 C 4.22 g/m*3 -0.16 C 0 km/h
2208 03-01-2011 03:00:00 -0.3 C 4.12 g/m*3 -0.3 C 0 km/h
2209 03-01-2011 04:00:00 -0.88 C 3.85 g/m*3 -0.88 C 0 km/h
2210 03-01-2011 05:00:00 -1.04 C 3.84 g/m*3 -1.04 C 0 km/h
2211 03-01-2011 06:00:00 -1.12 C 3.88 g/m*3 -1.12 C 0 km/h
2212 03-01-2011 07:00:00 -1.08 C 3.99 g/m*3 -1.08 C 0 km/h
2213 03-01-2011 08:00:00 -1.3 C 3.9 g/m*3 -1.3 C 0 km/h
2214 03-01-2011 09:00:00 -1.22 C 3.93 g/m*3 -1.22 C 0 km/h
2215 03-01-2011 10:00:00 -1.02 C 3.86 g/m*3 -1.02 C 0 km/h
2216 03-01-2011 11:00:00 -0.3 C 3.73 g/m*3 -0.3 C 0 km/h
2217 03-01-2011 12:00:00 0.26 C 3.73 g/m*3 0.26 C 0 km/h
2218 03-01-2011 13:00:00 0.92 C 3.81 g/m*3 0.92 C 0 km/h
2219 03-01-2011 14:00:00 0.86 C 3.86 g/m*3 0.86 C 0 km/h
2220 03-01-2011 15:00:00 -0.08 C 3.74 g/m*3 -0.08 C 0 km/h
2221 03-01-2011 16:00:00 -1.54 C 3.65 g/m*3 -1.54 C 0 km/h
2222 03-01-2011 17:00:00 -2.46 C 3.53 g/m*3 -2.46 C 0 km/h
2223 03-01-2011 18:00:00 -1.3 C 3.93 g/m*3 -1.3 C 0 km/h
2224 03-01-2011 19:00:00 -1.22 C 3.98 g/m*3 -1.22 C 0 km/h
2225 03-01-2011 20:00:00 -2 C 3.76 g/m*3 -2 C 0 km/h
Sensor: Nr:Datum:Temp:Abs-Feuchte:Windchill:Wind:
Aussen-T/F 2226 03-01-2011 21:00:00 -2.5 C 3.63 g/m*3 -2.5 C 0 km/h
2227 03-01-2011 22:00:00 -1.6 C 3.9 g/m*3 -1.6 C 0 km/h
2228 03-01-2011 23:00:00 -3 C 3.53 g/m*3 -3 C 0 km/h
2229 04-01-2011 00:00:00 -3.64 C 3.38 g/m*3 -3.64 C 0 km/h
2230 04-01-2011 01:00:00 -3.94 C 3.29 g/m*3 -3.94 C 0 km/h
2231 04-01-2011 02:00:00 -3.3 C 3.46 g/m*3 -3.3 C 0 km/h
2232 04-01-2011 03:00:00 -3.18 C 3.47 g/m*3 -3.18 C 0 km/h
2233 04-01-2011 04:00:00 -3.44 C 3.4 g/m*3 -3.44 C 0 km/h
2234 04-01-2011 05:00:00 -3.74 C 3.3 g/m*3 -3.74 C 0 km/h
2235 04-01-2011 06:00:00 -3.84 C 3.27 g/m*3 -3.84 C 0 km/h
2236 04-01-2011 07:00:00 -2.72 C 3.57 g/m*3 -2.72 C 0 km/h
2237 04-01-2011 08:00:00 -2.14 C 3.76 g/m*3 -2.14 C 0 km/h
2238 04-01-2011 09:00:00 -1.88 C 3.83 g/m*3 -1.88 C 0 km/h
2239 04-01-2011 10:00:00 -1.02 C 4.06 g/m*3 -1.02 C 0 km/h
2240 04-01-2011 11:00:00 -0.42 C 4.05 g/m*3 -0.42 C 0 km/h
2241 04-01-2011 12:00:00 -0.26 C 3.46 g/m*3 -0.26 C 0 km/h
2242 04-01-2011 13:00:00 0.1 C 3.4 g/m*3 0.1 C 0 km/h
2243 04-01-2011 14:00:00 0.06 C 3.33 g/m*3 0.06 C 0 km/h
2244 04-01-2011 15:00:00 -0.92 C 3.25 g/m*3 -0.92 C 0 km/h
2245 04-01-2011 16:00:00 -1.18 C 3.26 g/m*3 -1.18 C 0 km/h
2246 04-01-2011 17:00:00 -2 C 3.21 g/m*3 -2 C 0 km/h
2247 04-01-2011 18:00:00 -2.22 C 3.18 g/m*3 -2.22 C 0 km/h
2248 04-01-2011 19:00:00 -3.56 C 2.94 g/m*3 -3.56 C 0 km/h
2249 04-01-2011 20:00:00 -4.2 C 2.89 g/m*3 -4.2 C 0 km/h
2250 04-01-2011 21:00:00 -3.72 C 2.98 g/m*3 -3.72 C 0 km/h
Sensor: Nr:Datum:Temp:Abs-Feuchte:Windchill:Wind:
Aussen-T/F 2251 04-01-2011 22:00:00 -2.82 C 2.86 g/m*3 -2.82 C 0 km/h
2252 04-01-2011 23:00:00 -2.82 C 2.83 g/m*3 -2.82 C 0 km/h
2253 05-01-2011 00:00:00 -2.88 C 2.88 g/m*3 -2.88 C 0 km/h
2254 05-01-2011 01:00:00 -2.98 C 2.74 g/m*3 -2.98 C 0 km/h
2255 05-01-2011 02:00:00 -2.92 C 2.75 g/m*3 -2.92 C 0 km/h
2256 05-01-2011 03:00:00 -2.96 C 2.76 g/m*3 -2.96 C 0 km/h
2257 05-01-2011 04:00:00 -3.56 C 2.54 g/m*3 -3.56 C 0 km/h
2258 05-01-2011 05:00:00 -4.06 C 2.5 g/m*3 -4.06 C 0 km/h
2259 05-01-2011 06:00:00 -4.88 C 2.36 g/m*3 -4.88 C 0 km/h
2260 05-01-2011 07:00:00 -6.04 C 2.24 g/m*3 -6.04 C 0 km/h
2261 05-01-2011 08:00:00 -7.46 C 2.16 g/m*3 -7.46 C 0 km/h
2262 05-01-2011 09:00:00 -6.64 C 2.35 g/m*3 -6.64 C 0 km/h
2263 05-01-2011 10:00:00 -4.26 C 2.44 g/m*3 -4.26 C 0 km/h
2264 05-01-2011 11:00:00 -3.2 C 2.38 g/m*3 -3.2 C 0 km/h
2265 05-01-2011 12:00:00 -3.68 C 2.34 g/m*3 -3.68 C 0 km/h
2266 05-01-2011 13:00:00 -3.76 C 2.43 g/m*3 -3.76 C 0 km/h
2267 05-01-2011 14:00:00 -3.38 C 2.52 g/m*3 -3.38 C 0 km/h
2268 05-01-2011 15:00:00 -3.74 C 2.56 g/m*3 -3.74 C 0 km/h
2269 05-01-2011 16:00:00 -4.44 C 2.56 g/m*3 -4.44 C 0 km/h
2270 05-01-2011 17:00:00 -5.7 C 2.52 g/m*3 -5.7 C 0 km/h
2271 05-01-2011 18:00:00 -5.7 C 2.6 g/m*3 -5.7 C 0 km/h
2272 05-01-2011 19:00:00 -3.86 C 2.93 g/m*3 -3.86 C 0 km/h
2273 05-01-2011 20:00:00 -2.66 C 3.07 g/m*3 -2.66 C 0 km/h
2274 05-01-2011 21:00:00 -1.68 C 3.21 g/m*3 -1.68 C 0 km/h
2275 05-01-2011 22:00:00 -1.06 C 3.5 g/m*3 -1.06 C 0 km/h
Sensor: Nr:Datum:Temp:Abs-Feuchte:Windchill:Wind:
Aussen-T/F 2276 05-01-2011 23:00:00 -0.56 C 3.76 g/m*3 -0.56 C 0 km/h
2277 06-01-2011 00:00:00 -0.58 C 3.83 g/m*3 -0.58 C 0 km/h
2278 06-01-2011 01:00:00 -0.22 C 3.97 g/m*3 -0.22 C 0 km/h
2279 06-01-2011 02:00:00 0.3 C 4.29 g/m*3 0.3 C 0 km/h
2280 06-01-2011 03:00:00 0.64 C 4.54 g/m*3 0.64 C 0 km/h
2281 06-01-2011 04:00:00 0.88 C 4.68 g/m*3 0.88 C 0 km/h
2282 06-01-2011 05:00:00 1.04 C 4.74 g/m*3 1.04 C 0 km/h
2283 06-01-2011 06:00:00 1.26 C 4.86 g/m*3 1.26 C 0 km/h
2284 06-01-2011 07:00:00 1.38 C 4.9 g/m*3 1.38 C 0 km/h
2285 06-01-2011 08:00:00 1.54 C 4.97 g/m*3 1.54 C 0 km/h
2286 06-01-2011 09:00:00 2.54 C 5.3 g/m*3 2.54 C 0 km/h
2287 06-01-2011 10:00:00 4.5 C 6.03 g/m*3 4.5 C 0 km/h
2288 06-01-2011 11:00:00 6.08 C 6.27 g/m*3 6.08 C 0 km/h
2289 06-01-2011 12:00:00 5.34 C 5.8 g/m*3 5.34 C 0 km/h
2290 06-01-2011 13:00:00 4.5 C 5.69 g/m*3 4.5 C 0 km/h
2291 06-01-2011 14:00:00 4.12 C 5.59 g/m*3 4.12 C 0 km/h
2292 06-01-2011 15:00:00 3.94 C 5.62 g/m*3 3.94 C 0 km/h
2293 06-01-2011 16:00:00 3.92 C 5.65 g/m*3 3.92 C 0 km/h
2294 06-01-2011 17:00:00 4.14 C 5.79 g/m*3 4.14 C 0 km/h
2295 06-01-2011 18:00:00 4.6 C 6.02 g/m*3 4.6 C 0 km/h
2296 06-01-2011 19:00:00 5.02 C 6.23 g/m*3 5.02 C 0 km/h
2297 06-01-2011 20:00:00 7.36 C 7.14 g/m*3 7.36 C 0 km/h
2298 06-01-2011 21:00:00 8.56 C 7.35 g/m*3 8.56 C 0 km/h
2299 06-01-2011 22:00:00 9.5 C 7.14 g/m*3 9.5 C 0 km/h
2300 06-01-2011 23:00:00 9.08 C 7 g/m*3 9.08 C 0 km/h
Sensor: Nr:Datum:Temp:Abs-Feuchte:Windchill:Wind:
Aussen-T/F 2301 07-01-2011 00:00:00 7.38 C 6.64 g/m*3 7.38 C 0 km/h
2302 07-01-2011 01:00:00 6.64 C 6.66 g/m*3 6.64 C 0 km/h
2303 07-01-2011 02:00:00 5.82 C 6.46 g/m*3 5.82 C 0 km/h
2304 07-01-2011 03:00:00 5.62 C 6.44 g/m*3 5.62 C 0 km/h
2305 07-01-2011 04:00:00 5.36 C 6.33 g/m*3 5.36 C 0 km/h
2306 07-01-2011 05:00:00 5.28 C 6.34 g/m*3 5.28 C 0 km/h
2307 07-01-2011 06:00:00 4.9 C 6.18 g/m*3 4.9 C 0 km/h
2308 07-01-2011 07:00:00 5.04 C 6.27 g/m*3 5.04 C 0 km/h
2309 07-01-2011 08:00:00 4.88 C 6.2 g/m*3 4.88 C 0 km/h
2310 07-01-2011 09:00:00 4.9 C 6.21 g/m*3 4.9 C 0 km/h
2311 07-01-2011 10:00:00 5.5 C 6.43 g/m*3 5.5 C 0 km/h
2312 07-01-2011 11:00:00 6.76 C 6.94 g/m*3 6.76 C 0 km/h
2313 07-01-2011 12:00:00 7.28 C 7.12 g/m*3 7.28 C 0 km/h
2314 07-01-2011 13:00:00 7.38 C 7.12 g/m*3 7.38 C 0 km/h
2315 07-01-2011 14:00:00 7.42 C 7.13 g/m*3 7.42 C 0 km/h
2316 07-01-2011 15:00:00 7.18 C 7.06 g/m*3 7.18 C 0 km/h
2317 07-01-2011 16:00:00 7.06 C 7.02 g/m*3 7.06 C 0 km/h
2318 07-01-2011 17:00:00 7.52 C 7.29 g/m*3 7.52 C 0 km/h
2319 07-01-2011 18:00:00 9.32 C 8.08 g/m*3 9.32 C 0 km/h
2320 07-01-2011 19:00:00 9.44 C 7.83 g/m*3 9.44 C 0 km/h
2321 07-01-2011 20:00:00 8.9 C 7.78 g/m*3 8.9 C 0 km/h
2322 07-01-2011 21:00:00 9 C 7.86 g/m*3 9 C 0 km/h
2323 07-01-2011 22:00:00 8.7 C 7.66 g/m*3 8.7 C 0 km/h
2324 07-01-2011 23:00:00 8.76 C 7.71 g/m*3 8.76 C 0 km/h
2325 08-01-2011 00:00:00 8.64 C 7.5 g/m*3 8.64 C 0 km/h
Sensor: Nr:Datum:Temp:Abs-Feuchte:Windchill:Wind:
Aussen-T/F 2326 08-01-2011 01:00:00 7.46 C 7.09 g/m*3 7.46 C 0 km/h
2327 08-01-2011 02:00:00 6.72 C 6.89 g/m*3 6.72 C 0 km/h
2328 08-01-2011 03:00:00 7.92 C 7.5 g/m*3 7.92 C 0 km/h
2329 08-01-2011 04:00:00 7.88 C 7.51 g/m*3 7.88 C 0 km/h
2330 08-01-2011 05:00:00 7.94 C 7.56 g/m*3 7.94 C 0 km/h
2331 08-01-2011 06:00:00 7.98 C 7.63 g/m*3 7.98 C 0 km/h
2332 08-01-2011 07:00:00 8.16 C 7.7 g/m*3 8.16 C 0 km/h
2333 08-01-2011 08:00:00 8.34 C 7.81 g/m*3 8.34 C 0 km/h
2334 08-01-2011 09:00:00 8.7 C 7.94 g/m*3 8.7 C 0 km/h
2335 08-01-2011 10:00:00 7.78 C 7.48 g/m*3 7.78 C 0 km/h
2336 08-01-2011 11:00:00 10.2 C 7.88 g/m*3 10.2 C 0 km/h
2337 08-01-2011 12:00:00 13.1 C 6.6 g/m*3 13.1 C 0 km/h
2338 08-01-2011 13:00:00 14.18 C 6.07 g/m*3 14.18 C 0 km/h
2339 08-01-2011 14:00:00 14.4 C 5.86 g/m*3 14.4 C 0 km/h
2340 08-01-2011 15:00:00 14.12 C 5.86 g/m*3 14.12 C 0 km/h
2341 08-01-2011 16:00:00 13.6 C 5.86 g/m*3 13.6 C 0 km/h
2342 08-01-2011 17:00:00 13.28 C 5.91 g/m*3 13.28 C 0 km/h
2343 08-01-2011 18:00:00 13.44 C 5.87 g/m*3 13.44 C 0 km/h
2344 08-01-2011 19:00:00 13.16 C 5.93 g/m*3 13.16 C 0 km/h
2345 08-01-2011 20:00:00 12.32 C 6.35 g/m*3 12.32 C 0 km/h
2346 08-01-2011 21:00:00 12.04 C 6.6 g/m*3 12.04 C 0 km/h
2347 08-01-2011 22:00:00 11.94 C 6.56 g/m*3 11.94 C 0 km/h
2348 08-01-2011 23:00:00 10.32 C 7.13 g/m*3 10.32 C 0 km/h
2349 09-01-2011 00:00:00 9.64 C 7.66 g/m*3 9.64 C 0 km/h
2350 09-01-2011 01:00:00 9.62 C 7.98 g/m*3 9.62 C 0 km/h
Sensor: Nr:Datum:Temp:Abs-Feuchte:Windchill:Wind:
Aussen-T/F 2351 09-01-2011 02:00:00 9.78 C 7.93 g/m*3 9.78 C 0 km/h
2352 09-01-2011 03:00:00 9.32 C 7.77 g/m*3 9.32 C 0 km/h
2353 09-01-2011 04:00:00 10.92 C 7.59 g/m*3 10.92 C 0 km/h
2354 09-01-2011 05:00:00 11.08 C 7.1 g/m*3 11.08 C 0 km/h
2355 09-01-2011 06:00:00 7.3 C 6.54 g/m*3 7.3 C 0 km/h
2356 09-01-2011 07:00:00 6.12 C 6.39 g/m*3 6.12 C 0 km/h
2357 09-01-2011 08:00:00 5.16 C 6.04 g/m*3 5.16 C 0 km/h
2358 09-01-2011 09:00:00 3.98 C 5.5 g/m*3 3.98 C 0 km/h
2359 09-01-2011 10:00:00 3.02 C 5.18 g/m*3 3.02 C 0 km/h
2360 09-01-2011 11:00:00 4.1 C 5.47 g/m*3 4.1 C 0 km/h
2361 09-01-2011 12:00:00 4.56 C 5.39 g/m*3 4.56 C 0 km/h
2362 09-01-2011 13:00:00 5.08 C 5.33 g/m*3 5.08 C 0 km/h
2363 09-01-2011 14:00:00 5.24 C 5.26 g/m*3 5.24 C 0 km/h
2364 09-01-2011 15:00:00 4.58 C 5.43 g/m*3 4.58 C 0 km/h
2365 09-01-2011 16:00:00 3.26 C 5.29 g/m*3 3.26 C 0 km/h
2366 09-01-2011 17:00:00 2.78 C 5.24 g/m*3 2.78 C 0 km/h
2367 09-01-2011 18:00:00 1.76 C 4.96 g/m*3 1.76 C 0 km/h
2368 09-01-2011 19:00:00 1.8 C 5.04 g/m*3 1.8 C 0 km/h
2369 09-01-2011 20:00:00 1.24 C 4.84 g/m*3 1.24 C 0 km/h
2370 09-01-2011 21:00:00 0.64 C 4.68 g/m*3 0.64 C 0 km/h
2371 09-01-2011 22:00:00 0.075 C 4.49 g/m*3 0.08 C 0 km/h
2372 09-01-2011 23:00:00 0.02 C 4.51 g/m*3 0.02 C 0 km/h
2373 10-01-2011 00:00:00 0.16 C 4.56 g/m*3 0.16 C 0 km/h
2374 10-01-2011 01:00:00 0.28 C 4.61 g/m*3 0.28 C 0 km/h
2375 10-01-2011 02:00:00 0.02 C 4.55 g/m*3 0.02 C 0 km/h
Sensor: Nr:Datum:Temp:Abs-Feuchte:Windchill:Wind:
Aussen-T/F 2376 10-01-2011 03:00:00 0.2 C 4.62 g/m*3 0.2 C 0 km/h
2377 10-01-2011 04:00:00 0.38 C 4.68 g/m*3 0.38 C 0 km/h
2378 10-01-2011 05:00:00 0.26 C 4.63 g/m*3 0.26 C 0 km/h
2379 10-01-2011 06:00:00 0.2 C 4.57 g/m*3 0.2 C 0 km/h
2380 10-01-2011 07:00:00 0.1 C 4.54 g/m*3 0.1 C 0 km/h
2381 10-01-2011 08:00:00 0.18 C 4.5 g/m*3 0.18 C 0 km/h
2382 10-01-2011 09:00:00 0.32 C 4.45 g/m*3 0.32 C 0 km/h
2383 10-01-2011 10:00:00 0.54 C 4.37 g/m*3 0.54 C 0 km/h
2384 10-01-2011 11:00:00 0.88 C 4.22 g/m*3 0.88 C 0 km/h
2385 10-01-2011 12:00:00 1.78 C 4.3 g/m*3 1.78 C 0 km/h
2386 10-01-2011 13:00:00 2.1 C 4.39 g/m*3 2.1 C 0 km/h
2387 10-01-2011 14:00:00 2.26 C 4.42 g/m*3 2.26 C 0 km/h
2388 10-01-2011 15:00:00 2.1 C 4.36 g/m*3 2.1 C 0 km/h
2389 10-01-2011 16:00:00 1.86 C 4.33 g/m*3 1.86 C 0 km/h
2390 10-01-2011 17:00:00 0.84 C 4.24 g/m*3 0.84 C 0 km/h
2391 10-01-2011 18:00:00 0.22 C 4.16 g/m*3 0.22 C 0 km/h
2392 10-01-2011 19:00:00 0.26 C 4.32 g/m*3 0.26 C 0 km/h
2393 10-01-2011 20:00:00 0.68 C 4.35 g/m*3 0.68 C 0 km/h
2394 10-01-2011 21:00:00 0.56 C 4.04 g/m*3 0.56 C 0 km/h
2395 10-01-2011 22:00:00 0.5 C 4.05 g/m*3 0.5 C 0 km/h
2396 10-01-2011 23:00:00 0.54 C 4.04 g/m*3 0.54 C 0 km/h
2397 11-01-2011 00:00:00 0.16 C 3.93 g/m*3 0.16 C 0 km/h
2398 11-01-2011 01:00:00 -0.12 C 4.08 g/m*3 -0.12 C 0 km/h
2399 11-01-2011 02:00:00 0.78 C 4.17 g/m*3 0.78 C 0 km/h
2400 11-01-2011 03:00:00 0.72 C 4.05 g/m*3 0.72 C 0 km/h
Sensor: Nr:Datum:Temp:Abs-Feuchte:Windchill:Wind:
Aussen-T/F 2401 11-01-2011 04:00:00 0.42 C 4.05 g/m*3 0.42 C 0 km/h
2402 11-01-2011 05:00:00 1.1 C 4.13 g/m*3 1.1 C 0 km/h
2403 11-01-2011 06:00:00 1.26 C 4.2 g/m*3 1.26 C 0 km/h
2404 11-01-2011 07:00:00 1.42 C 4.33 g/m*3 1.42 C 0 km/h
2405 11-01-2011 08:00:00 1.5 C 4.45 g/m*3 1.5 C 0 km/h
2406 11-01-2011 09:00:00 2.06 C 4.66 g/m*3 2.06 C 0 km/h
2407 11-01-2011 10:00:00 3.04 C 4.63 g/m*3 3.04 C 0 km/h
2408 11-01-2011 11:00:00 3.28 C 4.9 g/m*3 3.28 C 0 km/h
2409 11-01-2011 12:00:00 5.5 C 4.62 g/m*3 5.5 C 0 km/h
2410 11-01-2011 13:00:00 5.3 C 4.75 g/m*3 5.3 C 0 km/h
2411 11-01-2011 14:00:00 5.3 C 4.89 g/m*3 5.3 C 0 km/h
2412 11-01-2011 15:00:00 5.36 C 5.07 g/m*3 5.36 C 0 km/h
2413 11-01-2011 16:00:00 4.58 C 5.42 g/m*3 4.58 C 0 km/h
2414 11-01-2011 17:00:00 5.1 C 5.46 g/m*3 5.1 C 0 km/h
2415 11-01-2011 18:00:00 5.48 C 5.51 g/m*3 5.48 C 0 km/h
2416 11-01-2011 19:00:00 5.98 C 5.57 g/m*3 5.98 C 0 km/h
2417 11-01-2011 20:00:00 6.14 C 5.6 g/m*3 6.14 C 0 km/h
2418 11-01-2011 21:00:00 6.16 C 5.66 g/m*3 6.16 C 0 km/h
2419 11-01-2011 22:00:00 5.96 C 5.91 g/m*3 5.96 C 0 km/h
2420 11-01-2011 23:00:00 6 C 6.01 g/m*3 6 C 0 km/h
2421 12-01-2011 00:00:00 6.14 C 5.46 g/m*3 6.14 C 0 km/h
2422 12-01-2011 01:00:00 5.96 C 5.23 g/m*3 5.96 C 0 km/h
2423 12-01-2011 02:00:00 5.9 C 5.06 g/m*3 5.9 C 0 km/h
2424 12-01-2011 03:00:00 4.92 C 5.18 g/m*3 4.92 C 0 km/h
2425 12-01-2011 04:00:00 4.08 C 5.34 g/m*3 4.08 C 0 km/h
Sensor: Nr:Datum:Temp:Abs-Feuchte:Windchill:Wind:
Aussen-T/F 2426 12-01-2011 05:00:00 3.76 C 5.24 g/m*3 3.76 C 0 km/h
2427 12-01-2011 06:00:00 3.56 C 5.12 g/m*3 3.56 C 0 km/h
2428 12-01-2011 07:00:00 3.32 C 5.02 g/m*3 3.32 C 0 km/h
2429 12-01-2011 08:00:00 2.98 C 4.99 g/m*3 2.98 C 0 km/h
2430 12-01-2011 09:00:00 3.84 C 5.04 g/m*3 3.84 C 0 km/h
2431 12-01-2011 10:00:00 4.82 C 4.87 g/m*3 4.82 C 0 km/h
2432 12-01-2011 11:00:00 5.26 C 4.85 g/m*3 5.26 C 0 km/h
2433 12-01-2011 12:00:00 4.88 C 5.08 g/m*3 4.88 C 0 km/h
2434 12-01-2011 13:00:00 4.9 C 5.37 g/m*3 4.9 C 0 km/h
2435 12-01-2011 14:00:00 5.12 C 5.52 g/m*3 5.12 C 0 km/h
2436 12-01-2011 15:00:00 5.42 C 5.51 g/m*3 5.42 C 0 km/h
2437 12-01-2011 16:00:00 6.04 C 5.47 g/m*3 6.04 C 0 km/h
2438 12-01-2011 17:00:00 6.2 C 5.6 g/m*3 6.2 C 0 km/h
2439 12-01-2011 18:00:00 6.12 C 5.91 g/m*3 6.12 C 0 km/h
2440 12-01-2011 19:00:00 6.3 C 6.17 g/m*3 6.3 C 0 km/h
2441 12-01-2011 20:00:00 6.98 C 6.28 g/m*3 6.98 C 0 km/h
2442 12-01-2011 21:00:00 7.34 C 6.51 g/m*3 7.34 C 0 km/h
2443 12-01-2011 22:00:00 7.96 C 6.71 g/m*3 7.96 C 0 km/h
2444 12-01-2011 23:00:00 8.76 C 6.82 g/m*3 8.76 C 0 km/h
2445 13-01-2011 00:00:00 9.3 C 6.99 g/m*3 9.3 C 0 km/h
2446 13-01-2011 01:00:00 9.98 C 7.26 g/m*3 9.98 C 0 km/h
2447 13-01-2011 02:00:00 10.6 C 7.55 g/m*3 10.6 C 0 km/h
2448 13-01-2011 03:00:00 10.32 C 7.84 g/m*3 10.32 C 0 km/h
2449 13-01-2011 04:00:00 10.7 C 8.05 g/m*3 10.7 C 0 km/h
2450 13-01-2011 05:00:00 10.84 C 8.13 g/m*3 10.84 C 0 km/h
Sensor: Nr:Datum:Temp:Abs-Feuchte:Windchill:Wind:
Aussen-T/F 2451 13-01-2011 06:00:00 10.58 C 8.31 g/m*3 10.58 C 0 km/h
2452 13-01-2011 07:00:00 10.66 C 8.46 g/m*3 10.66 C 0 km/h
2453 13-01-2011 08:00:00 10.84 C 8.46 g/m*3 10.84 C 0 km/h
2454 13-01-2011 09:00:00 11.26 C 8.44 g/m*3 11.26 C 0 km/h
2455 13-01-2011 10:00:00 11.94 C 8.32 g/m*3 11.94 C 0 km/h
2456 13-01-2011 11:00:00 12.52 C 8.26 g/m*3 12.52 C 0 km/h
2457 13-01-2011 12:00:00 12.46 C 8.31 g/m*3 12.46 C 0 km/h
2458 13-01-2011 13:00:00 12.54 C 8.4 g/m*3 12.54 C 0 km/h
2459 13-01-2011 14:00:00 13.18 C 8.28 g/m*3 13.18 C 0 km/h
2460 13-01-2011 15:00:00 13.06 C 8.26 g/m*3 13.06 C 0 km/h
2461 13-01-2011 16:00:00 12.9 C 8.48 g/m*3 12.9 C 0 km/h
2462 13-01-2011 17:00:00 12.86 C 8.5 g/m*3 12.86 C 0 km/h
2463 13-01-2011 18:00:00 12.84 C 8.42 g/m*3 12.84 C 0 km/h
2464 13-01-2011 19:00:00 12.82 C 8.5 g/m*3 12.82 C 0 km/h
2465 13-01-2011 20:00:00 12.7 C 8.53 g/m*3 12.7 C 0 km/h
2466 13-01-2011 21:00:00 12.82 C 8.46 g/m*3 12.82 C 0 km/h
2467 13-01-2011 22:00:00 12.82 C 8.34 g/m*3 12.82 C 0 km/h
2468 13-01-2011 23:00:00 12.74 C 8.26 g/m*3 12.74 C 0 km/h
2469 14-01-2011 00:00:00 12.56 C 8.14 g/m*3 12.56 C 0 km/h
2470 14-01-2011 01:00:00 12.5 C 8.09 g/m*3 12.5 C 0 km/h
2471 14-01-2011 02:00:00 12.34 C 7.95 g/m*3 12.34 C 0 km/h
2472 14-01-2011 03:00:00 12.24 C 7.83 g/m*3 12.24 C 0 km/h
2473 14-01-2011 04:00:00 12.24 C 7.81 g/m*3 12.24 C 0 km/h
2474 14-01-2011 05:00:00 12.26 C 7.8 g/m*3 12.26 C 0 km/h
2475 14-01-2011 06:00:00 12.56 C 7.61 g/m*3 12.56 C 0 km/h
Sensor: Nr:Datum:Temp:Abs-Feuchte:Windchill:Wind:
Aussen-T/F 2476 14-01-2011 07:00:00 12.3 C 7.36 g/m*3 12.3 C 0 km/h
2477 14-01-2011 08:00:00 11.66 C 6.99 g/m*3 11.66 C 0 km/h
2478 14-01-2011 09:00:00 11.46 C 6.84 g/m*3 11.46 C 0 km/h
2479 14-01-2011 10:00:00 11.74 C 6.71 g/m*3 11.74 C 0 km/h
2480 14-01-2011 11:00:00 12.02 C 6.62 g/m*3 12.02 C 0 km/h
2481 14-01-2011 12:00:00 12.14 C 6.54 g/m*3 12.14 C 0 km/h
2482 14-01-2011 13:00:00 12 C 6.63 g/m*3 12 C 0 km/h
2483 14-01-2011 14:00:00 11.64 C 6.81 g/m*3 11.64 C 0 km/h
2484 14-01-2011 15:00:00 12.12 C 6.55 g/m*3 12.12 C 0 km/h
2485 14-01-2011 16:00:00 11.96 C 6.4 g/m*3 11.96 C 0 km/h
2486 14-01-2011 17:00:00 11.52 C 6.33 g/m*3 11.52 C 0 km/h
2487 14-01-2011 18:00:00 11.04 C 6.32 g/m*3 11.04 C 0 km/h
2488 14-01-2011 19:00:00 11.14 C 6.24 g/m*3 11.14 C 0 km/h
2489 14-01-2011 20:00:00 11.68 C 6.08 g/m*3 11.68 C 0 km/h
2490 14-01-2011 21:00:00 11.4 C 6.01 g/m*3 11.4 C 0 km/h
2491 14-01-2011 22:00:00 10.82 C 6.25 g/m*3 10.82 C 0 km/h
2492 14-01-2011 23:00:00 9.24 C 6.77 g/m*3 9.24 C 0 km/h
2493 15-01-2011 00:00:00 8.22 C 6.64 g/m*3 8.22 C 0 km/h
2494 15-01-2011 01:00:00 8.22 C 6.41 g/m*3 8.22 C 0 km/h
2495 15-01-2011 02:00:00 8.04 C 6.43 g/m*3 8.04 C 0 km/h
2496 15-01-2011 03:00:00 8.12 C 6.47 g/m*3 8.12 C 0 km/h
2497 15-01-2011 04:00:00 8.22 C 6.41 g/m*3 8.22 C 0 km/h
2498 15-01-2011 05:00:00 7.96 C 6.14 g/m*3 7.96 C 0 km/h
2499 15-01-2011 06:00:00 7.44 C 6.22 g/m*3 7.44 C 0 km/h
2500 15-01-2011 07:00:00 7.08 C 6.14 g/m*3 7.08 C 0 km/h
Sensor: Nr:Datum:Temp:Abs-Feuchte:Windchill:Wind:
Aussen-T/F 2501 15-01-2011 08:00:00 7.68 C 6.14 g/m*3 7.68 C 0 km/h
2502 15-01-2011 09:00:00 8.3 C 5.98 g/m*3 8.3 C 0 km/h
2503 15-01-2011 10:00:00 9.06 C 5.91 g/m*3 9.06 C 0 km/h
2504 15-01-2011 11:00:00 9.86 C 5.89 g/m*3 9.86 C 0 km/h
2505 15-01-2011 12:00:00 10.2 C 5.73 g/m*3 10.2 C 0 km/h
2506 15-01-2011 13:00:00 10.04 C 5.58 g/m*3 10.04 C 0 km/h
2507 15-01-2011 14:00:00 10.04 C 5.54 g/m*3 10.04 C 0 km/h
2508 15-01-2011 15:00:00 9.62 C 5.52 g/m*3 9.62 C 0 km/h
2509 15-01-2011 16:00:00 8.9 C 5.71 g/m*3 8.9 C 0 km/h
2510 15-01-2011 17:00:00 9.02 C 5.65 g/m*3 9.02 C 0 km/h
2511 15-01-2011 18:00:00 8.98 C 5.78 g/m*3 8.98 C 0 km/h
2512 15-01-2011 19:00:00 9.18 C 5.69 g/m*3 9.18 C 0 km/h
2513 15-01-2011 20:00:00 8.92 C 5.68 g/m*3 8.92 C 0 km/h
2514 15-01-2011 21:00:00 8.04 C 5.62 g/m*3 8.04 C 0 km/h
2515 15-01-2011 22:00:00 8.6 C 5.89 g/m*3 8.6 C 0 km/h
2516 15-01-2011 23:00:00 8.62 C 5.89 g/m*3 8.62 C 0 km/h
2517 16-01-2011 00:00:00 8.9 C 5.83 g/m*3 8.9 C 0 km/h
2518 16-01-2011 01:00:00 8.24 C 5.69 g/m*3 8.24 C 0 km/h
2519 16-01-2011 02:00:00 7.96 C 5.77 g/m*3 7.96 C 0 km/h
2520 16-01-2011 03:00:00 8.14 C 5.71 g/m*3 8.14 C 0 km/h
2521 16-01-2011 04:00:00 8.22 C 5.75 g/m*3 8.22 C 0 km/h
2522 16-01-2011 05:00:00 7.16 C 5.98 g/m*3 7.16 C 0 km/h
2523 16-01-2011 06:00:00 7.06 C 6.08 g/m*3 7.06 C 0 km/h
2524 16-01-2011 07:00:00 7.88 C 6.07 g/m*3 7.88 C 0 km/h
2525 16-01-2011 08:00:00 8.22 C 5.87 g/m*3 8.22 C 0 km/h
Sensor: Nr:Datum:Temp:Abs-Feuchte:Windchill:Wind:
Aussen-T/F 2526 16-01-2011 09:00:00 8.04 C 5.9 g/m*3 8.04 C 0 km/h
2527 16-01-2011 10:00:00 7.98 C 5.91 g/m*3 7.98 C 0 km/h
2528 16-01-2011 11:00:00 8.36 C 5.99 g/m*3 8.36 C 0 km/h
2529 16-01-2011 12:00:00 8.64 C 6.15 g/m*3 8.64 C 0 km/h
2530 16-01-2011 13:00:00 8.82 C 6.19 g/m*3 8.82 C 0 km/h
2531 16-01-2011 14:00:00 8.46 C 6.27 g/m*3 8.46 C 0 km/h
2532 16-01-2011 15:00:00 9.92 C 6.23 g/m*3 9.92 C 0 km/h
2533 16-01-2011 16:00:00 8.04 C 6.35 g/m*3 8.04 C 0 km/h
2534 16-01-2011 17:00:00 5.92 C 6.14 g/m*3 5.92 C 0 km/h
2535 16-01-2011 18:00:00 4.84 C 5.92 g/m*3 4.84 C 0 km/h
2536 16-01-2011 19:00:00 4.22 C 5.77 g/m*3 4.22 C 0 km/h
2537 16-01-2011 20:00:00 3.26 C 5.47 g/m*3 3.26 C 0 km/h
2538 16-01-2011 21:00:00 2.4 C 5.2 g/m*3 2.4 C 0 km/h
2539 16-01-2011 22:00:00 2.16 C 5.16 g/m*3 2.16 C 0 km/h
2540 16-01-2011 23:00:00 1.36 C 4.89 g/m*3 1.36 C 0 km/h
2541 17-01-2011 00:00:00 1.4 C 4.93 g/m*3 1.4 C 0 km/h
2542 17-01-2011 01:00:00 1.18 C 4.88 g/m*3 1.18 C 0 km/h
2543 17-01-2011 02:00:00 1.12 C 4.87 g/m*3 1.12 C 0 km/h
2544 17-01-2011 03:00:00 1.04 C 4.87 g/m*3 1.04 C 0 km/h
2545 17-01-2011 04:00:00 -0.04 C 4.49 g/m*3 -0.04 C 0 km/h
2546 17-01-2011 05:00:00 0.08 C 4.55 g/m*3 0.08 C 0 km/h
2547 17-01-2011 06:00:00 -0.62 C 4.32 g/m*3 -0.62 C 0 km/h
2548 17-01-2011 07:00:00 -0.4 C 4.4 g/m*3 -0.4 C 0 km/h
2549 17-01-2011 08:00:00 -0.66 C 4.32 g/m*3 -0.66 C 0 km/h
2550 17-01-2011 09:00:00 0.72 C 4.79 g/m*3 0.72 C 0 km/h
Sensor: Nr:Datum:Temp:Abs-Feuchte:Windchill:Wind:
Aussen-T/F 2551 17-01-2011 10:00:00 0.68 C 4.77 g/m*3 0.68 C 0 km/h
2552 17-01-2011 11:00:00 2.14 C 5.26 g/m*3 2.14 C 0 km/h
2553 17-01-2011 12:00:00 5.42 C 6.5 g/m*3 5.42 C 0 km/h
2554 17-01-2011 13:00:00 6.06 C 6.54 g/m*3 6.06 C 0 km/h
2555 17-01-2011 14:00:00 6.4 C 6.08 g/m*3 6.4 C 0 km/h
2556 17-01-2011 15:00:00 6.18 C 5.9 g/m*3 6.18 C 0 km/h
2557 17-01-2011 16:00:00 6.18 C 5.96 g/m*3 6.18 C 0 km/h
2558 17-01-2011 17:00:00 6.2 C 5.82 g/m*3 6.2 C 0 km/h
2559 17-01-2011 18:00:00 5.98 C 6.05 g/m*3 5.98 C 0 km/h
2560 17-01-2011 19:00:00 6.22 C 6.1 g/m*3 6.22 C 0 km/h
2561 17-01-2011 20:00:00 6.94 C 6.19 g/m*3 6.94 C 0 km/h
2562 17-01-2011 21:00:00 8.04 C 6.23 g/m*3 8.04 C 0 km/h
2563 17-01-2011 22:00:00 8.28 C 6.13 g/m*3 8.28 C 0 km/h
2564 17-01-2011 23:00:00 8.56 C 6.24 g/m*3 8.56 C 0 km/h
2565 18-01-2011 00:00:00 7.64 C 6.14 g/m*3 7.64 C 0 km/h
2566 18-01-2011 01:00:00 6.84 C 6.13 g/m*3 6.84 C 0 km/h
2567 18-01-2011 02:00:00 5.24 C 5.94 g/m*3 5.24 C 0 km/h
2568 18-01-2011 03:00:00 7.1 C 6.1 g/m*3 7.1 C 0 km/h
2569 18-01-2011 04:00:00 7.06 C 5.96 g/m*3 7.06 C 0 km/h
2570 18-01-2011 05:00:00 7.68 C 5.94 g/m*3 7.68 C 0 km/h
2571 18-01-2011 06:00:00 7.26 C 5.97 g/m*3 7.26 C 0 km/h
2572 18-01-2011 07:00:00 7.14 C 6.04 g/m*3 7.14 C 0 km/h
2573 18-01-2011 08:00:00 7.3 C 5.97 g/m*3 7.3 C 0 km/h
2574 18-01-2011 09:00:00 8.44 C 6.04 g/m*3 8.44 C 0 km/h
2575 18-01-2011 10:00:00 8.84 C 6.09 g/m*3 8.84 C 0 km/h
Sensor: Nr:Datum:Temp:Abs-Feuchte:Windchill:Wind:
Aussen-T/F 2576 18-01-2011 11:00:00 8.74 C 6.05 g/m*3 8.74 C 0 km/h
2577 18-01-2011 12:00:00 9.7 C 6.07 g/m*3 9.7 C 0 km/h
2578 18-01-2011 13:00:00 9.7 C 6.05 g/m*3 9.7 C 0 km/h
2579 18-01-2011 14:00:00 9.72 C 5.94 g/m*3 9.72 C 0 km/h
2580 18-01-2011 15:00:00 9.42 C 5.67 g/m*3 9.42 C 0 km/h
2581 18-01-2011 16:00:00 8.38 C 5.78 g/m*3 8.38 C 0 km/h
2582 18-01-2011 17:00:00 6.54 C 6.42 g/m*3 6.54 C 0 km/h
2583 18-01-2011 18:00:00 6.16 C 6.31 g/m*3 6.16 C 0 km/h
2584 18-01-2011 19:00:00 5.86 C 6.26 g/m*3 5.86 C 0 km/h
2585 18-01-2011 20:00:00 5.74 C 6.04 g/m*3 5.74 C 0 km/h
2586 18-01-2011 21:00:00 5.1 C 5.62 g/m*3 5.1 C 0 km/h
2587 18-01-2011 22:00:00 4.64 C 5.48 g/m*3 4.64 C 0 km/h
2588 18-01-2011 23:00:00 4.68 C 5.47 g/m*3 4.68 C 0 km/h
2589 19-01-2011 00:00:00 4.36 C 5.2 g/m*3 4.36 C 0 km/h
2590 19-01-2011 01:00:00 3.88 C 4.77 g/m*3 3.88 C 0 km/h
2591 19-01-2011 02:00:00 3.42 C 4.67 g/m*3 3.42 C 0 km/h
2592 19-01-2011 03:00:00 2.92 C 4.8 g/m*3 2.92 C 0 km/h
2593 19-01-2011 04:00:00 2.8 C 4.89 g/m*3 2.8 C 0 km/h
2594 19-01-2011 05:00:00 2.56 C 4.99 g/m*3 2.56 C 0 km/h
2595 19-01-2011 06:00:00 2.64 C 4.99 g/m*3 2.64 C 0 km/h
2596 19-01-2011 07:00:00 2.8 C 4.85 g/m*3 2.8 C 0 km/h
2597 19-01-2011 08:00:00 2.4 C 4.86 g/m*3 2.4 C 0 km/h
2598 19-01-2011 09:00:00 2.7 C 4.81 g/m*3 2.7 C 0 km/h
2599 19-01-2011 10:00:00 2.4 C 4.68 g/m*3 2.4 C 0 km/h
2600 19-01-2011 11:00:00 3.64 C 4.84 g/m*3 3.64 C 0 km/h
Sensor: Nr:Datum:Temp:Abs-Feuchte:Windchill:Wind:
Aussen-T/F 2601 19-01-2011 12:00:00 4.44 C 4.64 g/m*3 4.44 C 0 km/h
2602 19-01-2011 13:00:00 4.94 C 4.35 g/m*3 4.94 C 0 km/h
2603 19-01-2011 14:00:00 5.36 C 4.24 g/m*3 5.36 C 0 km/h
2604 19-01-2011 15:00:00 4.94 C 4.13 g/m*3 4.94 C 0 km/h
2605 19-01-2011 16:00:00 4.18 C 4.38 g/m*3 4.18 C 0 km/h
2606 19-01-2011 17:00:00 3.34 C 4.54 g/m*3 3.34 C 0 km/h
2607 19-01-2011 18:00:00 2.94 C 4.7 g/m*3 2.94 C 0 km/h
2608 19-01-2011 19:00:00 3.2 C 4.46 g/m*3 3.2 C 0 km/h
2609 19-01-2011 20:00:00 2.36 C 4.69 g/m*3 2.36 C 0 km/h
2610 19-01-2011 21:00:00 2.5 C 4.78 g/m*3 2.5 C 0 km/h
2611 19-01-2011 22:00:00 2.4 C 4.73 g/m*3 2.4 C 0 km/h
2612 19-01-2011 23:00:00 2.28 C 4.69 g/m*3 2.28 C 0 km/h
2613 20-01-2011 00:00:00 1.72 C 4.73 g/m*3 1.72 C 0 km/h
2614 20-01-2011 01:00:00 1.82 C 4.87 g/m*3 1.82 C 0 km/h
2615 20-01-2011 02:00:00 1.22 C 4.71 g/m*3 1.22 C 0 km/h
2616 20-01-2011 03:00:00 1.34 C 4.82 g/m*3 1.34 C 0 km/h
2617 20-01-2011 04:00:00 1.16 C 4.78 g/m*3 1.16 C 0 km/h
2618 20-01-2011 05:00:00 1.36 C 4.87 g/m*3 1.36 C 0 km/h
2619 20-01-2011 06:00:00 1.28 C 4.85 g/m*3 1.28 C 0 km/h
2620 20-01-2011 07:00:00 1.02 C 4.73 g/m*3 1.02 C 0 km/h
2621 20-01-2011 08:00:00 1.2 C 4.75 g/m*3 1.2 C 0 km/h
2622 20-01-2011 09:00:00 1.44 C 4.7 g/m*3 1.44 C 0 km/h
2623 20-01-2011 10:00:00 2.02 C 4.61 g/m*3 2.02 C 0 km/h
2624 20-01-2011 11:00:00 2.72 C 4.53 g/m*3 2.72 C 0 km/h
2625 20-01-2011 12:00:00 3.26 C 4.44 g/m*3 3.26 C 0 km/h
Sensor: Nr:Datum:Temp:Abs-Feuchte:Windchill:Wind:
Aussen-T/F 2626 20-01-2011 13:00:00 3.88 C 4.35 g/m*3 3.88 C 0 km/h
2627 20-01-2011 14:00:00 4.1 C 4.29 g/m*3 4.1 C 0 km/h
2628 20-01-2011 15:00:00 3.26 C 4.1 g/m*3 3.26 C 0 km/h
2629 20-01-2011 16:00:00 2.48 C 3.98 g/m*3 2.48 C 0 km/h
2630 20-01-2011 17:00:00 1.98 C 3.95 g/m*3 1.98 C 0 km/h
2631 20-01-2011 18:00:00 1.7 C 3.97 g/m*3 1.7 C 0 km/h
2632 20-01-2011 19:00:00 1.3 C 3.89 g/m*3 1.3 C 0 km/h
2633 20-01-2011 20:00:00 0.9 C 3.72 g/m*3 0.9 C 0 km/h
2634 20-01-2011 21:00:00 -0.16 C 3.59 g/m*3 -0.16 C 0 km/h
2635 20-01-2011 22:00:00 -0.28 C 3.55 g/m*3 -0.28 C 0 km/h
2636 20-01-2011 23:00:00 0.08 C 3.64 g/m*3 0.08 C 0 km/h
2637 21-01-2011 00:00:00 0.34 C 3.13 g/m*3 0.34 C 0 km/h
2638 21-01-2011 01:00:00 0.18 C 3.08 g/m*3 0.18 C 0 km/h
2639 21-01-2011 02:00:00 0.04 C 3.11 g/m*3 0.04 C 0 km/h
2640 21-01-2011 03:00:00 -0.36 C 2.8 g/m*3 -0.36 C 0 km/h
2641 21-01-2011 04:00:00 -0.38 C 2.67 g/m*3 -0.38 C 0 km/h
2642 21-01-2011 05:00:00 -0.46 C 2.75 g/m*3 -0.46 C 0 km/h
2643 21-01-2011 06:00:00 -0.74 C 2.81 g/m*3 -0.74 C 0 km/h
2644 21-01-2011 07:00:00 -0.6 C 2.67 g/m*3 -0.6 C 0 km/h
2645 21-01-2011 08:00:00 -0.5 C 2.69 g/m*3 -0.5 C 0 km/h
2646 21-01-2011 09:00:00 -0.14 C 2.75 g/m*3 -0.14 C 0 km/h
2647 21-01-2011 10:00:00 0.14 C 2.74 g/m*3 0.14 C 0 km/h
2648 21-01-2011 11:00:00 0.02 C 2.82 g/m*3 0.02 C 0 km/h
2649 21-01-2011 12:00:00 0.32 C 2.9 g/m*3 0.32 C 0 km/h
2650 21-01-2011 13:00:00 1.06 C 2.95 g/m*3 1.06 C 0 km/h
Sensor: Nr:Datum:Temp:Abs-Feuchte:Windchill:Wind:
Aussen-T/F 2651 21-01-2011 14:00:00 1.28 C 3.01 g/m*3 1.28 C 0 km/h
2652 21-01-2011 15:00:00 1.02 C 3.01 g/m*3 1.02 C 0 km/h
2653 21-01-2011 16:00:00 0.18 C 3.13 g/m*3 0.18 C 0 km/h
2654 21-01-2011 17:00:00 -0.22 C 3.25 g/m*3 -0.22 C 0 km/h
2655 21-01-2011 18:00:00 -0.14 C 3.26 g/m*3 -0.14 C 0 km/h
2656 21-01-2011 19:00:00 -0.4 C 3.25 g/m*3 -0.4 C 0 km/h
2657 21-01-2011 20:00:00 -0.42 C 3.4 g/m*3 -0.42 C 0 km/h
2658 21-01-2011 21:00:00 -0.78 C 3.61 g/m*3 -0.78 C 0 km/h
2659 21-01-2011 22:00:00 -0.58 C 3.7 g/m*3 -0.58 C 0 km/h
2660 21-01-2011 23:00:00 -0.48 C 3.8 g/m*3 -0.48 C 0 km/h
2661 22-01-2011 00:00:00 -0.4 C 3.86 g/m*3 -0.4 C 0 km/h
2662 22-01-2011 01:00:00 -0.4 C 3.86 g/m*3 -0.4 C 0 km/h
2663 22-01-2011 02:00:00 -0.4 C 3.86 g/m*3 -0.4 C 0 km/h
2664 22-01-2011 03:00:00 -0.4 C 3.86 g/m*3 -0.4 C 0 km/h
2665 22-01-2011 04:00:00 -0.4 C 3.86 g/m*3 -0.4 C 0 km/h
2666 22-01-2011 05:00:00 -0.4 C 3.86 g/m*3 -0.4 C 0 km/h
2667 22-01-2011 06:00:00 -0.4 C 3.86 g/m*3 -0.4 C 0 km/h
2668 22-01-2011 07:00:00 -0.4 C 3.86 g/m*3 -0.4 C 0 km/h
2669 22-01-2011 08:00:00 -0.32 C 3.89 g/m*3 -0.32 C 0 km/h
2670 22-01-2011 09:00:00 0 C 3.97 g/m*3 0 C 0 km/h
2671 22-01-2011 10:00:00 0.92 C 3.86 g/m*3 0.92 C 0 km/h
2672 22-01-2011 11:00:00 1.4 C 3.72 g/m*3 1.4 C 0 km/h
2673 22-01-2011 12:00:00 1.72 C 3.69 g/m*3 1.72 C 0 km/h
2674 22-01-2011 13:00:00 1.72 C 3.73 g/m*3 1.72 C 0 km/h
2675 22-01-2011 14:00:00 1.84 C 3.98 g/m*3 1.84 C 0 km/h
Sensor: Nr:Datum:Temp:Abs-Feuchte:Windchill:Wind:
Aussen-T/F 2676 22-01-2011 15:00:00 1.56 C 3.92 g/m*3 1.56 C 0 km/h
2677 22-01-2011 16:00:00 1.28 C 3.86 g/m*3 1.28 C 0 km/h
2678 22-01-2011 17:00:00 0.72 C 3.9 g/m*3 0.72 C 0 km/h
2679 22-01-2011 18:00:00 0.56 C 3.93 g/m*3 0.56 C 0 km/h
2680 22-01-2011 19:00:00 0.34 C 4.05 g/m*3 0.34 C 0 km/h
2681 22-01-2011 20:00:00 0.38 C 4.01 g/m*3 0.38 C 0 km/h
2682 22-01-2011 21:00:00 0.32 C 4.03 g/m*3 0.32 C 0 km/h
2683 22-01-2011 22:00:00 0.25 C 4.04 g/m*3 0.25 C 0 km/h
2684 22-01-2011 23:00:00 0 C 3.97 g/m*3 0 C 0 km/h
2685 23-01-2011 00:00:00 0.22 C 4.03 g/m*3 0.22 C 0 km/h
2686 23-01-2011 01:00:00 0.22 C 4.03 g/m*3 0.22 C 0 km/h
2687 23-01-2011 02:00:00 0.28 C 4.05 g/m*3 0.28 C 0 km/h
2688 23-01-2011 03:00:00 0.44 C 4.05 g/m*3 0.44 C 0 km/h
2689 23-01-2011 04:00:00 0.4 C 4.05 g/m*3 0.4 C 0 km/h
2690 23-01-2011 05:00:00 0.22 C 4.21 g/m*3 0.22 C 0 km/h
2691 23-01-2011 06:00:00 0.42 C 4.4 g/m*3 0.42 C 0 km/h
2692 23-01-2011 07:00:00 0.66 C 4.51 g/m*3 0.66 C 0 km/h
2693 23-01-2011 08:00:00 0.94 C 4.61 g/m*3 0.94 C 0 km/h
2694 23-01-2011 09:00:00 1.46 C 4.71 g/m*3 1.46 C 0 km/h
2695 23-01-2011 10:00:00 1.92 C 4.55 g/m*3 1.92 C 0 km/h
2696 23-01-2011 11:00:00 2.02 C 4.54 g/m*3 2.02 C 0 km/h
2697 23-01-2011 12:00:00 2.16 C 4.62 g/m*3 2.16 C 0 km/h
2698 23-01-2011 13:00:00 2.22 C 4.76 g/m*3 2.22 C 0 km/h
2699 23-01-2011 14:00:00 2.4 C 4.88 g/m*3 2.4 C 0 km/h
2700 23-01-2011 15:00:00 2.3 C 4.9 g/m*3 2.3 C 0 km/h
Sensor: Nr:Datum:Temp:Abs-Feuchte:Windchill:Wind:
Aussen-T/F 2701 23-01-2011 16:00:00 2.2 C 4.97 g/m*3 2.2 C 0 km/h
2702 23-01-2011 17:00:00 2.16 C 5.03 g/m*3 2.16 C 0 km/h
2703 23-01-2011 18:00:00 2.12 C 5.06 g/m*3 2.12 C 0 km/h
2704 23-01-2011 19:00:00 2.18 C 5.12 g/m*3 2.18 C 0 km/h
2705 23-01-2011 20:00:00 2.22 C 5.14 g/m*3 2.22 C 0 km/h
2706 23-01-2011 21:00:00 2.24 C 5.2 g/m*3 2.24 C 0 km/h
2707 23-01-2011 22:00:00 2.28 C 5.21 g/m*3 2.28 C 0 km/h
2708 23-01-2011 23:00:00 2.36 C 5.24 g/m*3 2.36 C 0 km/h
2709 24-01-2011 00:00:00 2.42 C 5.26 g/m*3 2.42 C 0 km/h
2710 24-01-2011 01:00:00 2.58 C 5.35 g/m*3 2.58 C 0 km/h
2711 24-01-2011 02:00:00 2.56 C 5.37 g/m*3 2.56 C 0 km/h
2712 24-01-2011 03:00:00 2.02 C 5.13 g/m*3 2.02 C 0 km/h
2713 24-01-2011 04:00:00 2.12 C 5.2 g/m*3 2.12 C 0 km/h
2714 24-01-2011 05:00:00 2.48 C 5.34 g/m*3 2.48 C 0 km/h
2715 24-01-2011 06:00:00 2.5 C 5.35 g/m*3 2.5 C 0 km/h
2716 24-01-2011 07:00:00 2.78 C 5.33 g/m*3 2.78 C 0 km/h
2717 24-01-2011 08:00:00 2.76 C 5.07 g/m*3 2.76 C 0 km/h
2718 24-01-2011 09:00:00 2.92 C 4.75 g/m*3 2.92 C 0 km/h
2719 24-01-2011 10:00:00 3.12 C 4.6 g/m*3 3.12 C 0 km/h
2720 24-01-2011 11:00:00 3.46 C 4.57 g/m*3 3.46 C 0 km/h
2721 24-01-2011 12:00:00 4.04 C 4.6 g/m*3 4.04 C 0 km/h
2722 24-01-2011 13:00:00 4.36 C 4.7 g/m*3 4.36 C 0 km/h
2723 24-01-2011 14:00:00 4.2 C 4.7 g/m*3 4.2 C 0 km/h
2724 24-01-2011 15:00:00 3.98 C 4.79 g/m*3 3.98 C 0 km/h
2725 24-01-2011 16:00:00 3.78 C 4.96 g/m*3 3.78 C 0 km/h
Sensor: Nr:Datum:Temp:Abs-Feuchte:Windchill:Wind:
Aussen-T/F 2726 24-01-2011 17:00:00 3.6 C 4.96 g/m*3 3.6 C 0 km/h
2727 24-01-2011 18:00:00 3.44 C 5.03 g/m*3 3.44 C 0 km/h
2728 24-01-2011 19:00:00 3.18 C 5.1 g/m*3 3.18 C 0 km/h
2729 24-01-2011 20:00:00 3.16 C 5.24 g/m*3 3.16 C 0 km/h
2730 24-01-2011 21:00:00 3.08 C 5.24 g/m*3 3.08 C 0 km/h
2731 24-01-2011 22:00:00 3.08 C 5.33 g/m*3 3.08 C 0 km/h
2732 24-01-2011 23:00:00 2.82 C 5.29 g/m*3 2.82 C 0 km/h
2733 25-01-2011 00:00:00 2.74 C 5.19 g/m*3 2.74 C 0 km/h
2734 25-01-2011 01:00:00 2.66 C 4.76 g/m*3 2.66 C 0 km/h
2735 25-01-2011 02:00:00 1.88 C 4.72 g/m*3 1.88 C 0 km/h
2736 25-01-2011 03:00:00 1.98 C 4.66 g/m*3 1.98 C 0 km/h
2737 25-01-2011 04:00:00 2.64 C 4.43 g/m*3 2.64 C 0 km/h
2738 25-01-2011 05:00:00 3.12 C 4.29 g/m*3 3.12 C 0 km/h
2739 25-01-2011 06:00:00 3.34 C 4.19 g/m*3 3.34 C 0 km/h
2740 25-01-2011 07:00:00 2.98 C 4.18 g/m*3 2.98 C 0 km/h
2741 25-01-2011 08:00:00 2.52 C 4.28 g/m*3 2.52 C 0 km/h
2742 25-01-2011 09:00:00 2.92 C 4.27 g/m*3 2.92 C 0 km/h
2743 25-01-2011 10:00:00 2.92 C 4.38 g/m*3 2.92 C 0 km/h
2744 25-01-2011 11:00:00 2.96 C 4.58 g/m*3 2.96 C 0 km/h
2745 25-01-2011 12:00:00 3.38 C 4.75 g/m*3 3.38 C 0 km/h
2746 25-01-2011 13:00:00 3.94 C 4.67 g/m*3 3.94 C 0 km/h
2747 25-01-2011 14:00:00 3.98 C 4.72 g/m*3 3.98 C 0 km/h
2748 25-01-2011 15:00:00 2.3 C 4.72 g/m*3 2.3 C 0 km/h
2749 25-01-2011 16:00:00 2.52 C 4.88 g/m*3 2.52 C 0 km/h
2750 25-01-2011 17:00:00 2.42 C 4.77 g/m*3 2.42 C 0 km/h
Sensor: Nr:Datum:Temp:Abs-Feuchte:Windchill:Wind:
Aussen-T/F 2751 25-01-2011 18:00:00 2.36 C 4.74 g/m*3 2.36 C 0 km/h
2752 25-01-2011 19:00:00 1.5 C 4.62 g/m*3 1.5 C 0 km/h
2753 25-01-2011 20:00:00 0.84 C 4.46 g/m*3 0.84 C 0 km/h
2754 25-01-2011 21:00:00 1.08 C 4.47 g/m*3 1.08 C 0 km/h
2755 25-01-2011 22:00:00 1.84 C 4.35 g/m*3 1.84 C 0 km/h
2756 25-01-2011 23:00:00 1.14 C 4.32 g/m*3 1.14 C 0 km/h
2757 26-01-2011 00:00:00 0.64 C 4.31 g/m*3 0.64 C 0 km/h
2758 26-01-2011 01:00:00 -0.58 C 4.07 g/m*3 -0.58 C 0 km/h
2759 26-01-2011 02:00:00 -0.62 C 4.13 g/m*3 -0.62 C 0 km/h
2760 26-01-2011 03:00:00 -0.52 C 4.21 g/m*3 -0.52 C 0 km/h
2761 26-01-2011 04:00:00 -0.46 C 4.24 g/m*3 -0.46 C 0 km/h
2762 26-01-2011 05:00:00 -0.2 C 4.35 g/m*3 -0.2 C 0 km/h
2763 26-01-2011 06:00:00 -0.16 C 4.36 g/m*3 -0.16 C 0 km/h
2764 26-01-2011 07:00:00 -0.22 C 4.34 g/m*3 -0.22 C 0 km/h
2765 26-01-2011 08:00:00 0.04 C 4.43 g/m*3 0.04 C 0 km/h
2766 26-01-2011 09:00:00 0.66 C 4.65 g/m*3 0.66 C 0 km/h
2767 26-01-2011 10:00:00 1.6 C 4.81 g/m*3 1.6 C 0 km/h
2768 26-01-2011 11:00:00 2.48 C 4.55 g/m*3 2.48 C 0 km/h
2769 26-01-2011 12:00:00 3.56 C 4.1 g/m*3 3.56 C 0 km/h
2770 26-01-2011 13:00:00 3.24 C 4 g/m*3 3.24 C 0 km/h
2771 26-01-2011 14:00:00 3.34 C 3.91 g/m*3 3.34 C 0 km/h
2772 26-01-2011 15:00:00 3.32 C 3.84 g/m*3 3.32 C 0 km/h
2773 26-01-2011 16:00:00 2.24 C 4.04 g/m*3 2.24 C 0 km/h
2774 26-01-2011 17:00:00 0.76 C 4.28 g/m*3 0.76 C 0 km/h
2775 26-01-2011 18:00:00 0.64 C 4.29 g/m*3 0.64 C 0 km/h
Sensor: Nr:Datum:Temp:Abs-Feuchte:Windchill:Wind:
Aussen-T/F 2776 26-01-2011 19:00:00 0.44 C 4.24 g/m*3 0.44 C 0 km/h
2777 26-01-2011 20:00:00 0.5 C 4.31 g/m*3 0.5 C 0 km/h
2778 26-01-2011 21:00:00 0.52 C 4.26 g/m*3 0.52 C 0 km/h
2779 26-01-2011 22:00:00 -0.16 C 4.01 g/m*3 -0.16 C 0 km/h
2780 26-01-2011 23:00:00 -0.88 C 3.86 g/m*3 -0.88 C 0 km/h
2781 27-01-2011 00:00:00 -1.24 C 3.81 g/m*3 -1.24 C 0 km/h
2782 27-01-2011 01:00:00 -1.76 C 3.69 g/m*3 -1.76 C 0 km/h
2783 27-01-2011 02:00:00 -2.52 C 3.5 g/m*3 -2.52 C 0 km/h
2784 27-01-2011 03:00:00 -3.36 C 3.32 g/m*3 -3.36 C 0 km/h
2785 27-01-2011 04:00:00 -2.2 C 3.68 g/m*3 -2.2 C 0 km/h
2786 27-01-2011 05:00:00 -1.56 C 3.9 g/m*3 -1.56 C 0 km/h
2787 27-01-2011 06:00:00 -1.38 C 3.96 g/m*3 -1.38 C 0 km/h
2788 27-01-2011 07:00:00 -1.32 C 3.98 g/m*3 -1.32 C 0 km/h
2789 27-01-2011 08:00:00 -1.18 C 4.04 g/m*3 -1.18 C 0 km/h
2790 27-01-2011 09:00:00 -0.24 C 4.33 g/m*3 -0.24 C 0 km/h
2791 27-01-2011 10:00:00 0.86 C 4.29 g/m*3 0.86 C 0 km/h
2792 27-01-2011 11:00:00 1.86 C 3.63 g/m*3 1.86 C 0 km/h
2793 27-01-2011 12:00:00 2.44 C 3.33 g/m*3 2.44 C 0 km/h
2794 27-01-2011 13:00:00 2.64 C 3.1 g/m*3 2.64 C 0 km/h
2795 27-01-2011 14:00:00 2.4 C 2.95 g/m*3 2.4 C 0 km/h
2796 27-01-2011 15:00:00 1.88 C 2.81 g/m*3 1.88 C 0 km/h
2797 27-01-2011 16:00:00 1.18 C 2.74 g/m*3 1.18 C 0 km/h
2798 27-01-2011 17:00:00 0.26 C 2.75 g/m*3 0.26 C 0 km/h
2799 27-01-2011 18:00:00 0 C 2.77 g/m*3 0 C 0 km/h
2800 27-01-2011 19:00:00 -0.16 C 2.82 g/m*3 -0.16 C 0 km/h
Sensor: Nr:Datum:Temp:Abs-Feuchte:Windchill:Wind:
Aussen-T/F 2801 27-01-2011 20:00:00 -0.34 C 2.86 g/m*3 -0.34 C 0 km/h
2802 27-01-2011 21:00:00 -0.92 C 2.84 g/m*3 -0.92 C 0 km/h
2803 27-01-2011 22:00:00 -1.2 C 2.84 g/m*3 -1.2 C 0 km/h
2804 27-01-2011 23:00:00 -1 C 2.78 g/m*3 -1 C 0 km/h
2805 28-01-2011 00:00:00 -1.34 C 2.76 g/m*3 -1.34 C 0 km/h
2806 28-01-2011 01:00:00 -1.24 C 2.67 g/m*3 -1.24 C 0 km/h
2807 28-01-2011 02:00:00 -1.42 C 2.69 g/m*3 -1.42 C 0 km/h
2808 28-01-2011 03:00:00 -1.18 C 2.79 g/m*3 -1.18 C 0 km/h
2809 28-01-2011 04:00:00 -1.04 C 2.82 g/m*3 -1.04 C 0 km/h
2810 28-01-2011 05:00:00 -0.98 C 2.83 g/m*3 -0.98 C 0 km/h
2811 28-01-2011 06:00:00 -0.98 C 2.77 g/m*3 -0.98 C 0 km/h
2812 28-01-2011 07:00:00 -1.06 C 2.79 g/m*3 -1.06 C 0 km/h
2813 28-01-2011 08:00:00 -2.1 C 2.72 g/m*3 -2.1 C 0 km/h
2814 28-01-2011 09:00:00 -1.4 C 2.8 g/m*3 -1.4 C 0 km/h
2815 28-01-2011 10:00:00 -0.6 C 2.69 g/m*3 -0.6 C 0 km/h
2816 28-01-2011 11:00:00 0.14 C 2.7 g/m*3 0.14 C 0 km/h
2817 28-01-2011 12:00:00 0.72 C 2.7 g/m*3 0.72 C 0 km/h
2818 28-01-2011 13:00:00 0.96 C 2.72 g/m*3 0.96 C 0 km/h
2819 28-01-2011 14:00:00 1.22 C 2.75 g/m*3 1.22 C 0 km/h
2820 28-01-2011 15:00:00 1.26 C 2.8 g/m*3 1.26 C 0 km/h
2821 28-01-2011 16:00:00 0.44 C 2.86 g/m*3 0.44 C 0 km/h
2822 28-01-2011 17:00:00 -1.38 C 2.96 g/m*3 -1.38 C 0 km/h
2823 28-01-2011 18:00:00 -2.44 C 3.09 g/m*3 -2.44 C 0 km/h
2824 28-01-2011 19:00:00 -2.68 C 3.08 g/m*3 -2.68 C 0 km/h
2825 28-01-2011 20:00:00 -3.52 C 3.01 g/m*3 -3.52 C 0 km/h
Sensor: Nr:Datum:Temp:Abs-Feuchte:Windchill:Wind:
Aussen-T/F 2826 28-01-2011 21:00:00 -3.84 C 3.02 g/m*3 -3.84 C 0 km/h
2827 28-01-2011 22:00:00 -4.18 C 3 g/m*3 -4.18 C 0 km/h
2828 28-01-2011 23:00:00 -3.86 C 3.07 g/m*3 -3.86 C 0 km/h
2829 29-01-2011 00:00:00 -4.68 C 2.87 g/m*3 -4.68 C 0 km/h
2830 29-01-2011 01:00:00 -5.04 C 2.8 g/m*3 -5.04 C 0 km/h
2831 29-01-2011 02:00:00 -5.52 C 2.71 g/m*3 -5.52 C 0 km/h
2832 29-01-2011 03:00:00 -5.52 C 2.74 g/m*3 -5.52 C 0 km/h
2833 29-01-2011 04:00:00 -5.48 C 2.74 g/m*3 -5.48 C 0 km/h
2834 29-01-2011 05:00:00 -5.88 C 2.65 g/m*3 -5.88 C 0 km/h
2835 29-01-2011 06:00:00 -6.52 C 2.5 g/m*3 -6.52 C 0 km/h
2836 29-01-2011 07:00:00 -6.5 C 2.5 g/m*3 -6.5 C 0 km/h
2837 29-01-2011 08:00:00 -6.28 C 2.55 g/m*3 -6.28 C 0 km/h
2838 29-01-2011 09:00:00 -6.44 C 2.5 g/m*3 -6.44 C 0 km/h
2839 29-01-2011 10:00:00 -5.78 C 2.62 g/m*3 -5.78 C 0 km/h
2840 29-01-2011 11:00:00 -4.86 C 2.82 g/m*3 -4.86 C 0 km/h
2841 29-01-2011 12:00:00 -4 C 2.99 g/m*3 -4 C 0 km/h
2842 29-01-2011 13:00:00 -3.26 C 3.03 g/m*3 -3.26 C 0 km/h
2843 29-01-2011 14:00:00 -2.42 C 3.09 g/m*3 -2.42 C 0 km/h
2844 29-01-2011 15:00:00 -1.6 C 3.16 g/m*3 -1.6 C 0 km/h
2845 29-01-2011 16:00:00 -2.3 C 2.9 g/m*3 -2.3 C 0 km/h
2846 29-01-2011 17:00:00 -3.32 C 2.6 g/m*3 -3.32 C 0 km/h
2847 29-01-2011 18:00:00 -4.22 C 2.51 g/m*3 -4.22 C 0 km/h
2848 29-01-2011 19:00:00 -4.52 C 2.57 g/m*3 -4.52 C 0 km/h
2849 29-01-2011 20:00:00 -5.08 C 2.55 g/m*3 -5.08 C 0 km/h
2850 29-01-2011 21:00:00 -5.96 C 2.45 g/m*3 -5.96 C 0 km/h
Sensor: Nr:Datum:Temp:Abs-Feuchte:Windchill:Wind:
Aussen-T/F 2851 29-01-2011 22:00:00 -6.2 C 2.43 g/m*3 -6.2 C 0 km/h
2852 29-01-2011 23:00:00 -6.22 C 2.46 g/m*3 -6.22 C 0 km/h
2853 30-01-2011 00:00:00 -6.72 C 2.39 g/m*3 -6.72 C 0 km/h
2854 30-01-2011 01:00:00 -7.12 C 2.32 g/m*3 -7.12 C 0 km/h
2855 30-01-2011 02:00:00 -7.7 C 2.18 g/m*3 -7.7 C 0 km/h
2856 30-01-2011 03:00:00 -7.74 C 2.21 g/m*3 -7.74 C 0 km/h
2857 30-01-2011 04:00:00 -7.78 C 2.21 g/m*3 -7.78 C 0 km/h
2858 30-01-2011 05:00:00 -8.24 C 2.14 g/m*3 -8.24 C 0 km/h
2859 30-01-2011 06:00:00 -8.72 C 2.06 g/m*3 -8.72 C 0 km/h
2860 30-01-2011 07:00:00 -7.8 C 2.23 g/m*3 -7.8 C 0 km/h
2861 30-01-2011 08:00:00 -8.86 C 2.01 g/m*3 -8.86 C 0 km/h
2862 30-01-2011 09:00:00 -8.06 C 2.13 g/m*3 -8.06 C 0 km/h
2863 30-01-2011 10:00:00 -6.54 C 2.43 g/m*3 -6.54 C 0 km/h
2864 30-01-2011 11:00:00 -5.94 C 2.53 g/m*3 -5.94 C 0 km/h
2865 30-01-2011 12:00:00 -5.36 C 2.68 g/m*3 -5.36 C 0 km/h
2866 30-01-2011 13:00:00 -4.42 C 2.85 g/m*3 -4.42 C 0 km/h
2867 30-01-2011 14:00:00 -3.38 C 3.01 g/m*3 -3.38 C 0 km/h
2868 30-01-2011 15:00:00 -2.32 C 3.06 g/m*3 -2.32 C 0 km/h
2869 30-01-2011 16:00:00 -2.98 C 2.95 g/m*3 -2.98 C 0 km/h
2870 30-01-2011 17:00:00 -3.96 C 2.9 g/m*3 -3.96 C 0 km/h
2871 30-01-2011 18:00:00 -4.44 C 2.83 g/m*3 -4.44 C 0 km/h
2872 30-01-2011 19:00:00 -5.12 C 2.74 g/m*3 -5.12 C 0 km/h
2873 30-01-2011 20:00:00 -5.16 C 2.76 g/m*3 -5.16 C 0 km/h
2874 30-01-2011 21:00:00 -5.86 C 2.63 g/m*3 -5.86 C 0 km/h
2875 30-01-2011 22:00:00 -7.14 C 2.38 g/m*3 -7.14 C 0 km/h
Sensor: Nr:Datum:Temp:Abs-Feuchte:Windchill:Wind:
Aussen-T/F 2876 30-01-2011 23:00:00 -7.66 C 2.26 g/m*3 -7.66 C 0 km/h
2877 31-01-2011 00:00:00 -7.5 C 2.29 g/m*3 -7.5 C 0 km/h
2878 31-01-2011 01:00:00 -8.24 C 2.14 g/m*3 -8.24 C 0 km/h
2879 31-01-2011 02:00:00 -8.58 C 2.05 g/m*3 -8.58 C 0 km/h
2880 31-01-2011 03:00:00 -8.18 C 2.14 g/m*3 -8.18 C 0 km/h
2881 31-01-2011 04:00:00 -9.08 C 1.97 g/m*3 -9.08 C 0 km/h
2882 31-01-2011 05:00:00 -8.26 C 2.12 g/m*3 -8.26 C 0 km/h
2883 31-01-2011 06:00:00 -7.14 C 2.37 g/m*3 -7.14 C 0 km/h
2884 31-01-2011 07:00:00 -7.1 C 2.4 g/m*3 -7.1 C 0 km/h
2885 31-01-2011 08:00:00 -6.98 C 2.44 g/m*3 -6.98 C 0 km/h
2886 31-01-2011 09:00:00 -6.72 C 2.49 g/m*3 -6.72 C 0 km/h
2887 31-01-2011 10:00:00 -5.96 C 2.62 g/m*3 -5.96 C 0 km/h
2888 31-01-2011 11:00:00 -5.32 C 2.73 g/m*3 -5.32 C 0 km/h
2889 31-01-2011 12:00:00 -4.68 C 2.84 g/m*3 -4.68 C 0 km/h
2890 31-01-2011 13:00:00 -4.06 C 2.9 g/m*3 -4.06 C 0 km/h
2891 31-01-2011 14:00:00 -3.72 C 2.87 g/m*3 -3.72 C 0 km/h
2892 31-01-2011 15:00:00 -3.6 C 2.89 g/m*3 -3.6 C 0 km/h
2893 31-01-2011 16:00:00 -3.98 C 2.86 g/m*3 -3.98 C 0 km/h
2894 31-01-2011 17:00:00 -4.12 C 2.92 g/m*3 -4.12 C 0 km/h
2895 31-01-2011 18:00:00 -3.9 C 3.01 g/m*3 -3.9 C 0 km/h
2896 31-01-2011 19:00:00 -3.7 C 3.05 g/m*3 -3.7 C 0 km/h
2897 31-01-2011 20:00:00 -3.96 C 2.94 g/m*3 -3.96 C 0 km/h
2898 31-01-2011 21:00:00 -4.14 C 2.9 g/m*3 -4.14 C 0 km/h
2899 31-01-2011 22:00:00 -4.32 C 2.86 g/m*3 -4.32 C 0 km/h
2900 31-01-2011 23:00:00 -4.48 C 2.83 g/m*3 -4.48 C 0 km/h
Sensor: Nr:Datum:Temp:Abs-Feuchte:Windchill:Wind:
Aussen-T/F 2901 01-02-2011 00:00:00 -4.44 C 2.84 g/m*3 -4.44 C 0 km/h
2902 01-02-2011 01:00:00 -4.52 C 2.81 g/m*3 -4.52 C 0 km/h
2903 01-02-2011 02:00:00 -4.74 C 2.71 g/m*3 -4.74 C 0 km/h
2904 01-02-2011 03:00:00 -4.78 C 2.64 g/m*3 -4.78 C 0 km/h
2905 01-02-2011 04:00:00 -4.9 C 2.61 g/m*3 -4.9 C 0 km/h
2906 01-02-2011 05:00:00 -5.1 C 2.53 g/m*3 -5.1 C 0 km/h
2907 01-02-2011 06:00:00 -5.2 C 2.51 g/m*3 -5.2 C 0 km/h
2908 01-02-2011 07:00:00 -5.3 C 2.49 g/m*3 -5.3 C 0 km/h
2909 01-02-2011 08:00:00 -5.2 C 2.52 g/m*3 -5.2 C 0 km/h
2910 01-02-2011 09:00:00 -4.84 C 2.56 g/m*3 -4.84 C 0 km/h
2911 01-02-2011 10:00:00 -4.5 C 2.56 g/m*3 -4.5 C 0 km/h
2912 01-02-2011 11:00:00 -3.98 C 2.56 g/m*3 -3.98 C 0 km/h
2913 01-02-2011 12:00:00 -3 C 2.62 g/m*3 -3 C 0 km/h
2914 01-02-2011 13:00:00 -2.5 C 2.69 g/m*3 -2.5 C 0 km/h
2915 01-02-2011 14:00:00 -2.4 C 2.74 g/m*3 -2.4 C 0 km/h
2916 01-02-2011 15:00:00 -2.66 C 2.7 g/m*3 -2.66 C 0 km/h
2917 01-02-2011 16:00:00 -3.62 C 2.62 g/m*3 -3.62 C 0 km/h
2918 01-02-2011 17:00:00 -4.1 C 2.68 g/m*3 -4.1 C 0 km/h
2919 01-02-2011 18:00:00 -3.6 C 2.77 g/m*3 -3.6 C 0 km/h
2920 01-02-2011 19:00:00 -3.38 C 2.75 g/m*3 -3.38 C 0 km/h
2921 01-02-2011 20:00:00 -3.3 C 2.76 g/m*3 -3.3 C 0 km/h
2922 01-02-2011 21:00:00 -3.56 C 2.63 g/m*3 -3.56 C 0 km/h
2923 01-02-2011 22:00:00 -3.6 C 2.61 g/m*3 -3.6 C 0 km/h
2924 01-02-2011 23:00:00 -3.72 C 2.89 g/m*3 -3.72 C 0 km/h
2925 02-02-2011 00:00:00 -3.84 C 3.02 g/m*3 -3.84 C 0 km/h
Sensor: Nr:Datum:Temp:Abs-Feuchte:Windchill:Wind:
Aussen-T/F 2926 02-02-2011 01:00:00 -3.66 C 3.05 g/m*3 -3.66 C 0 km/h
2927 02-02-2011 02:00:00 -3.38 C 3.02 g/m*3 -3.38 C 0 km/h
2928 02-02-2011 03:00:00 -3.28 C 3.04 g/m*3 -3.28 C 0 km/h
2929 02-02-2011 04:00:00 -3.12 C 3.09 g/m*3 -3.12 C 0 km/h
2930 02-02-2011 05:00:00 -2.98 C 3.15 g/m*3 -2.98 C 0 km/h
2931 02-02-2011 06:00:00 -2.84 C 3.18 g/m*3 -2.84 C 0 km/h
2932 02-02-2011 07:00:00 -2.68 C 3.21 g/m*3 -2.68 C 0 km/h
2933 02-02-2011 08:00:00 -2.28 C 3.3 g/m*3 -2.28 C 0 km/h
2934 02-02-2011 09:00:00 -1.54 C 3.33 g/m*3 -1.54 C 0 km/h
2935 02-02-2011 10:00:00 -0.94 C 3.33 g/m*3 -0.94 C 0 km/h
2936 02-02-2011 11:00:00 -0.46 C 3.38 g/m*3 -0.46 C 0 km/h
2937 02-02-2011 12:00:00 1.26 C 3.51 g/m*3 1.26 C 0 km/h
2938 02-02-2011 13:00:00 1.94 C 3.65 g/m*3 1.94 C 0 km/h
2939 02-02-2011 14:00:00 1.92 C 3.79 g/m*3 1.92 C 0 km/h
2940 02-02-2011 15:00:00 1.42 C 3.79 g/m*3 1.42 C 0 km/h
2941 02-02-2011 16:00:00 1.16 C 3.8 g/m*3 1.16 C 0 km/h
2942 02-02-2011 17:00:00 0.64 C 3.84 g/m*3 0.64 C 0 km/h
2943 02-02-2011 18:00:00 0.52 C 3.81 g/m*3 0.52 C 0 km/h
2944 02-02-2011 19:00:00 0.32 C 3.81 g/m*3 0.32 C 0 km/h
2945 02-02-2011 20:00:00 0.28 C 3.81 g/m*3 0.28 C 0 km/h
2946 02-02-2011 21:00:00 0.26 C 3.8 g/m*3 0.26 C 0 km/h
2947 02-02-2011 22:00:00 0.2 C 3.78 g/m*3 0.2 C 0 km/h
2948 02-02-2011 23:00:00 0.32 C 3.81 g/m*3 0.32 C 0 km/h
2949 03-02-2011 00:00:00 0.34 C 3.78 g/m*3 0.34 C 0 km/h
2950 03-02-2011 01:00:00 0.48 C 3.82 g/m*3 0.48 C 0 km/h
Sensor: Nr:Datum:Temp:Abs-Feuchte:Windchill:Wind:
Aussen-T/F 2951 03-02-2011 02:00:00 0.64 C 3.99 g/m*3 0.64 C 0 km/h
2952 03-02-2011 03:00:00 0.44 C 4.2 g/m*3 0.44 C 0 km/h
2953 03-02-2011 04:00:00 0.6 C 4.42 g/m*3 0.6 C 0 km/h
2954 03-02-2011 05:00:00 0.9 C 4.56 g/m*3 0.9 C 0 km/h
2955 03-02-2011 06:00:00 1.16 C 4.6 g/m*3 1.16 C 0 km/h
2956 03-02-2011 07:00:00 1.4 C 4.66 g/m*3 1.4 C 0 km/h
2957 03-02-2011 08:00:00 1.52 C 4.68 g/m*3 1.52 C 0 km/h
2958 03-02-2011 09:00:00 1.88 C 4.67 g/m*3 1.88 C 0 km/h
2959 03-02-2011 10:00:00 2.3 C 4.64 g/m*3 2.3 C 0 km/h
2960 03-02-2011 11:00:00 2.82 C 4.64 g/m*3 2.82 C 0 km/h
2961 03-02-2011 12:00:00 3.38 C 4.66 g/m*3 3.38 C 0 km/h
2962 03-02-2011 13:00:00 3.52 C 4.68 g/m*3 3.52 C 0 km/h
2963 03-02-2011 14:00:00 3.64 C 4.78 g/m*3 3.64 C 0 km/h
2964 03-02-2011 15:00:00 3.42 C 4.76 g/m*3 3.42 C 0 km/h
2965 03-02-2011 16:00:00 3.22 C 4.71 g/m*3 3.22 C 0 km/h
2966 03-02-2011 17:00:00 2.76 C 4.68 g/m*3 2.76 C 0 km/h
2967 03-02-2011 18:00:00 2.64 C 4.57 g/m*3 2.64 C 0 km/h
2968 03-02-2011 19:00:00 1.8 C 4.46 g/m*3 1.8 C 0 km/h
2969 03-02-2011 20:00:00 1.62 C 4.41 g/m*3 1.62 C 0 km/h
2970 03-02-2011 21:00:00 1.68 C 4.35 g/m*3 1.68 C 0 km/h
2971 03-02-2011 22:00:00 2.15 C 4.34 g/m*3 2.15 C 0 km/h
2972 03-02-2011 23:00:00 2.4 C 4.43 g/m*3 2.4 C 0 km/h
2973 04-02-2011 00:00:00 3.02 C 4.36 g/m*3 3.02 C 0 km/h
2974 04-02-2011 01:00:00 3.12 C 4.32 g/m*3 3.12 C 0 km/h
2975 04-02-2011 02:00:00 2.64 C 4.42 g/m*3 2.64 C 0 km/h
Sensor: Nr:Datum:Temp:Abs-Feuchte:Windchill:Wind:
Aussen-T/F 2976 04-02-2011 03:00:00 2.68 C 4.39 g/m*3 2.68 C 0 km/h
2977 04-02-2011 04:00:00 2.86 C 4.5 g/m*3 2.86 C 0 km/h
2978 04-02-2011 05:00:00 3.34 C 4.77 g/m*3 3.34 C 0 km/h
2979 04-02-2011 06:00:00 4.08 C 4.92 g/m*3 4.08 C 0 km/h
2980 04-02-2011 07:00:00 4.66 C 5 g/m*3 4.66 C 0 km/h
2981 04-02-2011 08:00:00 5.46 C 5.11 g/m*3 5.46 C 0 km/h
2982 04-02-2011 09:00:00 6.12 C 5.05 g/m*3 6.12 C 0 km/h
2983 04-02-2011 10:00:00 6.6 C 5.07 g/m*3 6.6 C 0 km/h
2984 04-02-2011 11:00:00 7.26 C 5.09 g/m*3 7.26 C 0 km/h
2985 04-02-2011 12:00:00 7.5 C 5.22 g/m*3 7.5 C 0 km/h
2986 04-02-2011 13:00:00 7.46 C 5.3 g/m*3 7.46 C 0 km/h
2987 04-02-2011 14:00:00 7.52 C 5.4 g/m*3 7.52 C 0 km/h
2988 04-02-2011 15:00:00 7.82 C 5.48 g/m*3 7.82 C 0 km/h
2989 04-02-2011 16:00:00 7.82 C 5.56 g/m*3 7.82 C 0 km/h
2990 04-02-2011 17:00:00 7.8 C 5.6 g/m*3 7.8 C 0 km/h
2991 04-02-2011 18:00:00 8.08 C 5.58 g/m*3 8.08 C 0 km/h
2992 04-02-2011 19:00:00 8.32 C 5.65 g/m*3 8.32 C 0 km/h
2993 04-02-2011 20:00:00 8.42 C 5.74 g/m*3 8.42 C 0 km/h
2994 04-02-2011 21:00:00 8.44 C 5.73 g/m*3 8.44 C 0 km/h
2995 04-02-2011 22:00:00 8.6 C 5.72 g/m*3 8.6 C 0 km/h
2996 04-02-2011 23:00:00 8.84 C 5.72 g/m*3 8.84 C 0 km/h
2997 05-02-2011 00:00:00 8.76 C 5.64 g/m*3 8.76 C 0 km/h
2998 05-02-2011 01:00:00 8.56 C 5.69 g/m*3 8.56 C 0 km/h
2999 05-02-2011 02:00:00 8.8 C 5.61 g/m*3 8.8 C 0 km/h
3000 05-02-2011 03:00:00 9.1 C 5.45 g/m*3 9.1 C 0 km/h
Sensor: Nr:Datum:Temp:Abs-Feuchte:Windchill:Wind:
Aussen-T/F 3001 05-02-2011 04:00:00 8.92 C 5.47 g/m*3 8.92 C 0 km/h
3002 05-02-2011 05:00:00 8.72 C 5.49 g/m*3 8.72 C 0 km/h
3003 05-02-2011 06:00:00 8.7 C 5.5 g/m*3 8.7 C 0 km/h
3004 05-02-2011 07:00:00 8.96 C 5.5 g/m*3 8.96 C 0 km/h
3005 05-02-2011 08:00:00 8.84 C 5.55 g/m*3 8.84 C 0 km/h
3006 05-02-2011 09:00:00 9.2 C 5.46 g/m*3 9.2 C 0 km/h
3007 05-02-2011 10:00:00 9.66 C 5.43 g/m*3 9.66 C 0 km/h
3008 05-02-2011 11:00:00 10.04 C 5.37 g/m*3 10.04 C 0 km/h
3009 05-02-2011 12:00:00 10.16 C 5.39 g/m*3 10.16 C 0 km/h
3010 05-02-2011 13:00:00 10.22 C 5.41 g/m*3 10.22 C 0 km/h
3011 05-02-2011 14:00:00 10.02 C 5.36 g/m*3 10.02 C 0 km/h
3012 05-02-2011 15:00:00 9.74 C 5.36 g/m*3 9.74 C 0 km/h
3013 05-02-2011 16:00:00 9.44 C 5.44 g/m*3 9.44 C 0 km/h
3014 05-02-2011 17:00:00 9.16 C 5.54 g/m*3 9.16 C 0 km/h
3015 05-02-2011 18:00:00 9.18 C 5.62 g/m*3 9.18 C 0 km/h
3016 05-02-2011 19:00:00 9.1 C 5.61 g/m*3 9.1 C 0 km/h
3017 05-02-2011 20:00:00 9.22 C 5.74 g/m*3 9.22 C 0 km/h
3018 05-02-2011 21:00:00 9.18 C 5.8 g/m*3 9.18 C 0 km/h
3019 05-02-2011 22:00:00 9.18 C 5.9 g/m*3 9.18 C 0 km/h
3020 05-02-2011 23:00:00 9.34 C 5.91 g/m*3 9.34 C 0 km/h
3021 06-02-2011 00:00:00 9.54 C 5.95 g/m*3 9.54 C 0 km/h
3022 06-02-2011 01:00:00 9.52 C 6 g/m*3 9.52 C 0 km/h
3023 06-02-2011 02:00:00 9.4 C 5.97 g/m*3 9.4 C 0 km/h
3024 06-02-2011 03:00:00 9.44 C 5.88 g/m*3 9.44 C 0 km/h
3025 06-02-2011 04:00:00 9.58 C 5.82 g/m*3 9.58 C 0 km/h
Sensor: Nr:Datum:Temp:Abs-Feuchte:Windchill:Wind:
Aussen-T/F 3026 06-02-2011 05:00:00 9.5 C 5.63 g/m*3 9.5 C 0 km/h
3027 06-02-2011 06:00:00 9.42 C 5.54 g/m*3 9.42 C 0 km/h
3028 06-02-2011 07:00:00 9.3 C 5.43 g/m*3 9.3 C 0 km/h
3029 06-02-2011 08:00:00 9.14 C 5.36 g/m*3 9.14 C 0 km/h
3030 06-02-2011 09:00:00 9.22 C 5.33 g/m*3 9.22 C 0 km/h
3031 06-02-2011 10:00:00 9.5 C 5.19 g/m*3 9.5 C 0 km/h
3032 06-02-2011 11:00:00 9.72 C 5.11 g/m*3 9.72 C 0 km/h
3033 06-02-2011 12:00:00 9.82 C 5.02 g/m*3 9.82 C 0 km/h
3034 06-02-2011 13:00:00 9.86 C 4.86 g/m*3 9.86 C 0 km/h
3035 06-02-2011 14:00:00 10.42 C 4.84 g/m*3 10.42 C 0 km/h
3036 06-02-2011 15:00:00 9.7 C 4.72 g/m*3 9.7 C 0 km/h
3037 06-02-2011 16:00:00 8.44 C 4.66 g/m*3 8.44 C 0 km/h
3038 06-02-2011 17:00:00 7.5 C 4.72 g/m*3 7.5 C 0 km/h
3039 06-02-2011 18:00:00 6.86 C 4.64 g/m*3 6.86 C 0 km/h
3040 06-02-2011 19:00:00 6.88 C 4.61 g/m*3 6.88 C 0 km/h
3041 06-02-2011 20:00:00 6.52 C 4.6 g/m*3 6.52 C 0 km/h
3042 06-02-2011 21:00:00 6.14 C 4.63 g/m*3 6.14 C 0 km/h
3043 06-02-2011 22:00:00 5.8 C 4.74 g/m*3 5.8 C 0 km/h
3044 06-02-2011 23:00:00 5.66 C 4.74 g/m*3 5.66 C 0 km/h
3045 07-02-2011 00:00:00 5.28 C 4.79 g/m*3 5.28 C 0 km/h
3046 07-02-2011 01:00:00 5.48 C 4.7 g/m*3 5.48 C 0 km/h
3047 07-02-2011 02:00:00 5.7 C 4.5 g/m*3 5.7 C 0 km/h
3048 07-02-2011 03:00:00 5.56 C 4.44 g/m*3 5.56 C 0 km/h
3049 07-02-2011 04:00:00 5.34 C 4.43 g/m*3 5.34 C 0 km/h
3050 07-02-2011 05:00:00 5.12 C 4.37 g/m*3 5.12 C 0 km/h
Sensor: Nr:Datum:Temp:Abs-Feuchte:Windchill:Wind:
Aussen-T/F 3051 07-02-2011 06:00:00 4.8 C 4.37 g/m*3 4.8 C 0 km/h
3052 07-02-2011 07:00:00 4.48 C 4.31 g/m*3 4.48 C 0 km/h
3053 07-02-2011 08:00:00 4.42 C 4.29 g/m*3 4.42 C 0 km/h
3054 07-02-2011 09:00:00 3.92 C 4.29 g/m*3 3.92 C 0 km/h
3055 07-02-2011 10:00:00 3.2 C 4.47 g/m*3 3.2 C 0 km/h
3056 07-02-2011 11:00:00 4.52 C 4.62 g/m*3 4.52 C 0 km/h
3057 07-02-2011 12:00:00 6.06 C 4.62 g/m*3 6.06 C 0 km/h
3058 07-02-2011 13:00:00 7.18 C 4.78 g/m*3 7.18 C 0 km/h
3059 07-02-2011 14:00:00 9.68 C 4.12 g/m*3 9.68 C 0 km/h
3060 07-02-2011 15:00:00 11.94 C 2.78 g/m*3 11.94 C 0 km/h
3061 07-02-2011 16:00:00 12.1 C 2.53 g/m*3 12.1 C 0 km/h
3062 07-02-2011 17:00:00 8.82 C 3 g/m*3 8.82 C 0 km/h
3063 07-02-2011 18:00:00 8.3 C 3.15 g/m*3 8.3 C 0 km/h
3064 07-02-2011 19:00:00 7.06 C 3.38 g/m*3 7.06 C 0 km/h
3065 07-02-2011 20:00:00 6.06 C 3.47 g/m*3 6.06 C 0 km/h
3066 07-02-2011 21:00:00 6.06 C 3.67 g/m*3 6.06 C 0 km/h
3067 07-02-2011 22:00:00 6.6 C 3.73 g/m*3 6.6 C 0 km/h
3068 07-02-2011 23:00:00 7.86 C 3.59 g/m*3 7.86 C 0 km/h
3069 08-02-2011 00:00:00 7.66 C 3.75 g/m*3 7.66 C 0 km/h
3070 08-02-2011 01:00:00 7.8 C 4.34 g/m*3 7.8 C 0 km/h
3071 08-02-2011 02:00:00 8.04 C 4.39 g/m*3 8.04 C 0 km/h
3072 08-02-2011 03:00:00 7.96 C 4.55 g/m*3 7.96 C 0 km/h
3073 08-02-2011 04:00:00 7.3 C 4.85 g/m*3 7.3 C 0 km/h
3074 08-02-2011 05:00:00 7.46 C 5 g/m*3 7.46 C 0 km/h
3075 08-02-2011 06:00:00 6.86 C 5.05 g/m*3 6.86 C 0 km/h
Sensor: Nr:Datum:Temp:Abs-Feuchte:Windchill:Wind:
Aussen-T/F 3076 08-02-2011 07:00:00 6.04 C 5.37 g/m*3 6.04 C 0 km/h
3077 08-02-2011 08:00:00 4.52 C 5.11 g/m*3 4.52 C 0 km/h
3078 08-02-2011 09:00:00 4.2 C 5.05 g/m*3 4.2 C 0 km/h
3079 08-02-2011 10:00:00 5.66 C 5.18 g/m*3 5.66 C 0 km/h
3080 08-02-2011 11:00:00 7.28 C 4.96 g/m*3 7.28 C 0 km/h
3081 08-02-2011 12:00:00 8.38 C 4.61 g/m*3 8.38 C 0 km/h
3082 08-02-2011 13:00:00 9.5 C 4.42 g/m*3 9.5 C 0 km/h
3083 08-02-2011 14:00:00 9.42 C 4.49 g/m*3 9.42 C 0 km/h
3084 08-02-2011 15:00:00 9.24 C 4.4 g/m*3 9.24 C 0 km/h
3085 08-02-2011 16:00:00 10.18 C 4.37 g/m*3 10.18 C 0 km/h
3086 08-02-2011 17:00:00 4.78 C 4.42 g/m*3 4.78 C 0 km/h
3087 08-02-2011 18:00:00 3 C 4.26 g/m*3 3 C 0 km/h
3088 08-02-2011 19:00:00 1.48 C 4.16 g/m*3 1.48 C 0 km/h
3089 08-02-2011 20:00:00 -0.02 C 3.97 g/m*3 -0.02 C 0 km/h
3090 08-02-2011 21:00:00 -0.9 C 3.8 g/m*3 -0.9 C 0 km/h
3091 08-02-2011 22:00:00 -1.78 C 3.61 g/m*3 -1.78 C 0 km/h
3092 08-02-2011 23:00:00 -2.34 C 3.5 g/m*3 -2.34 C 0 km/h
3093 09-02-2011 00:00:00 -2.74 C 3.43 g/m*3 -2.74 C 0 km/h
3094 09-02-2011 01:00:00 -3.2 C 3.33 g/m*3 -3.2 C 0 km/h
3095 09-02-2011 02:00:00 -3.38 C 3.31 g/m*3 -3.38 C 0 km/h
3096 09-02-2011 03:00:00 -3.78 C 3.23 g/m*3 -3.78 C 0 km/h
3097 09-02-2011 04:00:00 -4.04 C 3.18 g/m*3 -4.04 C 0 km/h
3098 09-02-2011 05:00:00 -4.26 C 3.12 g/m*3 -4.26 C 0 km/h
3099 09-02-2011 06:00:00 -4.06 C 3.17 g/m*3 -4.06 C 0 km/h
3100 09-02-2011 07:00:00 -3.42 C 3.32 g/m*3 -3.42 C 0 km/h
Sensor: Nr:Datum:Temp:Abs-Feuchte:Windchill:Wind:
Aussen-T/F 3101 09-02-2011 08:00:00 -3.2 C 3.41 g/m*3 -3.2 C 0 km/h
3102 09-02-2011 09:00:00 -2.76 C 3.52 g/m*3 -2.76 C 0 km/h
3103 09-02-2011 10:00:00 -2 C 3.71 g/m*3 -2 C 0 km/h
3104 09-02-2011 11:00:00 -0.58 C 4.05 g/m*3 -0.58 C 0 km/h
3105 09-02-2011 12:00:00 0.9 C 4.34 g/m*3 0.9 C 0 km/h
3106 09-02-2011 13:00:00 2.48 C 4.5 g/m*3 2.48 C 0 km/h
3107 09-02-2011 14:00:00 3.6 C 4.87 g/m*3 3.6 C 0 km/h
3108 09-02-2011 15:00:00 5.22 C 4.87 g/m*3 5.22 C 0 km/h
3109 09-02-2011 16:00:00 8.16 C 4.38 g/m*3 8.16 C 0 km/h
3110 09-02-2011 17:00:00 3.66 C 4.41 g/m*3 3.66 C 0 km/h
3111 09-02-2011 18:00:00 3.04 C 4.61 g/m*3 3.04 C 0 km/h
3112 09-02-2011 19:00:00 2.4 C 4.61 g/m*3 2.4 C 0 km/h
3113 09-02-2011 20:00:00 1.5 C 4.55 g/m*3 1.5 C 0 km/h
3114 09-02-2011 21:00:00 0.92 C 4.51 g/m*3 0.92 C 0 km/h
3115 09-02-2011 22:00:00 0.08 C 4.29 g/m*3 0.08 C 0 km/h
3116 09-02-2011 23:00:00 -0.14 C 4.26 g/m*3 -0.14 C 0 km/h
3117 10-02-2011 00:00:00 -0.28 C 4.24 g/m*3 -0.28 C 0 km/h
3118 10-02-2011 01:00:00 -0.82 C 4.11 g/m*3 -0.82 C 0 km/h
3119 10-02-2011 02:00:00 -1.22 C 4.01 g/m*3 -1.22 C 0 km/h
3120 10-02-2011 03:00:00 -1.26 C 4 g/m*3 -1.26 C 0 km/h
3121 10-02-2011 04:00:00 -0.22 C 4.34 g/m*3 -0.22 C 0 km/h
3122 10-02-2011 05:00:00 0.56 C 4.63 g/m*3 0.56 C 0 km/h
3123 10-02-2011 06:00:00 0.96 C 4.76 g/m*3 0.96 C 0 km/h
3124 10-02-2011 07:00:00 1.1 C 4.81 g/m*3 1.1 C 0 km/h
3125 10-02-2011 08:00:00 1.34 C 4.89 g/m*3 1.34 C 0 km/h
Sensor: Nr:Datum:Temp:Abs-Feuchte:Windchill:Wind:
Aussen-T/F 3126 10-02-2011 09:00:00 1.64 C 4.88 g/m*3 1.64 C 0 km/h
3127 10-02-2011 10:00:00 3.02 C 4.8 g/m*3 3.02 C 0 km/h
3128 10-02-2011 11:00:00 4.78 C 4.54 g/m*3 4.78 C 0 km/h
3129 10-02-2011 12:00:00 5.76 C 4.5 g/m*3 5.76 C 0 km/h
3130 10-02-2011 13:00:00 6.26 C 4.46 g/m*3 6.26 C 0 km/h
3131 10-02-2011 14:00:00 7.64 C 4.6 g/m*3 7.64 C 0 km/h
3132 10-02-2011 15:00:00 7.72 C 4.81 g/m*3 7.72 C 0 km/h
3133 10-02-2011 16:00:00 6.88 C 5.03 g/m*3 6.88 C 0 km/h
3134 10-02-2011 17:00:00 6 C 5.4 g/m*3 6 C 0 km/h
3135 10-02-2011 18:00:00 5.58 C 5.79 g/m*3 5.58 C 0 km/h
3136 10-02-2011 19:00:00 5.72 C 5.89 g/m*3 5.72 C 0 km/h
3137 10-02-2011 20:00:00 7.28 C 5.87 g/m*3 7.28 C 0 km/h
3138 10-02-2011 21:00:00 8.32 C 6.03 g/m*3 8.32 C 0 km/h
3139 10-02-2011 22:00:00 8.52 C 6.24 g/m*3 8.52 C 0 km/h
3140 10-02-2011 23:00:00 9.34 C 6.29 g/m*3 9.34 C 0 km/h
3141 11-02-2011 00:00:00 9.46 C 6.39 g/m*3 9.46 C 0 km/h
3142 11-02-2011 01:00:00 9.44 C 6.53 g/m*3 9.44 C 0 km/h
3143 11-02-2011 02:00:00 9.46 C 6.63 g/m*3 9.46 C 0 km/h
3144 11-02-2011 03:00:00 9 C 6.82 g/m*3 9 C 0 km/h
3145 11-02-2011 04:00:00 9.16 C 6.79 g/m*3 9.16 C 0 km/h
3146 11-02-2011 05:00:00 9.3 C 6.69 g/m*3 9.3 C 0 km/h
3147 11-02-2011 06:00:00 9.1 C 6.9 g/m*3 9.1 C 0 km/h
3148 11-02-2011 07:00:00 9.14 C 6.94 g/m*3 9.14 C 0 km/h
3149 11-02-2011 08:00:00 9.28 C 6.93 g/m*3 9.28 C 0 km/h
3150 11-02-2011 09:00:00 9.92 C 6.88 g/m*3 9.92 C 0 km/h
Sensor: Nr:Datum:Temp:Abs-Feuchte:Windchill:Wind:
Aussen-T/F 3151 11-02-2011 10:00:00 10.82 C 6.95 g/m*3 10.82 C 0 km/h
3152 11-02-2011 11:00:00 11.28 C 6.99 g/m*3 11.28 C 0 km/h
3153 11-02-2011 12:00:00 12.42 C 7.02 g/m*3 12.42 C 0 km/h
3154 11-02-2011 13:00:00 11.28 C 7.27 g/m*3 11.28 C 0 km/h
3155 11-02-2011 14:00:00 10.88 C 7.49 g/m*3 10.88 C 0 km/h
3156 11-02-2011 15:00:00 11.12 C 7.52 g/m*3 11.12 C 0 km/h
3157 11-02-2011 16:00:00 11.44 C 7.47 g/m*3 11.44 C 0 km/h
3158 11-02-2011 17:00:00 11.24 C 7.36 g/m*3 11.24 C 0 km/h
3159 11-02-2011 18:00:00 10.38 C 7.62 g/m*3 10.38 C 0 km/h
3160 11-02-2011 19:00:00 10.52 C 7.57 g/m*3 10.52 C 0 km/h
3161 11-02-2011 20:00:00 10.58 C 7.43 g/m*3 10.58 C 0 km/h
3162 11-02-2011 21:00:00 10.72 C 7.28 g/m*3 10.72 C 0 km/h
3163 11-02-2011 22:00:00 10.06 C 7.13 g/m*3 10.06 C 0 km/h
3164 11-02-2011 23:00:00 9.74 C 7.23 g/m*3 9.74 C 0 km/h
3165 12-02-2011 00:00:00 9.96 C 7.29 g/m*3 9.96 C 0 km/h
3166 12-02-2011 01:00:00 9.02 C 7.5 g/m*3 9.02 C 0 km/h
3167 12-02-2011 02:00:00 8.6 C 7.53 g/m*3 8.6 C 0 km/h
3168 12-02-2011 03:00:00 8.28 C 7.46 g/m*3 8.28 C 0 km/h
3169 12-02-2011 04:00:00 7.66 C 7.26 g/m*3 7.66 C 0 km/h
3170 12-02-2011 05:00:00 7.6 C 7.27 g/m*3 7.6 C 0 km/h
3171 12-02-2011 06:00:00 6.82 C 6.83 g/m*3 6.82 C 0 km/h
3172 12-02-2011 07:00:00 5.72 C 5.77 g/m*3 5.72 C 0 km/h
3173 12-02-2011 08:00:00 5.52 C 5.64 g/m*3 5.52 C 0 km/h
3174 12-02-2011 09:00:00 6.1 C 5.65 g/m*3 6.1 C 0 km/h
3175 12-02-2011 10:00:00 7.32 C 5.71 g/m*3 7.32 C 0 km/h
Sensor: Nr:Datum:Temp:Abs-Feuchte:Windchill:Wind:
Aussen-T/F 3176 12-02-2011 11:00:00 8.3 C 5.83 g/m*3 8.3 C 0 km/h
3177 12-02-2011 12:00:00 9.1 C 5.91 g/m*3 9.1 C 0 km/h
3178 12-02-2011 13:00:00 7.96 C 6 g/m*3 7.96 C 0 km/h
3179 12-02-2011 14:00:00 8.04 C 6.08 g/m*3 8.04 C 0 km/h
3180 12-02-2011 15:00:00 8.56 C 5.93 g/m*3 8.56 C 0 km/h
3181 12-02-2011 16:00:00 7.48 C 5.84 g/m*3 7.48 C 0 km/h
3182 12-02-2011 17:00:00 6.3 C 5.79 g/m*3 6.3 C 0 km/h
3183 12-02-2011 18:00:00 4.26 C 5.47 g/m*3 4.26 C 0 km/h
3184 12-02-2011 19:00:00 3.64 C 5.47 g/m*3 3.64 C 0 km/h
3185 12-02-2011 20:00:00 4.42 C 5.86 g/m*3 4.42 C 0 km/h
3186 12-02-2011 21:00:00 4.68 C 5.99 g/m*3 4.68 C 0 km/h
3187 12-02-2011 22:00:00 4.72 C 6.03 g/m*3 4.72 C 0 km/h
3188 12-02-2011 23:00:00 5.06 C 6.15 g/m*3 5.06 C 0 km/h
3189 13-02-2011 00:00:00 5.24 C 6.17 g/m*3 5.24 C 0 km/h
3190 13-02-2011 01:00:00 5.06 C 6.11 g/m*3 5.06 C 0 km/h
3191 13-02-2011 02:00:00 4.74 C 6.08 g/m*3 4.74 C 0 km/h
3192 13-02-2011 03:00:00 4.92 C 6.15 g/m*3 4.92 C 0 km/h
3193 13-02-2011 04:00:00 4.92 C 6.18 g/m*3 4.92 C 0 km/h
3194 13-02-2011 05:00:00 4.24 C 5.94 g/m*3 4.24 C 0 km/h
3195 13-02-2011 06:00:00 3.88 C 5.8 g/m*3 3.88 C 0 km/h
3196 13-02-2011 07:00:00 2.66 C 5.36 g/m*3 2.66 C 0 km/h
3197 13-02-2011 08:00:00 1.74 C 5.06 g/m*3 1.74 C 0 km/h
3198 13-02-2011 09:00:00 2.76 C 5.41 g/m*3 2.76 C 0 km/h
3199 13-02-2011 10:00:00 4.74 C 5.97 g/m*3 4.74 C 0 km/h
3200 13-02-2011 11:00:00 6.14 C 5.79 g/m*3 6.14 C 0 km/h
Sensor: Nr:Datum:Temp:Abs-Feuchte:Windchill:Wind:
Aussen-T/F 3201 13-02-2011 12:00:00 7.56 C 5.64 g/m*3 7.56 C 0 km/h
3202 13-02-2011 13:00:00 7.56 C 5.13 g/m*3 7.56 C 0 km/h
3203 13-02-2011 14:00:00 8.78 C 5.11 g/m*3 8.78 C 0 km/h
3204 13-02-2011 15:00:00 8.9 C 4.92 g/m*3 8.9 C 0 km/h
3205 13-02-2011 16:00:00 8.16 C 5.03 g/m*3 8.16 C 0 km/h
3206 13-02-2011 17:00:00 5.96 C 5.47 g/m*3 5.96 C 0 km/h
3207 13-02-2011 18:00:00 4.48 C 5.44 g/m*3 4.48 C 0 km/h
3208 13-02-2011 19:00:00 4.36 C 5.55 g/m*3 4.36 C 0 km/h
3209 13-02-2011 20:00:00 4.28 C 5.54 g/m*3 4.28 C 0 km/h
3210 13-02-2011 21:00:00 4.22 C 5.55 g/m*3 4.22 C 0 km/h
3211 13-02-2011 22:00:00 4.06 C 5.52 g/m*3 4.06 C 0 km/h
3212 13-02-2011 23:00:00 3.86 C 5.53 g/m*3 3.86 C 0 km/h
3213 14-02-2011 00:00:00 3.36 C 5.4 g/m*3 3.36 C 0 km/h
3214 14-02-2011 01:00:00 2.96 C 5.3 g/m*3 2.96 C 0 km/h
3215 14-02-2011 02:00:00 2.62 C 5.22 g/m*3 2.62 C 0 km/h
3216 14-02-2011 03:00:00 2.26 C 5.15 g/m*3 2.26 C 0 km/h